Time,TemperatureF,DewpointF,PressureIn,WindDirection,WindDirectionDegrees,WindSpeedMPH,WindSpeedGustMPH,Humidity,HourlyPrecipIn,Conditions,Clouds,dailyrainin,SoftwareType,DateUTC
2013-05-10 00:00:00,59.3,51.4,29.85,NW,308,0.0,0.0,75,0.00,,,0.00,VWS V14.01,2013-05-10 04:00:00,
2013-05-10 00:01:00,59.3,51.4,29.85,NW,308,0.0,0.0,75,0.00,,,0.00,VWS V14.01,2013-05-10 04:01:00,
2013-05-10 00:02:00,59.3,51.4,29.85,NW,308,0.0,0.0,75,0.00,,,0.00,VWS V14.01,2013-05-10 04:02:00,
2013-05-10 00:03:00,59.3,51.4,29.85,NW,308,0.0,0.0,75,0.00,,,0.00,VWS V14.01,2013-05-10 04:03:00,
2013-05-10 00:04:00,59.3,51.4,29.85,NW,308,0.0,0.0,75,0.00,,,0.00,VWS V14.01,2013-05-10 04:04:00,
2013-05-10 00:05:00,59.3,51.4,29.85,NW,308,0.0,0.0,75,0.00,,,0.00,VWS V14.01,2013-05-10 04:05:00,
2013-05-10 00:06:00,59.3,51.4,29.85,NW,308,0.0,0.0,75,0.00,,,0.00,VWS V14.01,2013-05-10 04:06:00,
2013-05-10 00:07:00,59.3,51.4,29.85,NW,308,0.0,0.0,75,0.00,,,0.00,VWS V14.01,2013-05-10 04:07:00,
2013-05-10 00:08:00,59.3,51.4,29.85,NW,308,0.0,0.0,75,0.00,,,0.00,VWS V14.01,2013-05-10 04:08:00,
2013-05-10 00:09:00,59.1,51.2,29.85,NW,308,0.0,0.0,75,0.00,,,0.00,VWS V14.01,2013-05-10 04:09:00,
2013-05-10 00:10:00,59.1,51.2,29.85,NW,308,0.0,0.0,75,0.00,,,0.00,VWS V14.01,2013-05-10 04:10:00,
2013-05-10 00:11:00,59.1,51.2,29.85,NW,308,0.0,0.0,75,0.00,,,0.00,VWS V14.01,2013-05-10 04:11:00,
2013-05-10 00:12:00,59.3,51.4,29.85,NW,308,0.0,0.0,75,0.00,,,0.00,VWS V14.01,2013-05-10 04:12:00,
2013-05-10 00:13:00,59.3,51.4,29.85,NW,308,0.0,0.0,75,0.00,,,0.00,VWS V14.01,2013-05-10 04:13:00,
2013-05-10 00:14:00,59.3,51.4,29.85,NW,308,0.0,0.0,75,0.00,,,0.00,VWS V14.01,2013-05-10 04:14:00,
2013-05-10 00:15:00,59.3,51.7,29.85,NW,308,0.0,0.0,76,0.00,,,0.00,VWS V14.01,2013-05-10 04:15:00,
2013-05-10 00:16:00,59.3,51.7,29.85,NW,308,0.0,0.0,76,0.00,,,0.00,VWS V14.01,2013-05-10 04:16:00,
2013-05-10 00:17:00,59.3,51.7,29.85,NW,308,0.0,0.0,76,0.00,,,0.00,VWS V14.01,2013-05-10 04:17:00,
2013-05-10 00:18:00,59.3,51.7,29.85,NW,308,0.0,0.0,76,0.00,,,0.00,VWS V14.01,2013-05-10 04:18:00,
2013-05-10 00:19:00,59.3,51.7,29.85,NW,308,0.0,0.0,76,0.00,,,0.00,VWS V14.01,2013-05-10 04:19:00,
2013-05-10 00:20:00,59.3,51.7,29.85,NW,308,0.0,0.0,76,0.00,,,0.00,VWS V14.01,2013-05-10 04:20:00,
2013-05-10 00:21:00,59.3,51.7,29.85,NW,308,0.0,0.0,76,0.00,,,0.00,VWS V14.01,2013-05-10 04:21:00,
2013-05-10 00:22:00,59.3,51.7,29.85,NW,308,0.0,0.0,76,0.00,,,0.00,VWS V14.01,2013-05-10 04:22:00,
2013-05-10 00:23:00,59.3,51.7,29.85,NW,308,0.0,0.0,76,0.00,,,0.00,VWS V14.01,2013-05-10 04:23:00,
2013-05-10 00:24:00,59.3,51.7,29.85,NW,308,0.0,0.0,76,0.00,,,0.00,VWS V14.01,2013-05-10 04:24:00,
2013-05-10 00:25:00,59.3,51.7,29.85,NW,308,0.0,0.0,76,0.00,,,0.00,VWS V14.01,2013-05-10 04:25:00,
2013-05-10 00:26:00,59.3,51.7,29.85,NW,308,0.0,0.0,76,0.00,,,0.00,VWS V14.01,2013-05-10 04:26:00,
2013-05-10 00:27:00,59.1,51.5,29.85,NW,308,0.0,0.0,76,0.00,,,0.00,VWS V14.01,2013-05-10 04:27:00,
2013-05-10 00:28:00,59.1,51.5,29.85,NW,308,0.0,0.0,76,0.00,,,0.00,VWS V14.01,2013-05-10 04:28:00,
2013-05-10 00:29:00,59.1,51.5,29.85,NW,308,0.0,0.0,76,0.00,,,0.00,VWS V14.01,2013-05-10 04:29:00,
2013-05-10 00:30:00,59.1,51.5,29.85,NW,308,0.0,0.0,76,0.00,,,0.00,VWS V14.01,2013-05-10 04:30:00,
2013-05-10 00:31:00,59.1,51.5,29.85,NW,308,0.0,0.0,76,0.00,,,0.00,VWS V14.01,2013-05-10 04:31:00,
2013-05-10 00:32:00,59.1,51.5,29.85,NW,308,0.0,0.0,76,0.00,,,0.00,VWS V14.01,2013-05-10 04:32:00,
2013-05-10 00:33:00,59.1,51.5,29.85,NW,308,0.0,0.0,76,0.00,,,0.00,VWS V14.01,2013-05-10 04:33:00,
2013-05-10 00:34:00,59.1,51.5,29.85,NW,308,0.0,0.0,76,0.00,,,0.00,VWS V14.01,2013-05-10 04:34:00,
2013-05-10 00:35:00,59.1,51.5,29.85,NW,308,0.0,0.0,76,0.00,,,0.00,VWS V14.01,2013-05-10 04:35:00,
2013-05-10 00:36:00,59.1,51.5,29.85,NW,308,0.0,0.0,76,0.00,,,0.00,VWS V14.01,2013-05-10 04:36:00,
2013-05-10 00:37:00,59.1,51.5,29.85,NW,308,0.0,0.0,76,0.00,,,0.00,VWS V14.01,2013-05-10 04:37:00,
2013-05-10 00:38:00,59.1,51.5,29.85,NW,308,0.0,0.0,76,0.00,,,0.00,VWS V14.01,2013-05-10 04:38:00,
2013-05-10 00:39:00,59.1,51.5,29.85,NW,308,0.0,0.0,76,0.00,,,0.00,VWS V14.01,2013-05-10 04:39:00,
2013-05-10 00:40:00,58.9,51.4,29.85,NW,308,0.0,0.0,76,0.00,,,0.00,VWS V14.01,2013-05-10 04:40:00,
2013-05-10 00:41:00,58.9,51.4,29.85,NW,308,0.0,0.0,76,0.00,,,0.00,VWS V14.01,2013-05-10 04:41:00,
2013-05-10 00:42:00,58.9,51.4,29.85,NW,308,0.0,0.0,76,0.00,,,0.00,VWS V14.01,2013-05-10 04:42:00,
2013-05-10 00:43:00,58.9,51.4,29.85,NW,308,0.0,0.0,76,0.00,,,0.00,VWS V14.01,2013-05-10 04:43:00,
2013-05-10 00:44:00,58.9,51.4,29.85,NW,308,0.0,0.0,76,0.00,,,0.00,VWS V14.01,2013-05-10 04:44:00,
2013-05-10 00:45:00,58.9,51.4,29.85,NW,308,0.0,0.0,76,0.00,,,0.00,VWS V14.01,2013-05-10 04:45:00,
2013-05-10 00:46:00,58.9,51.4,29.85,NW,308,0.0,0.0,76,0.00,,,0.00,VWS V14.01,2013-05-10 04:46:00,
2013-05-10 00:47:00,58.9,51.4,29.85,NW,308,0.0,0.0,76,0.00,,,0.00,VWS V14.01,2013-05-10 04:47:00,
2013-05-10 00:48:00,58.7,51.2,29.85,NW,308,0.0,0.0,76,0.00,,,0.00,VWS V14.01,2013-05-10 04:48:00,
2013-05-10 00:49:00,58.7,51.2,29.85,NW,308,0.0,0.0,76,0.00,,,0.00,VWS V14.01,2013-05-10 04:49:00,
2013-05-10 00:50:00,58.7,51.2,29.85,NW,308,0.0,0.0,76,0.00,,,0.00,VWS V14.01,2013-05-10 04:50:00,
2013-05-10 00:51:00,58.7,51.2,29.85,NW,308,0.0,0.0,76,0.00,,,0.00,VWS V14.01,2013-05-10 04:51:00,
2013-05-10 00:52:00,58.6,51.0,29.85,NW,308,0.0,0.0,76,0.00,,,0.00,VWS V14.01,2013-05-10 04:52:00,
2013-05-10 00:53:00,58.6,51.0,29.85,NW,308,0.0,0.0,76,0.00,,,0.00,VWS V14.01,2013-05-10 04:53:00,
2013-05-10 00:54:00,58.6,51.0,29.85,NW,308,0.0,0.0,76,0.00,,,0.00,VWS V14.01,2013-05-10 04:54:00,
2013-05-10 00:55:00,58.6,51.0,29.85,NW,308,0.0,0.0,76,0.00,,,0.00,VWS V14.01,2013-05-10 04:55:00,
2013-05-10 00:56:00,58.6,51.0,29.85,NW,308,0.0,0.0,76,0.00,,,0.00,VWS V14.01,2013-05-10 04:56:00,
2013-05-10 00:57:00,58.6,51.4,29.85,NW,308,0.0,0.0,77,0.00,,,0.00,VWS V14.01,2013-05-10 04:57:00,
2013-05-10 00:58:00,58.6,51.4,29.85,NW,308,0.0,0.0,77,0.00,,,0.00,VWS V14.01,2013-05-10 04:58:00,
2013-05-10 00:59:00,58.6,51.4,29.85,NW,308,0.0,0.0,77,0.00,,,0.00,VWS V14.01,2013-05-10 04:59:00,
2013-05-10 01:00:00,58.4,51.2,29.85,NW,308,0.0,0.0,77,0.00,,,0.00,VWS V14.01,2013-05-10 05:00:00,
2013-05-10 01:01:00,58.4,51.2,29.85,NW,308,0.0,0.0,77,0.00,,,0.00,VWS V14.01,2013-05-10 05:01:00,
2013-05-10 01:02:00,58.4,51.2,29.85,NW,308,0.0,0.0,77,0.00,,,0.00,VWS V14.01,2013-05-10 05:02:00,
2013-05-10 01:03:00,58.4,51.2,29.85,NW,308,0.0,0.0,77,0.00,,,0.00,VWS V14.01,2013-05-10 05:03:00,
2013-05-10 01:04:00,58.2,51.0,29.85,NW,308,0.0,0.0,77,0.00,,,0.00,VWS V14.01,2013-05-10 05:04:00,
2013-05-10 01:05:00,58.2,51.0,29.85,NW,308,0.0,0.0,77,0.00,,,0.00,VWS V14.01,2013-05-10 05:05:00,
2013-05-10 01:06:00,58.2,51.0,29.85,NW,308,0.0,0.0,77,0.00,,,0.00,VWS V14.01,2013-05-10 05:06:00,
2013-05-10 01:07:00,58.2,51.0,29.85,NW,308,0.0,0.0,77,0.00,,,0.00,VWS V14.01,2013-05-10 05:07:00,
2013-05-10 01:08:00,58.2,51.0,29.85,NW,308,0.0,0.0,77,0.00,,,0.00,VWS V14.01,2013-05-10 05:08:00,
2013-05-10 01:09:00,58.0,51.2,29.85,NW,308,0.0,0.0,78,0.00,,,0.00,VWS V14.01,2013-05-10 05:09:00,
2013-05-10 01:10:00,58.0,51.2,29.85,NW,308,0.0,0.0,78,0.00,,,0.00,VWS V14.01,2013-05-10 05:10:00,
2013-05-10 01:11:00,58.0,51.2,29.85,NW,308,0.0,0.0,78,0.00,,,0.00,VWS V14.01,2013-05-10 05:11:00,
2013-05-10 01:12:00,58.0,51.2,29.85,NW,308,0.0,0.0,78,0.00,,,0.00,VWS V14.01,2013-05-10 05:12:00,
2013-05-10 01:13:00,58.0,51.2,29.85,NW,308,0.0,0.0,78,0.00,,,0.00,VWS V14.01,2013-05-10 05:13:00,
2013-05-10 01:14:00,57.8,51.0,29.85,NW,308,0.0,0.0,78,0.00,,,0.00,VWS V14.01,2013-05-10 05:14:00,
2013-05-10 01:15:00,57.8,51.0,29.85,NW,308,0.0,0.0,78,0.00,,,0.00,VWS V14.01,2013-05-10 05:15:00,
2013-05-10 01:16:00,57.8,51.0,29.85,NW,308,0.0,0.0,78,0.00,,,0.00,VWS V14.01,2013-05-10 05:16:00,
2013-05-10 01:17:00,57.8,51.0,29.85,NW,308,0.0,0.0,78,0.00,,,0.00,VWS V14.01,2013-05-10 05:17:00,
2013-05-10 01:18:00,57.8,51.0,29.85,NW,308,0.0,0.0,78,0.00,,,0.00,VWS V14.01,2013-05-10 05:18:00,
2013-05-10 01:19:00,57.7,50.9,29.85,NW,308,0.0,0.0,78,0.00,,,0.00,VWS V14.01,2013-05-10 05:19:00,
2013-05-10 01:20:00,57.7,50.9,29.85,NW,308,0.0,0.0,78,0.00,,,0.00,VWS V14.01,2013-05-10 05:20:00,
2013-05-10 01:21:00,57.7,50.9,29.85,NW,308,0.0,0.0,78,0.00,,,0.00,VWS V14.01,2013-05-10 05:21:00,
2013-05-10 01:22:00,57.7,50.9,29.85,NW,308,0.0,0.0,78,0.00,,,0.00,VWS V14.01,2013-05-10 05:22:00,
2013-05-10 01:23:00,57.7,50.9,29.85,NW,308,0.0,0.0,78,0.00,,,0.00,VWS V14.01,2013-05-10 05:23:00,
2013-05-10 01:24:00,57.7,50.9,29.85,NW,308,0.0,0.0,78,0.00,,,0.00,VWS V14.01,2013-05-10 05:24:00,
2013-05-10 01:25:00,57.7,50.9,29.85,NW,308,0.0,0.0,78,0.00,,,0.00,VWS V14.01,2013-05-10 05:25:00,
2013-05-10 01:26:00,57.5,50.7,29.85,NW,308,0.0,0.0,78,0.00,,,0.00,VWS V14.01,2013-05-10 05:26:00,
2013-05-10 01:27:00,57.5,50.7,29.85,NW,308,0.0,0.0,78,0.00,,,0.00,VWS V14.01,2013-05-10 05:27:00,
2013-05-10 01:28:00,57.5,50.7,29.85,NW,308,0.0,0.0,78,0.00,,,0.00,VWS V14.01,2013-05-10 05:28:00,
2013-05-10 01:29:00,57.5,50.7,29.85,NW,308,0.0,0.0,78,0.00,,,0.00,VWS V14.01,2013-05-10 05:29:00,
2013-05-10 01:30:00,57.5,50.7,29.85,NW,308,0.0,0.0,78,0.00,,,0.00,VWS V14.01,2013-05-10 05:30:00,
2013-05-10 01:31:00,57.5,50.7,29.85,NW,308,0.0,0.0,78,0.00,,,0.00,VWS V14.01,2013-05-10 05:31:00,
2013-05-10 01:32:00,57.5,50.7,29.85,NW,308,0.0,0.0,78,0.00,,,0.00,VWS V14.01,2013-05-10 05:32:00,
2013-05-10 01:33:00,57.5,50.7,29.85,NW,308,0.0,0.0,78,0.00,,,0.00,VWS V14.01,2013-05-10 05:33:00,
2013-05-10 01:34:00,57.5,50.7,29.85,NW,308,0.0,0.0,78,0.00,,,0.00,VWS V14.01,2013-05-10 05:34:00,
2013-05-10 01:35:00,57.5,50.7,29.85,NW,308,0.0,0.0,78,0.00,,,0.00,VWS V14.01,2013-05-10 05:35:00,
2013-05-10 01:36:00,57.5,50.7,29.85,NW,308,0.0,0.0,78,0.00,,,0.00,VWS V14.01,2013-05-10 05:36:00,
2013-05-10 01:37:00,57.5,51.0,29.85,NW,308,0.0,0.0,79,0.00,,,0.00,VWS V14.01,2013-05-10 05:37:00,
2013-05-10 01:38:00,57.5,51.0,29.85,NW,308,0.0,0.0,79,0.00,,,0.00,VWS V14.01,2013-05-10 05:38:00,
2013-05-10 01:39:00,57.5,51.0,29.85,NW,308,0.0,0.0,79,0.00,,,0.00,VWS V14.01,2013-05-10 05:39:00,
2013-05-10 01:40:00,57.5,51.0,29.85,NW,308,0.0,0.0,79,0.00,,,0.00,VWS V14.01,2013-05-10 05:40:00,
2013-05-10 01:41:00,57.5,51.0,29.85,NW,308,0.0,0.0,79,0.00,,,0.00,VWS V14.01,2013-05-10 05:41:00,
2013-05-10 01:42:00,57.5,51.0,29.85,NW,308,0.0,0.0,79,0.00,,,0.00,VWS V14.01,2013-05-10 05:42:00,
2013-05-10 01:43:00,57.5,51.0,29.85,NW,308,0.0,0.0,79,0.00,,,0.00,VWS V14.01,2013-05-10 05:43:00,
2013-05-10 01:44:00,57.3,50.8,29.85,NW,308,0.0,0.0,79,0.00,,,0.00,VWS V14.01,2013-05-10 05:44:00,
2013-05-10 01:45:00,57.3,50.8,29.85,NW,308,0.0,0.0,79,0.00,,,0.00,VWS V14.01,2013-05-10 05:45:00,
2013-05-10 01:46:00,57.3,50.8,29.85,NW,308,0.0,0.0,79,0.00,,,0.00,VWS V14.01,2013-05-10 05:46:00,
2013-05-10 01:47:00,57.3,50.8,29.85,NW,308,0.0,0.0,79,0.00,,,0.00,VWS V14.01,2013-05-10 05:47:00,
2013-05-10 01:48:00,57.3,50.8,29.85,NW,308,0.0,0.0,79,0.00,,,0.00,VWS V14.01,2013-05-10 05:48:00,
2013-05-10 01:49:00,57.3,50.8,29.85,NW,308,0.0,0.0,79,0.00,,,0.00,VWS V14.01,2013-05-10 05:49:00,
2013-05-10 01:50:00,57.3,51.2,29.85,NW,308,0.0,0.0,80,0.00,,,0.00,VWS V14.01,2013-05-10 05:50:00,
2013-05-10 01:51:00,57.3,51.2,29.85,NW,308,0.0,0.0,80,0.00,,,0.00,VWS V14.01,2013-05-10 05:51:00,
2013-05-10 01:52:00,57.3,51.2,29.85,NW,308,0.0,0.0,80,0.00,,,0.00,VWS V14.01,2013-05-10 05:52:00,
2013-05-10 01:53:00,57.3,51.2,29.85,NW,308,0.0,0.0,80,0.00,,,0.00,VWS V14.01,2013-05-10 05:53:00,
2013-05-10 01:54:00,57.3,51.2,29.85,NW,308,0.0,0.0,80,0.00,,,0.00,VWS V14.01,2013-05-10 05:54:00,
2013-05-10 01:55:00,57.3,51.2,29.85,NW,308,0.0,0.0,80,0.00,,,0.00,VWS V14.01,2013-05-10 05:55:00,
2013-05-10 01:56:00,57.3,51.2,29.85,NW,308,0.0,0.0,80,0.00,,,0.00,VWS V14.01,2013-05-10 05:56:00,
2013-05-10 01:57:00,57.3,51.2,29.85,NW,308,0.0,0.0,80,0.00,,,0.00,VWS V14.01,2013-05-10 05:57:00,
2013-05-10 01:58:00,57.3,51.2,29.85,NW,308,0.0,0.0,80,0.00,,,0.00,VWS V14.01,2013-05-10 05:58:00,
2013-05-10 01:59:00,57.3,51.2,29.85,NW,308,0.0,0.0,80,0.00,,,0.00,VWS V14.01,2013-05-10 05:59:00,
2013-05-10 02:00:00,57.3,51.5,29.85,NW,308,0.0,0.0,81,0.00,,,0.00,VWS V14.01,2013-05-10 06:00:00,
2013-05-10 02:01:00,57.3,51.5,29.85,NW,308,0.0,0.0,81,0.00,,,0.00,VWS V14.01,2013-05-10 06:01:00,
2013-05-10 02:02:00,57.3,51.5,29.85,NW,308,0.0,0.0,81,0.00,,,0.00,VWS V14.01,2013-05-10 06:02:00,
2013-05-10 02:03:00,57.3,51.5,29.85,NW,308,0.0,0.0,81,0.00,,,0.00,VWS V14.01,2013-05-10 06:03:00,
2013-05-10 02:04:00,57.1,51.3,29.85,NW,308,0.0,0.0,81,0.00,,,0.00,VWS V14.01,2013-05-10 06:04:00,
2013-05-10 02:05:00,57.1,51.3,29.85,NW,308,0.0,0.0,81,0.00,,,0.00,VWS V14.01,2013-05-10 06:05:00,
2013-05-10 02:06:00,57.1,51.3,29.85,NW,308,0.0,0.0,81,0.00,,,0.00,VWS V14.01,2013-05-10 06:06:00,
2013-05-10 02:07:00,57.1,51.3,29.85,NW,308,0.0,0.0,81,0.00,,,0.00,VWS V14.01,2013-05-10 06:07:00,
2013-05-10 02:08:00,57.1,51.3,29.85,NW,308,0.0,0.0,81,0.00,,,0.00,VWS V14.01,2013-05-10 06:08:00,
2013-05-10 02:09:00,57.1,51.3,29.85,NW,308,0.0,0.0,81,0.00,,,0.00,VWS V14.01,2013-05-10 06:09:00,
2013-05-10 02:10:00,57.1,51.3,29.85,NW,308,0.0,0.0,81,0.00,,,0.00,VWS V14.01,2013-05-10 06:10:00,
2013-05-10 02:11:00,56.9,51.2,29.85,NW,308,0.0,0.0,81,0.00,,,0.00,VWS V14.01,2013-05-10 06:11:00,
2013-05-10 02:12:00,56.9,51.2,29.85,NW,308,0.0,0.0,81,0.00,,,0.00,VWS V14.01,2013-05-10 06:12:00,
2013-05-10 02:13:00,56.9,51.2,29.85,NW,308,0.0,0.0,81,0.00,,,0.00,VWS V14.01,2013-05-10 06:13:00,
2013-05-10 02:14:00,56.9,51.2,29.85,NW,308,0.0,0.0,81,0.00,,,0.00,VWS V14.01,2013-05-10 06:14:00,
2013-05-10 02:15:00,56.9,51.2,29.85,NW,308,0.0,0.0,81,0.00,,,0.00,VWS V14.01,2013-05-10 06:15:00,
2013-05-10 02:16:00,56.9,51.2,29.85,NW,308,0.0,0.0,81,0.00,,,0.00,VWS V14.01,2013-05-10 06:16:00,
2013-05-10 02:17:00,56.9,51.2,29.85,NW,308,0.0,0.0,81,0.00,,,0.00,VWS V14.01,2013-05-10 06:17:00,
2013-05-10 02:18:00,56.9,51.2,29.85,NW,308,0.0,0.0,81,0.00,,,0.00,VWS V14.01,2013-05-10 06:18:00,
2013-05-10 02:19:00,56.8,51.0,29.85,NW,308,0.0,0.0,81,0.00,,,0.00,VWS V14.01,2013-05-10 06:19:00,
2013-05-10 02:20:00,56.8,51.0,29.85,NW,308,0.0,0.0,81,0.00,,,0.00,VWS V14.01,2013-05-10 06:20:00,
2013-05-10 02:21:00,56.8,51.0,29.85,NW,308,0.0,0.0,81,0.00,,,0.00,VWS V14.01,2013-05-10 06:21:00,
2013-05-10 02:22:00,56.8,51.0,29.85,NW,308,0.0,0.0,81,0.00,,,0.00,VWS V14.01,2013-05-10 06:22:00,
2013-05-10 02:23:00,56.8,51.0,29.85,NW,308,0.0,0.0,81,0.00,,,0.00,VWS V14.01,2013-05-10 06:23:00,
2013-05-10 02:24:00,56.6,50.8,29.85,NW,308,0.0,0.0,81,0.00,,,0.00,VWS V14.01,2013-05-10 06:24:00,
2013-05-10 02:25:00,56.6,50.8,29.85,NW,308,0.0,0.0,81,0.00,,,0.00,VWS V14.01,2013-05-10 06:25:00,
2013-05-10 02:26:00,56.6,50.8,29.85,NW,308,0.0,0.0,81,0.00,,,0.00,VWS V14.01,2013-05-10 06:26:00,
2013-05-10 02:27:00,56.6,50.8,29.85,NW,308,0.0,0.0,81,0.00,,,0.00,VWS V14.01,2013-05-10 06:27:00,
2013-05-10 02:28:00,56.6,50.8,29.85,NW,308,0.0,0.0,81,0.00,,,0.00,VWS V14.01,2013-05-10 06:28:00,
2013-05-10 02:29:00,56.6,50.8,29.85,NW,308,0.0,0.0,81,0.00,,,0.00,VWS V14.01,2013-05-10 06:29:00,
2013-05-10 02:30:00,56.6,50.8,29.85,NW,308,0.0,0.0,81,0.00,,,0.00,VWS V14.01,2013-05-10 06:30:00,
2013-05-10 02:31:00,56.4,51.0,29.85,NW,308,0.0,0.0,82,0.00,,,0.00,VWS V14.01,2013-05-10 06:31:00,
2013-05-10 02:32:00,56.4,51.0,29.85,NW,308,0.0,0.0,82,0.00,,,0.00,VWS V14.01,2013-05-10 06:32:00,
2013-05-10 02:33:00,56.4,51.0,29.85,NW,308,0.0,0.0,82,0.00,,,0.00,VWS V14.01,2013-05-10 06:33:00,
2013-05-10 02:34:00,56.4,51.0,29.85,NW,308,0.0,0.0,82,0.00,,,0.00,VWS V14.01,2013-05-10 06:34:00,
2013-05-10 02:35:00,56.4,51.0,29.85,NW,308,0.0,0.0,82,0.00,,,0.00,VWS V14.01,2013-05-10 06:35:00,
2013-05-10 02:36:00,56.4,51.0,29.85,NW,308,0.0,0.0,82,0.00,,,0.00,VWS V14.01,2013-05-10 06:36:00,
2013-05-10 02:37:00,56.4,51.0,29.85,NW,308,0.0,0.0,82,0.00,,,0.00,VWS V14.01,2013-05-10 06:37:00,
2013-05-10 02:38:00,56.4,51.0,29.85,NW,308,0.0,0.0,82,0.00,,,0.00,VWS V14.01,2013-05-10 06:38:00,
2013-05-10 02:39:00,56.4,51.0,29.85,NW,308,0.0,0.0,82,0.00,,,0.00,VWS V14.01,2013-05-10 06:39:00,
2013-05-10 02:40:00,56.4,51.0,29.85,NW,308,0.0,0.0,82,0.00,,,0.00,VWS V14.01,2013-05-10 06:40:00,
2013-05-10 02:41:00,56.4,51.0,29.85,NW,308,0.0,0.0,82,0.00,,,0.00,VWS V14.01,2013-05-10 06:41:00,
2013-05-10 02:42:00,56.4,51.0,29.85,NW,308,0.0,0.0,82,0.00,,,0.00,VWS V14.01,2013-05-10 06:42:00,
2013-05-10 02:43:00,56.2,50.8,29.85,NW,308,0.0,0.0,82,0.00,,,0.00,VWS V14.01,2013-05-10 06:43:00,
2013-05-10 02:44:00,56.2,50.8,29.85,NW,308,0.0,0.0,82,0.00,,,0.00,VWS V14.01,2013-05-10 06:44:00,
2013-05-10 02:45:00,56.2,50.8,29.85,NW,308,0.0,0.0,82,0.00,,,0.00,VWS V14.01,2013-05-10 06:45:00,
2013-05-10 02:46:00,56.2,50.8,29.85,NW,308,0.0,0.0,82,0.00,,,0.00,VWS V14.01,2013-05-10 06:46:00,
2013-05-10 02:47:00,56.2,50.8,29.85,NW,308,0.0,0.0,82,0.00,,,0.00,VWS V14.01,2013-05-10 06:47:00,
2013-05-10 02:48:00,56.2,50.8,29.85,NW,308,0.0,0.0,82,0.00,,,0.00,VWS V14.01,2013-05-10 06:48:00,
2013-05-10 02:49:00,56.0,50.6,29.85,NW,308,0.0,0.0,82,0.00,,,0.00,VWS V14.01,2013-05-10 06:49:00,
2013-05-10 02:50:00,56.0,50.6,29.85,NW,308,0.0,0.0,82,0.00,,,0.00,VWS V14.01,2013-05-10 06:50:00,
2013-05-10 02:51:00,56.0,50.6,29.85,NW,308,0.0,0.0,82,0.00,,,0.00,VWS V14.01,2013-05-10 06:51:00,
2013-05-10 02:52:00,56.0,51.0,29.85,NW,308,0.0,0.0,83,0.00,,,0.00,VWS V14.01,2013-05-10 06:52:00,
2013-05-10 02:53:00,56.0,51.0,29.85,NW,308,0.0,0.0,83,0.00,,,0.00,VWS V14.01,2013-05-10 06:53:00,
2013-05-10 02:54:00,55.9,50.8,29.85,NW,308,0.0,0.0,83,0.00,,,0.00,VWS V14.01,2013-05-10 06:54:00,
2013-05-10 02:55:00,55.9,50.8,29.85,NW,308,0.0,0.0,83,0.00,,,0.00,VWS V14.01,2013-05-10 06:55:00,
2013-05-10 02:56:00,55.9,50.8,29.85,NW,308,0.0,0.0,83,0.00,,,0.00,VWS V14.01,2013-05-10 06:56:00,
2013-05-10 02:57:00,55.9,50.8,29.85,NW,308,0.0,0.0,83,0.00,,,0.00,VWS V14.01,2013-05-10 06:57:00,
2013-05-10 02:58:00,55.9,50.8,29.85,NW,308,0.0,0.0,83,0.00,,,0.00,VWS V14.01,2013-05-10 06:58:00,
2013-05-10 02:59:00,55.9,50.8,29.85,NW,308,0.0,0.0,83,0.00,,,0.00,VWS V14.01,2013-05-10 06:59:00,
2013-05-10 03:00:00,55.7,50.6,29.85,NW,308,0.0,0.0,83,0.00,,,0.00,VWS V14.01,2013-05-10 07:00:00,
2013-05-10 03:01:00,55.7,50.6,29.85,NW,308,0.0,0.0,83,0.00,,,0.00,VWS V14.01,2013-05-10 07:01:00,
2013-05-10 03:02:00,55.7,50.6,29.85,NW,308,0.0,0.0,83,0.00,,,0.00,VWS V14.01,2013-05-10 07:02:00,
2013-05-10 03:03:00,55.7,50.6,29.85,NW,308,0.0,0.0,83,0.00,,,0.00,VWS V14.01,2013-05-10 07:03:00,
2013-05-10 03:04:00,55.7,50.6,29.85,NW,308,0.0,0.0,83,0.00,,,0.00,VWS V14.01,2013-05-10 07:04:00,
2013-05-10 03:05:00,55.7,50.6,29.85,NW,308,0.0,0.0,83,0.00,,,0.00,VWS V14.01,2013-05-10 07:05:00,
2013-05-10 03:06:00,55.5,50.4,29.85,NW,308,0.0,0.0,83,0.00,,,0.00,VWS V14.01,2013-05-10 07:06:00,
2013-05-10 03:07:00,55.5,50.4,29.85,NW,308,0.0,0.0,83,0.00,,,0.00,VWS V14.01,2013-05-10 07:07:00,
2013-05-10 03:08:00,55.5,50.4,29.85,NW,308,0.0,0.0,83,0.00,,,0.00,VWS V14.01,2013-05-10 07:08:00,
2013-05-10 03:09:00,55.5,50.4,29.85,NW,308,0.0,0.0,83,0.00,,,0.00,VWS V14.01,2013-05-10 07:09:00,
2013-05-10 03:10:00,55.5,50.4,29.85,NW,308,0.0,0.0,83,0.00,,,0.00,VWS V14.01,2013-05-10 07:10:00,
2013-05-10 03:11:00,55.5,50.4,29.85,NW,308,0.0,0.0,83,0.00,,,0.00,VWS V14.01,2013-05-10 07:11:00,
2013-05-10 03:12:00,55.5,50.4,29.85,NW,308,0.0,0.0,83,0.00,,,0.00,VWS V14.01,2013-05-10 07:12:00,
2013-05-10 03:13:00,55.5,50.4,29.85,NW,308,0.0,0.0,83,0.00,,,0.00,VWS V14.01,2013-05-10 07:13:00,
2013-05-10 03:14:00,55.5,50.4,29.85,NW,308,0.0,0.0,83,0.00,,,0.00,VWS V14.01,2013-05-10 07:14:00,
2013-05-10 03:15:00,55.5,50.4,29.85,NW,308,0.0,0.0,83,0.00,,,0.00,VWS V14.01,2013-05-10 07:15:00,
2013-05-10 03:16:00,55.5,50.4,29.85,NW,308,0.0,0.0,83,0.00,,,0.00,VWS V14.01,2013-05-10 07:16:00,
2013-05-10 03:17:00,55.3,50.2,29.85,NW,308,0.0,0.0,83,0.00,,,0.00,VWS V14.01,2013-05-10 07:17:00,
2013-05-10 03:18:00,55.3,50.2,29.85,NW,308,0.0,0.0,83,0.00,,,0.00,VWS V14.01,2013-05-10 07:18:00,
2013-05-10 03:19:00,55.3,50.2,29.85,NW,308,0.0,0.0,83,0.00,,,0.00,VWS V14.01,2013-05-10 07:19:00,
2013-05-10 03:20:00,55.3,50.2,29.85,NW,308,0.0,0.0,83,0.00,,,0.00,VWS V14.01,2013-05-10 07:20:00,
2013-05-10 03:21:00,55.3,50.2,29.85,NW,308,0.0,0.0,83,0.00,,,0.00,VWS V14.01,2013-05-10 07:21:00,
2013-05-10 03:22:00,55.1,50.1,29.85,NW,308,0.0,0.0,83,0.00,,,0.00,VWS V14.01,2013-05-10 07:22:00,
2013-05-10 03:23:00,55.1,50.1,29.85,NW,308,0.0,0.0,83,0.00,,,0.00,VWS V14.01,2013-05-10 07:23:00,
2013-05-10 03:24:00,55.1,50.1,29.85,NW,308,0.0,0.0,83,0.00,,,0.00,VWS V14.01,2013-05-10 07:24:00,
2013-05-10 03:25:00,55.1,50.1,29.85,NW,308,0.0,0.0,83,0.00,,,0.00,VWS V14.01,2013-05-10 07:25:00,
2013-05-10 03:26:00,55.1,50.1,29.85,NW,308,0.0,0.0,83,0.00,,,0.00,VWS V14.01,2013-05-10 07:26:00,
2013-05-10 03:27:00,55.0,50.2,29.85,NW,308,0.0,0.0,84,0.00,,,0.00,VWS V14.01,2013-05-10 07:27:00,
2013-05-10 03:28:00,55.0,50.2,29.85,NW,308,0.0,0.0,84,0.00,,,0.00,VWS V14.01,2013-05-10 07:28:00,
2013-05-10 03:29:00,55.0,50.2,29.85,NW,308,0.0,0.0,84,0.00,,,0.00,VWS V14.01,2013-05-10 07:29:00,
2013-05-10 03:30:00,55.0,50.2,29.85,NW,308,0.0,0.0,84,0.00,,,0.00,VWS V14.01,2013-05-10 07:30:00,
2013-05-10 03:31:00,55.0,50.2,29.85,NW,308,0.0,0.0,84,0.00,,,0.00,VWS V14.01,2013-05-10 07:31:00,
2013-05-10 03:32:00,55.0,50.2,29.85,NW,308,0.0,0.0,84,0.00,,,0.00,VWS V14.01,2013-05-10 07:32:00,
2013-05-10 03:33:00,55.0,50.2,29.85,NW,308,0.0,0.0,84,0.00,,,0.00,VWS V14.01,2013-05-10 07:33:00,
2013-05-10 03:34:00,55.0,50.2,29.85,NW,308,0.0,0.0,84,0.00,,,0.00,VWS V14.01,2013-05-10 07:34:00,
2013-05-10 03:35:00,55.0,50.2,29.85,NW,308,0.0,0.0,84,0.00,,,0.00,VWS V14.01,2013-05-10 07:35:00,
2013-05-10 03:36:00,54.8,50.0,29.85,NW,308,0.0,0.0,84,0.00,,,0.00,VWS V14.01,2013-05-10 07:36:00,
2013-05-10 03:37:00,54.8,50.0,29.85,NW,308,0.0,0.0,84,0.00,,,0.00,VWS V14.01,2013-05-10 07:37:00,
2013-05-10 03:38:00,54.8,50.0,29.85,NW,308,0.0,0.0,84,0.00,,,0.00,VWS V14.01,2013-05-10 07:38:00,
2013-05-10 03:39:00,54.8,50.0,29.85,NW,308,0.0,0.0,84,0.00,,,0.00,VWS V14.01,2013-05-10 07:39:00,
2013-05-10 03:40:00,54.8,50.0,29.85,NW,308,0.0,0.0,84,0.00,,,0.00,VWS V14.01,2013-05-10 07:40:00,
2013-05-10 03:41:00,54.8,50.0,29.85,NW,308,0.0,0.0,84,0.00,,,0.00,VWS V14.01,2013-05-10 07:41:00,
2013-05-10 03:42:00,54.8,50.0,29.85,NW,308,0.0,0.0,84,0.00,,,0.00,VWS V14.01,2013-05-10 07:42:00,
2013-05-10 03:43:00,54.8,50.0,29.85,NW,308,0.0,0.0,84,0.00,,,0.00,VWS V14.01,2013-05-10 07:43:00,
2013-05-10 03:44:00,54.8,50.0,29.85,NW,308,0.0,0.0,84,0.00,,,0.00,VWS V14.01,2013-05-10 07:44:00,
2013-05-10 03:45:00,54.6,49.9,29.85,NW,308,0.0,0.0,84,0.00,,,0.00,VWS V14.01,2013-05-10 07:45:00,
2013-05-10 03:46:00,54.6,49.9,29.85,NW,308,0.0,0.0,84,0.00,,,0.00,VWS V14.01,2013-05-10 07:46:00,
2013-05-10 03:47:00,54.6,49.9,29.85,NW,308,0.0,0.0,84,0.00,,,0.00,VWS V14.01,2013-05-10 07:47:00,
2013-05-10 03:48:00,54.6,49.9,29.85,NW,308,0.0,0.0,84,0.00,,,0.00,VWS V14.01,2013-05-10 07:48:00,
2013-05-10 03:49:00,54.6,49.9,29.85,NW,308,0.0,0.0,84,0.00,,,0.00,VWS V14.01,2013-05-10 07:49:00,
2013-05-10 03:50:00,54.6,49.9,29.85,NW,308,0.0,0.0,84,0.00,,,0.00,VWS V14.01,2013-05-10 07:50:00,
2013-05-10 03:51:00,54.6,49.9,29.85,NW,308,0.0,0.0,84,0.00,,,0.00,VWS V14.01,2013-05-10 07:51:00,
2013-05-10 03:52:00,54.4,50.0,29.85,NW,308,0.0,0.0,85,0.00,,,0.00,VWS V14.01,2013-05-10 07:52:00,
2013-05-10 03:53:00,54.4,50.0,29.85,NW,308,0.0,0.0,85,0.00,,,0.00,VWS V14.01,2013-05-10 07:53:00,
2013-05-10 03:54:00,54.4,50.0,29.85,NW,308,0.0,0.0,85,0.00,,,0.00,VWS V14.01,2013-05-10 07:54:00,
2013-05-10 03:55:00,54.4,50.0,29.85,NW,308,0.0,0.0,85,0.00,,,0.00,VWS V14.01,2013-05-10 07:55:00,
2013-05-10 03:56:00,54.4,50.0,29.85,NW,308,0.0,0.0,85,0.00,,,0.00,VWS V14.01,2013-05-10 07:56:00,
2013-05-10 03:57:00,54.4,50.0,29.85,NW,308,0.0,0.0,85,0.00,,,0.00,VWS V14.01,2013-05-10 07:57:00,
2013-05-10 03:58:00,54.4,50.0,29.85,NW,308,0.0,0.0,85,0.00,,,0.00,VWS V14.01,2013-05-10 07:58:00,
2013-05-10 03:59:00,54.4,50.0,29.85,NW,308,0.0,0.0,85,0.00,,,0.00,VWS V14.01,2013-05-10 07:59:00,
2013-05-10 04:00:00,54.4,50.0,29.85,NW,308,0.0,0.0,85,0.00,,,0.00,VWS V14.01,2013-05-10 08:00:00,
2013-05-10 04:01:00,54.4,50.0,29.85,NW,308,0.0,0.0,85,0.00,,,0.00,VWS V14.01,2013-05-10 08:01:00,
2013-05-10 04:02:00,54.2,49.8,29.85,NW,308,0.0,0.0,85,0.00,,,0.00,VWS V14.01,2013-05-10 08:02:00,
2013-05-10 04:03:00,54.2,49.8,29.85,NW,308,0.0,0.0,85,0.00,,,0.00,VWS V14.01,2013-05-10 08:03:00,
2013-05-10 04:04:00,54.2,49.8,29.85,NW,308,0.0,0.0,85,0.00,,,0.00,VWS V14.01,2013-05-10 08:04:00,
2013-05-10 04:05:00,54.2,49.8,29.85,NW,308,0.0,0.0,85,0.00,,,0.00,VWS V14.01,2013-05-10 08:05:00,
2013-05-10 04:06:00,54.2,49.8,29.85,NW,308,0.0,0.0,85,0.00,,,0.00,VWS V14.01,2013-05-10 08:06:00,
2013-05-10 04:07:00,54.2,49.8,29.85,NW,308,0.0,0.0,85,0.00,,,0.00,VWS V14.01,2013-05-10 08:07:00,
2013-05-10 04:08:00,54.2,49.8,29.85,NW,308,0.0,0.0,85,0.00,,,0.00,VWS V14.01,2013-05-10 08:08:00,
2013-05-10 04:09:00,54.2,49.8,29.85,NW,308,0.0,0.0,85,0.00,,,0.00,VWS V14.01,2013-05-10 08:09:00,
2013-05-10 04:10:00,54.2,49.8,29.85,NW,308,0.0,0.0,85,0.00,,,0.00,VWS V14.01,2013-05-10 08:10:00,
2013-05-10 04:11:00,54.2,49.8,29.85,NW,308,0.0,0.0,85,0.00,,,0.00,VWS V14.01,2013-05-10 08:11:00,
2013-05-10 04:12:00,54.2,49.8,29.85,NW,308,0.0,0.0,85,0.00,,,0.00,VWS V14.01,2013-05-10 08:12:00,
2013-05-10 04:13:00,54.2,50.2,29.85,NW,308,0.0,0.0,86,0.00,,,0.00,VWS V14.01,2013-05-10 08:13:00,
2013-05-10 04:14:00,54.2,50.2,29.85,NW,308,0.0,0.0,86,0.00,,,0.00,VWS V14.01,2013-05-10 08:14:00,
2013-05-10 04:15:00,54.2,50.2,29.85,NW,308,0.0,0.0,86,0.00,,,0.00,VWS V14.01,2013-05-10 08:15:00,
2013-05-10 04:16:00,54.2,50.2,29.85,NW,308,0.0,0.0,86,0.00,,,0.00,VWS V14.01,2013-05-10 08:16:00,
2013-05-10 04:17:00,54.2,50.2,29.85,NW,308,0.0,0.0,86,0.00,,,0.00,VWS V14.01,2013-05-10 08:17:00,
2013-05-10 04:18:00,54.2,50.2,29.85,NW,308,0.0,0.0,86,0.00,,,0.00,VWS V14.01,2013-05-10 08:18:00,
2013-05-10 04:19:00,54.2,50.2,29.85,NW,308,0.0,0.0,86,0.00,,,0.00,VWS V14.01,2013-05-10 08:19:00,
2013-05-10 04:20:00,54.2,50.2,29.85,NW,308,0.0,0.0,86,0.00,,,0.00,VWS V14.01,2013-05-10 08:20:00,
2013-05-10 04:21:00,54.2,50.2,29.85,NW,308,0.0,0.0,86,0.00,,,0.00,VWS V14.01,2013-05-10 08:21:00,
2013-05-10 04:22:00,54.2,50.2,29.85,NW,308,0.0,0.0,86,0.00,,,0.00,VWS V14.01,2013-05-10 08:22:00,
2013-05-10 04:23:00,54.1,50.0,29.85,NW,308,0.0,0.0,86,0.00,,,0.00,VWS V14.01,2013-05-10 08:23:00,
2013-05-10 04:24:00,54.1,50.0,29.85,NW,308,0.0,0.0,86,0.00,,,0.00,VWS V14.01,2013-05-10 08:24:00,
2013-05-10 04:25:00,54.1,50.0,29.85,NW,308,0.0,0.0,86,0.00,,,0.00,VWS V14.01,2013-05-10 08:25:00,
2013-05-10 04:26:00,54.1,50.0,29.85,NW,308,0.0,0.0,86,0.00,,,0.00,VWS V14.01,2013-05-10 08:26:00,
2013-05-10 04:27:00,54.1,50.0,29.85,NW,308,0.0,0.0,86,0.00,,,0.00,VWS V14.01,2013-05-10 08:27:00,
2013-05-10 04:28:00,54.1,50.0,29.85,NW,308,0.0,0.0,86,0.00,,,0.00,VWS V14.01,2013-05-10 08:28:00,
2013-05-10 04:29:00,54.1,50.0,29.85,NW,308,0.0,0.0,86,0.00,,,0.00,VWS V14.01,2013-05-10 08:29:00,
2013-05-10 04:30:00,54.1,50.0,29.85,NW,308,0.0,0.0,86,0.00,,,0.00,VWS V14.01,2013-05-10 08:30:00,
2013-05-10 04:31:00,54.1,50.0,29.85,NW,308,0.0,0.0,86,0.00,,,0.00,VWS V14.01,2013-05-10 08:31:00,
2013-05-10 04:32:00,54.1,50.0,29.85,NW,308,0.0,0.0,86,0.00,,,0.00,VWS V14.01,2013-05-10 08:32:00,
2013-05-10 04:33:00,54.1,50.0,29.85,NW,308,0.0,0.0,86,0.00,,,0.00,VWS V14.01,2013-05-10 08:33:00,
2013-05-10 04:34:00,54.1,50.0,29.85,NW,308,0.0,0.0,86,0.00,,,0.00,VWS V14.01,2013-05-10 08:34:00,
2013-05-10 04:35:00,54.1,50.0,29.85,NW,308,0.0,0.0,86,0.00,,,0.00,VWS V14.01,2013-05-10 08:35:00,
2013-05-10 04:36:00,54.1,50.0,29.85,NW,308,0.0,0.0,86,0.00,,,0.00,VWS V14.01,2013-05-10 08:36:00,
2013-05-10 04:37:00,54.1,50.0,29.85,NW,308,0.0,0.0,86,0.00,,,0.00,VWS V14.01,2013-05-10 08:37:00,
2013-05-10 04:38:00,54.1,50.0,29.85,NW,308,0.0,0.0,86,0.00,,,0.00,VWS V14.01,2013-05-10 08:38:00,
2013-05-10 04:39:00,54.1,50.0,29.85,NW,308,0.0,0.0,86,0.00,,,0.00,VWS V14.01,2013-05-10 08:39:00,
2013-05-10 04:40:00,54.1,50.0,29.85,NW,308,0.0,0.0,86,0.00,,,0.00,VWS V14.01,2013-05-10 08:40:00,
2013-05-10 04:41:00,54.1,50.0,29.85,NW,308,0.0,0.0,86,0.00,,,0.00,VWS V14.01,2013-05-10 08:41:00,
2013-05-10 04:42:00,54.1,50.0,29.85,NW,308,0.0,0.0,86,0.00,,,0.00,VWS V14.01,2013-05-10 08:42:00,
2013-05-10 04:43:00,54.1,50.0,29.85,NW,308,0.0,0.0,86,0.00,,,0.00,VWS V14.01,2013-05-10 08:43:00,
2013-05-10 04:44:00,54.1,50.3,29.85,NW,308,0.0,0.0,87,0.00,,,0.00,VWS V14.01,2013-05-10 08:44:00,
2013-05-10 04:45:00,54.1,50.3,29.85,NW,308,0.0,0.0,87,0.00,,,0.00,VWS V14.01,2013-05-10 08:45:00,
2013-05-10 04:46:00,54.1,50.3,29.85,NW,308,0.0,0.0,87,0.00,,,0.00,VWS V14.01,2013-05-10 08:46:00,
2013-05-10 04:47:00,54.1,50.3,29.85,NW,308,0.0,0.0,87,0.00,,,0.00,VWS V14.01,2013-05-10 08:47:00,
2013-05-10 04:48:00,54.1,50.3,29.85,NW,308,0.0,0.0,87,0.00,,,0.00,VWS V14.01,2013-05-10 08:48:00,
2013-05-10 04:49:00,54.2,50.5,29.85,NW,308,0.0,0.0,87,0.00,,,0.00,VWS V14.01,2013-05-10 08:49:00,
2013-05-10 04:50:00,54.2,50.5,29.85,NW,308,0.0,0.0,87,0.00,,,0.00,VWS V14.01,2013-05-10 08:50:00,
2013-05-10 04:51:00,54.2,50.5,29.85,NW,308,0.0,0.0,87,0.00,,,0.00,VWS V14.01,2013-05-10 08:51:00,
2013-05-10 04:52:00,54.1,50.3,29.85,NW,308,0.0,0.0,87,0.00,,,0.00,VWS V14.01,2013-05-10 08:52:00,
2013-05-10 04:53:00,54.1,50.3,29.85,NW,308,0.0,0.0,87,0.00,,,0.00,VWS V14.01,2013-05-10 08:53:00,
2013-05-10 04:54:00,54.1,50.3,29.85,NW,308,0.0,0.0,87,0.00,,,0.00,VWS V14.01,2013-05-10 08:54:00,
2013-05-10 04:55:00,54.1,50.3,29.85,NW,308,0.0,0.0,87,0.00,,,0.00,VWS V14.01,2013-05-10 08:55:00,
2013-05-10 04:56:00,54.1,50.3,29.85,NW,308,0.0,0.0,87,0.00,,,0.00,VWS V14.01,2013-05-10 08:56:00,
2013-05-10 04:57:00,54.1,50.3,29.85,NW,308,0.0,0.0,87,0.00,,,0.00,VWS V14.01,2013-05-10 08:57:00,
2013-05-10 04:58:00,54.1,50.3,29.85,NW,308,0.0,0.0,87,0.00,,,0.00,VWS V14.01,2013-05-10 08:58:00,
2013-05-10 04:59:00,54.1,50.3,29.85,NW,308,0.0,0.0,87,0.00,,,0.00,VWS V14.01,2013-05-10 08:59:00,
2013-05-10 05:00:00,54.1,50.3,29.85,NW,308,0.0,0.0,87,0.00,,,0.00,VWS V14.01,2013-05-10 09:00:00,
2013-05-10 05:01:00,54.1,50.3,29.85,NW,308,0.0,0.0,87,0.00,,,0.00,VWS V14.01,2013-05-10 09:01:00,
2013-05-10 05:02:00,53.9,50.1,29.85,NW,308,0.0,0.0,87,0.00,,,0.00,VWS V14.01,2013-05-10 09:02:00,
2013-05-10 05:03:00,53.9,50.1,29.85,NW,308,0.0,0.0,87,0.00,,,0.00,VWS V14.01,2013-05-10 09:03:00,
2013-05-10 05:04:00,53.9,50.1,29.85,NW,308,0.0,0.0,87,0.00,,,0.00,VWS V14.01,2013-05-10 09:04:00,
2013-05-10 05:05:00,53.9,50.1,29.85,NW,308,0.0,0.0,87,0.00,,,0.00,VWS V14.01,2013-05-10 09:05:00,
2013-05-10 05:06:00,53.9,50.1,29.85,NW,308,0.0,0.0,87,0.00,,,0.00,VWS V14.01,2013-05-10 09:06:00,
2013-05-10 05:07:00,53.9,50.1,29.88,NW,308,0.0,0.0,87,0.00,,,0.00,VWS V14.01,2013-05-10 09:07:00,
2013-05-10 05:08:00,53.9,50.1,29.88,NW,308,0.0,0.0,87,0.00,,,0.00,VWS V14.01,2013-05-10 09:08:00,
2013-05-10 05:09:00,53.9,50.1,29.88,NW,308,0.0,0.0,87,0.00,,,0.00,VWS V14.01,2013-05-10 09:09:00,
2013-05-10 05:10:00,53.9,50.1,29.88,NW,308,0.0,0.0,87,0.00,,,0.00,VWS V14.01,2013-05-10 09:10:00,
2013-05-10 05:11:00,53.9,50.1,29.88,NW,308,0.0,0.0,87,0.00,,,0.00,VWS V14.01,2013-05-10 09:11:00,
2013-05-10 05:12:00,53.9,50.1,29.88,NW,308,0.0,0.0,87,0.00,,,0.00,VWS V14.01,2013-05-10 09:12:00,
2013-05-10 05:13:00,53.9,50.1,29.88,NW,308,0.0,0.0,87,0.00,,,0.00,VWS V14.01,2013-05-10 09:13:00,
2013-05-10 05:14:00,53.9,50.1,29.88,NW,308,0.0,0.0,87,0.00,,,0.00,VWS V14.01,2013-05-10 09:14:00,
2013-05-10 05:15:00,53.7,49.9,29.88,NW,308,0.0,0.0,87,0.00,,,0.00,VWS V14.01,2013-05-10 09:15:00,
2013-05-10 05:16:00,53.7,49.9,29.88,NW,308,0.0,0.0,87,0.00,,,0.00,VWS V14.01,2013-05-10 09:16:00,
2013-05-10 05:17:00,53.7,49.9,29.88,NW,308,0.0,0.0,87,0.00,,,0.00,VWS V14.01,2013-05-10 09:17:00,
2013-05-10 05:18:00,53.7,49.9,29.88,NW,308,0.0,0.0,87,0.00,,,0.00,VWS V14.01,2013-05-10 09:18:00,
2013-05-10 05:19:00,53.7,49.9,29.88,NW,308,0.0,0.0,87,0.00,,,0.00,VWS V14.01,2013-05-10 09:19:00,
2013-05-10 05:20:00,53.7,49.9,29.88,NW,308,0.0,0.0,87,0.00,,,0.00,VWS V14.01,2013-05-10 09:20:00,
2013-05-10 05:21:00,53.7,49.9,29.88,NW,308,0.0,0.0,87,0.00,,,0.00,VWS V14.01,2013-05-10 09:21:00,
2013-05-10 05:22:00,53.7,49.9,29.88,NW,308,0.0,0.0,87,0.00,,,0.00,VWS V14.01,2013-05-10 09:22:00,
2013-05-10 05:23:00,53.7,49.9,29.88,NW,308,0.0,0.0,87,0.00,,,0.00,VWS V14.01,2013-05-10 09:23:00,
2013-05-10 05:24:00,53.7,49.9,29.88,NW,308,0.0,0.0,87,0.00,,,0.00,VWS V14.01,2013-05-10 09:24:00,
2013-05-10 05:25:00,53.7,49.9,29.88,NW,308,0.0,0.0,87,0.00,,,0.00,VWS V14.01,2013-05-10 09:25:00,
2013-05-10 05:26:00,53.9,50.4,29.88,NW,308,0.0,0.0,88,0.00,,,0.00,VWS V14.01,2013-05-10 09:26:00,
2013-05-10 05:27:00,53.9,50.4,29.88,NW,308,0.0,0.0,88,0.00,,,0.00,VWS V14.01,2013-05-10 09:27:00,
2013-05-10 05:28:00,53.9,50.4,29.88,NW,308,0.0,0.0,88,0.00,,,0.00,VWS V14.01,2013-05-10 09:28:00,
2013-05-10 05:29:00,54.1,50.6,29.88,NW,308,0.0,0.0,88,0.00,,,0.00,VWS V14.01,2013-05-10 09:29:00,
2013-05-10 05:30:00,54.1,50.6,29.88,NW,308,0.0,0.0,88,0.00,,,0.00,VWS V14.01,2013-05-10 09:30:00,
2013-05-10 05:31:00,54.1,50.6,29.88,NW,308,0.0,0.0,88,0.00,,,0.00,VWS V14.01,2013-05-10 09:31:00,
2013-05-10 05:32:00,54.1,50.6,29.88,NW,308,0.0,0.0,88,0.00,,,0.00,VWS V14.01,2013-05-10 09:32:00,
2013-05-10 05:33:00,54.2,50.8,29.88,NW,308,0.0,0.0,88,0.00,,,0.00,VWS V14.01,2013-05-10 09:33:00,
2013-05-10 05:34:00,54.2,50.8,29.88,NW,308,0.0,0.0,88,0.00,,,0.00,VWS V14.01,2013-05-10 09:34:00,
2013-05-10 05:35:00,54.2,50.8,29.88,NW,308,0.0,0.0,88,0.00,,,0.00,VWS V14.01,2013-05-10 09:35:00,
2013-05-10 05:36:00,54.2,50.8,29.88,NW,308,0.0,0.0,88,0.00,,,0.00,VWS V14.01,2013-05-10 09:36:00,
2013-05-10 05:37:00,54.4,51.0,29.88,NW,308,0.0,0.0,88,0.00,,,0.00,VWS V14.01,2013-05-10 09:37:00,
2013-05-10 05:38:00,54.4,51.0,29.88,NW,308,0.0,0.0,88,0.00,,,0.00,VWS V14.01,2013-05-10 09:38:00,
2013-05-10 05:39:00,54.4,51.0,29.88,NW,308,0.0,0.0,88,0.00,,,0.00,VWS V14.01,2013-05-10 09:39:00,
2013-05-10 05:40:00,54.4,51.0,29.88,NW,308,0.0,0.0,88,0.00,,,0.00,VWS V14.01,2013-05-10 09:40:00,
2013-05-10 05:41:00,54.4,51.0,29.88,NW,308,0.0,0.0,88,0.00,,,0.00,VWS V14.01,2013-05-10 09:41:00,
2013-05-10 05:42:00,54.4,51.2,29.88,NW,308,0.0,0.0,89,0.00,,,0.00,VWS V14.01,2013-05-10 09:42:00,
2013-05-10 05:43:00,54.4,51.2,29.88,NW,308,0.0,0.0,89,0.00,,,0.00,VWS V14.01,2013-05-10 09:43:00,
2013-05-10 05:44:00,54.4,51.2,29.88,NW,308,0.0,0.0,89,0.00,,,0.00,VWS V14.01,2013-05-10 09:44:00,
2013-05-10 05:45:00,54.4,51.2,29.88,NW,308,0.0,0.0,89,0.00,,,0.00,VWS V14.01,2013-05-10 09:45:00,
2013-05-10 05:46:00,54.4,51.2,29.88,NW,308,0.0,0.0,89,0.00,,,0.00,VWS V14.01,2013-05-10 09:46:00,
2013-05-10 05:47:00,54.4,51.2,29.88,NNW,342,0.0,0.0,89,0.00,,,0.00,VWS V14.01,2013-05-10 09:47:00,
2013-05-10 05:48:00,54.4,51.2,29.88,NNW,342,0.0,0.0,89,0.00,,,0.00,VWS V14.01,2013-05-10 09:48:00,
2013-05-10 05:49:00,54.4,51.2,29.88,NNW,342,0.0,0.0,89,0.00,,,0.00,VWS V14.01,2013-05-10 09:49:00,
2013-05-10 05:50:00,54.4,51.2,29.88,NNW,342,0.0,0.0,89,0.00,,,0.00,VWS V14.01,2013-05-10 09:50:00,
2013-05-10 05:51:00,54.4,51.2,29.88,NNW,342,0.0,0.0,89,0.00,,,0.00,VWS V14.01,2013-05-10 09:51:00,
2013-05-10 05:52:00,54.4,51.2,29.88,NNW,342,0.0,0.0,89,0.00,,,0.00,VWS V14.01,2013-05-10 09:52:00,
2013-05-10 05:53:00,54.4,51.2,29.88,NNW,342,0.0,0.0,89,0.00,,,0.00,VWS V14.01,2013-05-10 09:53:00,
2013-05-10 05:54:00,54.4,51.2,29.88,NNW,341,0.0,0.0,89,0.00,,,0.00,VWS V14.01,2013-05-10 09:54:00,
2013-05-10 05:55:00,54.2,51.1,29.88,NNW,341,0.0,0.0,89,0.00,,,0.00,VWS V14.01,2013-05-10 09:55:00,
2013-05-10 05:56:00,54.2,51.1,29.88,NNW,341,0.0,0.0,89,0.00,,,0.00,VWS V14.01,2013-05-10 09:56:00,
2013-05-10 05:57:00,54.2,51.1,29.88,NNW,341,0.0,0.0,89,0.00,,,0.00,VWS V14.01,2013-05-10 09:57:00,
2013-05-10 05:58:00,54.2,51.1,29.88,NNW,341,0.0,0.0,89,0.00,,,0.00,VWS V14.01,2013-05-10 09:58:00,
2013-05-10 05:59:00,54.2,51.1,29.88,NNW,341,0.0,0.0,89,0.00,,,0.00,VWS V14.01,2013-05-10 09:59:00,
2013-05-10 06:00:00,54.2,51.1,29.88,NNW,341,0.0,0.0,89,0.00,,,0.00,VWS V14.01,2013-05-10 10:00:00,
2013-05-10 06:01:00,54.2,51.1,29.88,NNW,341,0.0,0.0,89,0.00,,,0.00,VWS V14.01,2013-05-10 10:01:00,
2013-05-10 06:02:00,54.2,51.1,29.88,NNW,341,0.0,0.0,89,0.00,,,0.00,VWS V14.01,2013-05-10 10:02:00,
2013-05-10 06:03:00,54.2,51.1,29.88,NNW,341,0.0,0.0,89,0.00,,,0.00,VWS V14.01,2013-05-10 10:03:00,
2013-05-10 06:04:00,54.2,51.1,29.88,NNW,341,0.0,0.0,89,0.00,,,0.00,VWS V14.01,2013-05-10 10:04:00,
2013-05-10 06:05:00,54.2,51.1,29.88,NNW,341,0.0,0.0,89,0.00,,,0.00,VWS V14.01,2013-05-10 10:05:00,
2013-05-10 06:06:00,54.2,51.1,29.88,NNW,341,0.0,0.0,89,0.00,,,0.00,VWS V14.01,2013-05-10 10:06:00,
2013-05-10 06:07:00,54.2,51.1,29.88,NNW,341,0.0,0.0,89,0.00,,,0.00,VWS V14.01,2013-05-10 10:07:00,
2013-05-10 06:08:00,54.2,51.1,29.88,NNW,341,0.0,0.0,89,0.00,,,0.00,VWS V14.01,2013-05-10 10:08:00,
2013-05-10 06:09:00,54.2,51.1,29.88,NNW,341,0.0,0.0,89,0.00,,,0.00,VWS V14.01,2013-05-10 10:09:00,
2013-05-10 06:10:00,54.2,51.1,29.88,NNW,341,0.0,0.0,89,0.00,,,0.00,VWS V14.01,2013-05-10 10:10:00,
2013-05-10 06:11:00,54.2,51.1,29.88,NNW,341,0.0,0.0,89,0.00,,,0.00,VWS V14.01,2013-05-10 10:11:00,
2013-05-10 06:12:00,54.2,51.1,29.88,NNW,341,0.0,0.0,89,0.00,,,0.00,VWS V14.01,2013-05-10 10:12:00,
2013-05-10 06:13:00,54.4,51.2,29.88,NNW,341,0.0,0.0,89,0.00,,,0.00,VWS V14.01,2013-05-10 10:13:00,
2013-05-10 06:14:00,54.4,51.2,29.88,NNW,341,0.0,0.0,89,0.00,,,0.00,VWS V14.01,2013-05-10 10:14:00,
2013-05-10 06:15:00,54.4,51.2,29.88,NNW,341,0.0,0.0,89,0.00,,,0.00,VWS V14.01,2013-05-10 10:15:00,
2013-05-10 06:16:00,54.4,51.2,29.88,NNW,341,0.0,0.0,89,0.00,,,0.00,VWS V14.01,2013-05-10 10:16:00,
2013-05-10 06:17:00,54.4,51.2,29.88,NNW,341,0.0,0.0,89,0.00,,,0.00,VWS V14.01,2013-05-10 10:17:00,
2013-05-10 06:18:00,54.6,51.4,29.88,NNW,341,0.0,0.0,89,0.00,,,0.00,VWS V14.01,2013-05-10 10:18:00,
2013-05-10 06:19:00,54.6,51.4,29.88,NNW,341,0.0,0.0,89,0.00,,,0.00,VWS V14.01,2013-05-10 10:19:00,
2013-05-10 06:20:00,54.6,51.4,29.88,NNW,341,0.0,0.0,89,0.00,,,0.00,VWS V14.01,2013-05-10 10:20:00,
2013-05-10 06:21:00,54.6,51.4,29.88,NNW,341,0.0,0.0,89,0.00,,,0.00,VWS V14.01,2013-05-10 10:21:00,
2013-05-10 06:22:00,54.8,51.6,29.88,NNW,341,0.0,0.0,89,0.00,,,0.00,VWS V14.01,2013-05-10 10:22:00,
2013-05-10 06:23:00,54.8,51.6,29.88,NNW,341,0.0,0.0,89,0.00,,,0.00,VWS V14.01,2013-05-10 10:23:00,
2013-05-10 06:24:00,54.8,51.6,29.88,NNW,341,0.0,0.0,89,0.00,,,0.00,VWS V14.01,2013-05-10 10:24:00,
2013-05-10 06:25:00,54.8,51.6,29.88,NNW,341,0.0,0.0,89,0.00,,,0.00,VWS V14.01,2013-05-10 10:25:00,
2013-05-10 06:26:00,55.0,51.8,29.88,NNW,341,0.0,0.0,89,0.00,,,0.00,VWS V14.01,2013-05-10 10:26:00,
2013-05-10 06:27:00,55.1,52.0,29.88,NNW,341,0.0,0.0,89,0.00,,,0.00,VWS V14.01,2013-05-10 10:27:00,
2013-05-10 06:28:00,55.1,52.0,29.88,NNW,341,0.0,0.0,89,0.00,,,0.00,VWS V14.01,2013-05-10 10:28:00,
2013-05-10 06:29:00,55.3,52.1,29.88,NNW,341,0.0,0.0,89,0.00,,,0.00,VWS V14.01,2013-05-10 10:29:00,
2013-05-10 06:30:00,55.3,52.1,29.88,NNW,341,0.0,0.0,89,0.00,,,0.00,VWS V14.01,2013-05-10 10:30:00,
2013-05-10 06:31:00,55.5,52.6,29.88,NNW,341,0.0,0.0,90,0.00,,,0.00,VWS V14.01,2013-05-10 10:31:00,
2013-05-10 06:32:00,55.5,52.6,29.88,NNW,341,0.0,0.0,90,0.00,,,0.00,VWS V14.01,2013-05-10 10:32:00,
2013-05-10 06:33:00,55.7,52.8,29.88,NNW,341,0.0,0.0,90,0.00,,,0.00,VWS V14.01,2013-05-10 10:33:00,
2013-05-10 06:34:00,55.7,52.8,29.88,NNW,341,0.0,0.0,90,0.00,,,0.00,VWS V14.01,2013-05-10 10:34:00,
2013-05-10 06:35:00,55.9,53.0,29.88,NNW,341,0.0,0.0,90,0.00,,,0.00,VWS V14.01,2013-05-10 10:35:00,
2013-05-10 06:36:00,55.9,53.0,29.88,NNW,341,0.0,0.0,90,0.00,,,0.00,VWS V14.01,2013-05-10 10:36:00,
2013-05-10 06:37:00,56.0,53.2,29.88,NNW,341,0.0,0.0,90,0.00,,,0.00,VWS V14.01,2013-05-10 10:37:00,
2013-05-10 06:38:00,56.2,53.6,29.88,NNW,341,0.0,0.0,91,0.00,,,0.00,VWS V14.01,2013-05-10 10:38:00,
2013-05-10 06:39:00,56.2,53.6,29.88,NNW,341,0.0,0.0,91,0.00,,,0.00,VWS V14.01,2013-05-10 10:39:00,
2013-05-10 06:40:00,56.2,53.6,29.88,NNW,341,0.0,0.0,91,0.00,,,0.00,VWS V14.01,2013-05-10 10:40:00,
2013-05-10 06:41:00,56.4,53.5,29.88,NNW,341,0.0,0.0,90,0.00,,,0.00,VWS V14.01,2013-05-10 10:41:00,
2013-05-10 06:42:00,56.4,53.5,29.88,NNW,341,0.0,0.0,90,0.00,,,0.00,VWS V14.01,2013-05-10 10:42:00,
2013-05-10 06:43:00,56.6,53.7,29.88,NNW,341,0.0,0.0,90,0.00,,,0.00,VWS V14.01,2013-05-10 10:43:00,
2013-05-10 06:44:00,56.6,53.7,29.88,NNW,341,0.0,0.0,90,0.00,,,0.00,VWS V14.01,2013-05-10 10:44:00,
2013-05-10 06:45:00,56.6,53.7,29.88,NNW,341,0.0,0.0,90,0.00,,,0.00,VWS V14.01,2013-05-10 10:45:00,
2013-05-10 06:46:00,56.8,53.9,29.88,NNW,341,0.0,0.0,90,0.00,,,0.00,VWS V14.01,2013-05-10 10:46:00,
2013-05-10 06:47:00,56.8,53.9,29.88,NNW,341,0.0,0.0,90,0.00,,,0.00,VWS V14.01,2013-05-10 10:47:00,
2013-05-10 06:48:00,56.9,54.0,29.88,NNW,341,0.0,0.0,90,0.00,,,0.00,VWS V14.01,2013-05-10 10:48:00,
2013-05-10 06:49:00,56.9,54.0,29.88,NNW,341,0.0,0.0,90,0.00,,,0.00,VWS V14.01,2013-05-10 10:49:00,
2013-05-10 06:50:00,56.9,54.3,29.88,NNW,341,0.0,0.0,91,0.00,,,0.00,VWS V14.01,2013-05-10 10:50:00,
2013-05-10 06:51:00,57.1,54.5,29.88,NNW,341,0.0,0.0,91,0.00,,,0.00,VWS V14.01,2013-05-10 10:51:00,
2013-05-10 06:52:00,57.1,54.5,29.88,NNW,341,0.0,0.0,91,0.00,,,0.00,VWS V14.01,2013-05-10 10:52:00,
2013-05-10 06:53:00,57.3,54.7,29.88,NNW,341,0.0,0.0,91,0.00,,,0.00,VWS V14.01,2013-05-10 10:53:00,
2013-05-10 06:54:00,57.3,54.7,29.88,NNW,341,0.0,0.0,91,0.00,,,0.00,VWS V14.01,2013-05-10 10:54:00,
2013-05-10 06:55:00,57.5,54.9,29.88,NNW,341,0.0,0.0,91,0.00,,,0.00,VWS V14.01,2013-05-10 10:55:00,
2013-05-10 06:56:00,57.5,54.9,29.88,NNW,341,0.0,0.0,91,0.00,,,0.00,VWS V14.01,2013-05-10 10:56:00,
2013-05-10 06:57:00,57.5,54.9,29.88,NNW,341,0.0,0.0,91,0.00,,,0.00,VWS V14.01,2013-05-10 10:57:00,
2013-05-10 06:58:00,57.7,55.1,29.88,NNW,341,0.0,0.0,91,0.00,,,0.00,VWS V14.01,2013-05-10 10:58:00,
2013-05-10 06:59:00,57.7,55.1,29.88,NNW,341,0.0,0.0,91,0.00,,,0.00,VWS V14.01,2013-05-10 10:59:00,
2013-05-10 07:00:00,57.7,55.1,29.88,NNW,341,0.0,0.0,91,0.00,,,0.00,VWS V14.01,2013-05-10 11:00:00,
2013-05-10 07:01:00,57.8,55.2,29.88,NNW,341,0.0,0.0,91,0.00,,,0.00,VWS V14.01,2013-05-10 11:01:00,
2013-05-10 07:02:00,57.8,55.2,29.88,NNW,341,0.0,0.0,91,0.00,,,0.00,VWS V14.01,2013-05-10 11:02:00,
2013-05-10 07:03:00,57.8,55.2,29.88,NNW,341,0.0,0.0,91,0.00,,,0.00,VWS V14.01,2013-05-10 11:03:00,
2013-05-10 07:04:00,57.8,55.2,29.88,NNW,341,0.0,0.0,91,0.00,,,0.00,VWS V14.01,2013-05-10 11:04:00,
2013-05-10 07:05:00,58.0,55.4,29.88,NNW,341,0.0,0.0,91,0.00,,,0.00,VWS V14.01,2013-05-10 11:05:00,
2013-05-10 07:06:00,58.0,55.4,29.88,NNW,341,0.0,0.0,91,0.00,,,0.00,VWS V14.01,2013-05-10 11:06:00,
2013-05-10 07:07:00,58.0,55.4,29.88,NNW,341,0.0,0.0,91,0.00,,,0.00,VWS V14.01,2013-05-10 11:07:00,
2013-05-10 07:08:00,58.2,55.6,29.88,NNW,341,0.0,0.0,91,0.00,,,0.00,VWS V14.01,2013-05-10 11:08:00,
2013-05-10 07:09:00,58.2,55.6,29.88,NNW,341,0.0,0.0,91,0.00,,,0.00,VWS V14.01,2013-05-10 11:09:00,
2013-05-10 07:10:00,58.2,55.6,29.88,NNW,341,0.0,0.0,91,0.00,,,0.00,VWS V14.01,2013-05-10 11:10:00,
2013-05-10 07:11:00,58.4,55.8,29.88,NNW,341,0.0,0.0,91,0.00,,,0.00,VWS V14.01,2013-05-10 11:11:00,
2013-05-10 07:12:00,58.6,56.0,29.88,NNW,341,0.0,0.0,91,0.00,,,0.00,VWS V14.01,2013-05-10 11:12:00,
2013-05-10 07:13:00,58.6,56.0,29.88,NNW,341,0.0,0.0,91,0.00,,,0.00,VWS V14.01,2013-05-10 11:13:00,
2013-05-10 07:14:00,58.6,56.0,29.88,NNW,341,0.0,0.0,91,0.00,,,0.00,VWS V14.01,2013-05-10 11:14:00,
2013-05-10 07:15:00,58.7,56.1,29.88,NNW,341,0.0,0.0,91,0.00,,,0.00,VWS V14.01,2013-05-10 11:15:00,
2013-05-10 07:16:00,58.7,56.1,29.88,NNW,341,0.0,0.0,91,0.00,,,0.00,VWS V14.01,2013-05-10 11:16:00,
2013-05-10 07:17:00,58.9,56.3,29.88,NNW,341,0.0,0.0,91,0.00,,,0.00,VWS V14.01,2013-05-10 11:17:00,
2013-05-10 07:18:00,58.9,56.3,29.88,NNW,341,0.0,0.0,91,0.00,,,0.00,VWS V14.01,2013-05-10 11:18:00,
2013-05-10 07:19:00,59.1,56.5,29.88,NNW,341,0.0,0.0,91,0.00,,,0.00,VWS V14.01,2013-05-10 11:19:00,
2013-05-10 07:20:00,59.1,56.5,29.88,NNW,341,0.0,0.0,91,0.00,,,0.00,VWS V14.01,2013-05-10 11:20:00,
2013-05-10 07:21:00,59.3,56.7,29.88,NNW,341,0.0,0.0,91,0.00,,,0.00,VWS V14.01,2013-05-10 11:21:00,
2013-05-10 07:22:00,59.5,57.1,29.88,NNW,341,0.0,0.0,92,0.00,,,0.00,VWS V14.01,2013-05-10 11:22:00,
2013-05-10 07:23:00,59.5,57.1,29.88,NNW,341,0.0,0.0,92,0.00,,,0.00,VWS V14.01,2013-05-10 11:23:00,
2013-05-10 07:24:00,59.6,57.3,29.88,NNW,341,0.0,0.0,92,0.00,,,0.00,VWS V14.01,2013-05-10 11:24:00,
2013-05-10 07:25:00,59.8,57.5,29.88,NNW,341,4.0,4.0,92,0.00,,,0.00,VWS V14.01,2013-05-10 11:25:00,
2013-05-10 07:26:00,59.8,57.5,29.88,NNW,341,2.2,4.0,92,0.00,,,0.00,VWS V14.01,2013-05-10 11:26:00,
2013-05-10 07:27:00,60.0,57.4,29.88,NNW,341,0.0,2.2,91,0.00,,,0.00,VWS V14.01,2013-05-10 11:27:00,
2013-05-10 07:28:00,60.2,57.5,29.88,NNW,341,0.0,0.0,91,0.00,,,0.00,VWS V14.01,2013-05-10 11:28:00,
2013-05-10 07:29:00,60.2,57.5,29.88,NNW,341,0.0,0.0,91,0.00,,,0.00,VWS V14.01,2013-05-10 11:29:00,
2013-05-10 07:30:00,60.4,57.7,29.88,NNW,341,0.0,0.0,91,0.00,,,0.00,VWS V14.01,2013-05-10 11:30:00,
2013-05-10 07:31:00,60.5,57.9,29.88,NNW,341,0.0,0.0,91,0.00,,,0.00,VWS V14.01,2013-05-10 11:31:00,
2013-05-10 07:32:00,60.7,58.1,29.88,NNW,341,0.0,0.0,91,0.00,,,0.00,VWS V14.01,2013-05-10 11:32:00,
2013-05-10 07:33:00,60.9,58.3,29.88,NNW,341,0.0,0.0,91,0.00,,,0.00,VWS V14.01,2013-05-10 11:33:00,
2013-05-10 07:34:00,60.9,58.3,29.88,NNW,341,0.0,0.0,91,0.00,,,0.00,VWS V14.01,2013-05-10 11:34:00,
2013-05-10 07:35:00,61.1,58.4,29.88,NNW,341,0.0,0.0,91,0.00,,,0.00,VWS V14.01,2013-05-10 11:35:00,
2013-05-10 07:36:00,61.4,58.8,29.88,NNW,341,0.0,0.0,91,0.00,,,0.00,VWS V14.01,2013-05-10 11:36:00,
2013-05-10 07:37:00,61.4,58.8,29.91,WNW,291,3.6,3.6,91,0.00,,,0.00,VWS V14.01,2013-05-10 11:37:00,
2013-05-10 07:38:00,61.6,59.0,29.91,WNW,291,2.2,3.6,91,0.00,,,0.00,VWS V14.01,2013-05-10 11:38:00,
2013-05-10 07:39:00,61.8,59.2,29.91,WNW,290,0.0,0.0,91,0.00,,,0.00,VWS V14.01,2013-05-10 11:39:00,
2013-05-10 07:40:00,62.0,59.3,29.91,WNW,290,0.0,0.0,91,0.00,,,0.00,VWS V14.01,2013-05-10 11:40:00,
2013-05-10 07:41:00,62.2,59.5,29.91,WNW,302,0.0,0.0,91,0.00,,,0.00,VWS V14.01,2013-05-10 11:41:00,
2013-05-10 07:42:00,62.3,59.7,29.91,NW,322,0.0,0.0,91,0.00,,,0.00,VWS V14.01,2013-05-10 11:42:00,
2013-05-10 07:43:00,62.5,59.9,29.91,NW,322,0.0,0.0,91,0.00,,,0.00,VWS V14.01,2013-05-10 11:43:00,
2013-05-10 07:44:00,62.7,60.0,29.91,NW,322,0.0,0.0,91,0.00,,,0.00,VWS V14.01,2013-05-10 11:44:00,
2013-05-10 07:45:00,62.7,60.0,29.91,NW,322,0.0,0.0,91,0.00,,,0.00,VWS V14.01,2013-05-10 11:45:00,
2013-05-10 07:46:00,62.9,60.2,29.91,NW,322,0.0,0.0,91,0.00,,,0.00,VWS V14.01,2013-05-10 11:46:00,
2013-05-10 07:47:00,63.1,60.4,29.91,NW,322,0.0,0.0,91,0.00,,,0.00,VWS V14.01,2013-05-10 11:47:00,
2013-05-10 07:48:00,63.2,60.6,29.91,NW,322,0.0,2.7,91,0.00,,,0.00,VWS V14.01,2013-05-10 11:48:00,
2013-05-10 07:49:00,63.2,60.3,29.91,NW,322,0.0,0.0,90,0.00,,,0.00,VWS V14.01,2013-05-10 11:49:00,
2013-05-10 07:50:00,63.4,60.4,29.91,NW,322,2.7,3.6,90,0.00,,,0.00,VWS V14.01,2013-05-10 11:50:00,
2013-05-10 07:51:00,63.4,60.4,29.91,NW,322,2.7,3.6,90,0.00,,,0.00,VWS V14.01,2013-05-10 11:51:00,
2013-05-10 07:52:00,63.6,60.3,29.91,NW,322,0.0,2.7,89,0.00,,,0.00,VWS V14.01,2013-05-10 11:52:00,
2013-05-10 07:53:00,63.8,60.5,29.91,NW,322,0.0,0.0,89,0.00,,,0.00,VWS V14.01,2013-05-10 11:53:00,
2013-05-10 07:54:00,64.0,60.7,29.91,NW,322,0.0,0.0,89,0.00,,,0.00,VWS V14.01,2013-05-10 11:54:00,
2013-05-10 07:55:00,64.1,60.5,29.91,NW,322,0.0,0.0,88,0.00,,,0.00,VWS V14.01,2013-05-10 11:55:00,
2013-05-10 07:56:00,64.1,60.5,29.91,NW,322,0.0,0.0,88,0.00,,,0.00,VWS V14.01,2013-05-10 11:56:00,
2013-05-10 07:57:00,64.5,60.5,29.91,NW,322,0.0,0.0,87,0.00,,,0.00,VWS V14.01,2013-05-10 11:57:00,
2013-05-10 07:58:00,64.5,60.5,29.91,NW,322,0.0,0.0,87,0.00,,,0.00,VWS V14.01,2013-05-10 11:58:00,
2013-05-10 07:59:00,64.7,60.7,29.91,NW,322,0.0,0.0,87,0.00,,,0.00,VWS V14.01,2013-05-10 11:59:00,
2013-05-10 08:00:00,64.9,60.6,29.91,NW,322,0.0,0.0,86,0.00,,,0.00,VWS V14.01,2013-05-10 12:00:00,
2013-05-10 08:01:00,64.9,60.6,29.91,NW,322,0.0,0.0,86,0.00,,,0.00,VWS V14.01,2013-05-10 12:01:00,
2013-05-10 08:02:00,65.2,60.6,29.91,NW,322,0.0,0.0,85,0.00,,,0.00,VWS V14.01,2013-05-10 12:02:00,
2013-05-10 08:03:00,65.4,60.5,29.91,NW,322,0.0,0.0,84,0.00,,,0.00,VWS V14.01,2013-05-10 12:03:00,
2013-05-10 08:04:00,65.6,60.3,29.91,NW,322,2.7,2.7,83,0.00,,,0.00,VWS V14.01,2013-05-10 12:04:00,
2013-05-10 08:05:00,65.8,60.1,29.91,NW,321,0.0,4.0,82,0.00,,,0.00,VWS V14.01,2013-05-10 12:05:00,
2013-05-10 08:06:00,65.9,60.3,29.91,NW,321,0.0,0.0,82,0.00,,,0.00,VWS V14.01,2013-05-10 12:06:00,
2013-05-10 08:07:00,65.9,59.6,29.88,NNW,327,3.1,3.6,80,0.00,,,0.00,VWS V14.01,2013-05-10 12:07:00,
2013-05-10 08:08:00,66.1,59.1,29.88,NNW,327,0.0,3.1,78,0.00,,,0.00,VWS V14.01,2013-05-10 12:08:00,
2013-05-10 08:09:00,66.1,58.7,29.88,NNW,327,0.0,0.0,77,0.00,,,0.00,VWS V14.01,2013-05-10 12:09:00,
2013-05-10 08:10:00,66.3,58.2,29.88,NNW,327,0.0,0.0,75,0.00,,,0.00,VWS V14.01,2013-05-10 12:10:00,
2013-05-10 08:11:00,66.3,58.2,29.88,NNW,327,0.0,0.0,75,0.00,,,0.00,VWS V14.01,2013-05-10 12:11:00,
2013-05-10 08:12:00,66.3,56.6,29.88,NNW,327,0.0,0.0,71,0.00,,,0.00,VWS V14.01,2013-05-10 12:12:00,
2013-05-10 08:13:00,66.5,55.6,29.88,NNW,327,0.0,0.0,68,0.00,,,0.00,VWS V14.01,2013-05-10 12:13:00,
2013-05-10 08:14:00,66.5,55.2,29.88,NNW,327,0.0,0.0,67,0.00,,,0.00,VWS V14.01,2013-05-10 12:14:00,
2013-05-10 08:15:00,66.5,54.8,29.88,NNW,327,3.6,3.6,66,0.00,,,0.00,VWS V14.01,2013-05-10 12:15:00,
2013-05-10 08:16:00,66.5,53.9,29.88,NNW,327,0.0,3.6,64,0.00,,,0.00,VWS V14.01,2013-05-10 12:16:00,
2013-05-10 08:17:00,66.5,53.9,29.88,NNW,327,0.0,0.0,64,0.00,,,0.00,VWS V14.01,2013-05-10 12:17:00,
2013-05-10 08:18:00,66.5,53.9,29.88,NNW,327,0.0,0.0,64,0.00,,,0.00,VWS V14.01,2013-05-10 12:18:00,
2013-05-10 08:19:00,66.5,53.5,29.88,NNW,327,0.0,0.0,63,0.00,,,0.00,VWS V14.01,2013-05-10 12:19:00,
2013-05-10 08:20:00,66.5,53.5,29.88,NNW,327,0.0,0.0,63,0.00,,,0.00,VWS V14.01,2013-05-10 12:20:00,
2013-05-10 08:21:00,66.7,53.7,29.88,NNW,327,0.0,0.0,63,0.00,,,0.00,VWS V14.01,2013-05-10 12:21:00,
2013-05-10 08:22:00,66.7,53.2,29.88,NNW,327,0.0,0.0,62,0.00,,,0.00,VWS V14.01,2013-05-10 12:22:00,
2013-05-10 08:23:00,66.7,53.7,29.88,NNW,327,0.0,0.0,63,0.00,,,0.00,VWS V14.01,2013-05-10 12:23:00,
2013-05-10 08:24:00,66.8,53.8,29.88,NNW,327,0.0,0.0,63,0.00,,,0.00,VWS V14.01,2013-05-10 12:24:00,
2013-05-10 08:25:00,66.8,53.8,29.88,NNW,327,0.0,0.0,63,0.00,,,0.00,VWS V14.01,2013-05-10 12:25:00,
2013-05-10 08:26:00,67.0,54.0,29.88,NNW,327,0.0,3.1,63,0.00,,,0.00,VWS V14.01,2013-05-10 12:26:00,
2013-05-10 08:27:00,67.0,54.0,29.88,NNW,327,0.0,0.0,63,0.00,,,0.00,VWS V14.01,2013-05-10 12:27:00,
2013-05-10 08:28:00,67.2,53.8,29.88,NNW,342,2.7,3.1,62,0.00,,,0.00,VWS V14.01,2013-05-10 12:28:00,
2013-05-10 08:29:00,67.6,54.1,29.88,NNW,342,0.0,0.0,62,0.00,,,0.00,VWS V14.01,2013-05-10 12:29:00,
2013-05-10 08:30:00,67.6,54.1,29.88,NNW,342,0.0,0.0,62,0.00,,,0.00,VWS V14.01,2013-05-10 12:30:00,
2013-05-10 08:31:00,67.7,53.8,29.88,NNW,342,0.0,0.0,61,0.00,,,0.00,VWS V14.01,2013-05-10 12:31:00,
2013-05-10 08:32:00,67.7,53.4,29.88,NNW,342,0.0,0.0,60,0.00,,,0.00,VWS V14.01,2013-05-10 12:32:00,
2013-05-10 08:33:00,67.9,52.6,29.88,NNW,342,0.0,0.0,58,0.00,,,0.00,VWS V14.01,2013-05-10 12:33:00,
2013-05-10 08:34:00,67.9,52.1,29.88,NNW,342,0.0,0.0,57,0.00,,,0.00,VWS V14.01,2013-05-10 12:34:00,
2013-05-10 08:35:00,67.9,52.1,29.88,NNW,342,0.0,0.0,57,0.00,,,0.00,VWS V14.01,2013-05-10 12:35:00,
2013-05-10 08:36:00,67.9,52.1,29.88,NNW,342,0.0,0.0,57,0.00,,,0.00,VWS V14.01,2013-05-10 12:36:00,
2013-05-10 08:37:00,68.1,52.3,29.91,NNW,342,0.0,0.0,57,0.00,,,0.00,VWS V14.01,2013-05-10 12:37:00,
2013-05-10 08:38:00,68.1,52.3,29.91,NNW,342,0.0,0.0,57,0.00,,,0.00,VWS V14.01,2013-05-10 12:38:00,
2013-05-10 08:39:00,68.5,52.7,29.91,NNW,342,0.0,0.0,57,0.00,,,0.00,VWS V14.01,2013-05-10 12:39:00,
2013-05-10 08:40:00,68.5,52.7,29.91,NE,41,0.0,0.0,57,0.00,,,0.00,VWS V14.01,2013-05-10 12:40:00,
2013-05-10 08:41:00,68.6,52.8,29.91,NE,41,0.0,0.0,57,0.00,,,0.00,VWS V14.01,2013-05-10 12:41:00,
2013-05-10 08:42:00,68.8,53.0,29.91,NE,41,0.0,0.0,57,0.00,,,0.00,VWS V14.01,2013-05-10 12:42:00,
2013-05-10 08:43:00,68.8,53.0,29.91,NNW,345,0.0,0.0,57,0.00,,,0.00,VWS V14.01,2013-05-10 12:43:00,
2013-05-10 08:44:00,69.0,52.2,29.91,NNW,345,0.0,0.0,55,0.00,,,0.00,VWS V14.01,2013-05-10 12:44:00,
2013-05-10 08:45:00,69.0,52.2,29.91,NNW,345,0.0,0.0,55,0.00,,,0.00,VWS V14.01,2013-05-10 12:45:00,
2013-05-10 08:46:00,69.0,51.7,29.91,NNW,345,0.0,0.0,54,0.00,,,0.00,VWS V14.01,2013-05-10 12:46:00,
2013-05-10 08:47:00,69.2,51.8,29.91,NNW,345,0.0,0.0,54,0.00,,,0.00,VWS V14.01,2013-05-10 12:47:00,
2013-05-10 08:48:00,69.2,51.8,29.91,NNW,345,0.0,0.0,54,0.00,,,0.00,VWS V14.01,2013-05-10 12:48:00,
2013-05-10 08:49:00,69.5,52.2,29.91,NNW,345,0.0,0.0,54,0.00,,,0.00,VWS V14.01,2013-05-10 12:49:00,
2013-05-10 08:50:00,69.7,52.3,29.91,NNW,345,0.0,0.0,54,0.00,,,0.00,VWS V14.01,2013-05-10 12:50:00,
2013-05-10 08:51:00,69.9,52.5,29.91,NNW,345,0.0,0.0,54,0.00,,,0.00,VWS V14.01,2013-05-10 12:51:00,
2013-05-10 08:52:00,70.3,52.8,29.91,NNW,345,0.0,0.0,54,0.00,,,0.00,VWS V14.01,2013-05-10 12:52:00,
2013-05-10 08:53:00,70.3,52.8,29.88,NNE,27,0.0,0.0,54,0.00,,,0.00,VWS V14.01,2013-05-10 12:53:00,
2013-05-10 08:54:00,71.0,53.0,29.88,NNE,27,0.0,0.0,53,0.00,,,0.00,VWS V14.01,2013-05-10 12:54:00,
2013-05-10 08:55:00,71.0,53.0,29.88,NNE,27,0.0,0.0,53,0.00,,,0.00,VWS V14.01,2013-05-10 12:55:00,
2013-05-10 08:56:00,71.2,52.7,29.88,WNW,283,2.2,3.1,52,0.00,,,0.00,VWS V14.01,2013-05-10 12:56:00,
2013-05-10 08:57:00,71.2,51.6,29.88,NNW,332,2.2,3.6,50,0.00,,,0.00,VWS V14.01,2013-05-10 12:57:00,
2013-05-10 08:58:00,71.2,51.6,29.88,NNW,332,0.0,2.2,50,0.00,,,0.00,VWS V14.01,2013-05-10 12:58:00,
2013-05-10 08:59:00,71.2,51.0,29.88,NNW,332,0.0,0.0,49,0.00,,,0.00,VWS V14.01,2013-05-10 12:59:00,
2013-05-10 09:00:00,71.2,51.0,29.88,NNW,332,0.0,0.0,49,0.00,,,0.00,VWS V14.01,2013-05-10 13:00:00,
2013-05-10 09:01:00,71.2,51.0,29.88,NNW,332,0.0,0.0,49,0.00,,,0.00,VWS V14.01,2013-05-10 13:01:00,
2013-05-10 09:02:00,71.3,51.2,29.88,NNW,332,0.0,0.0,49,0.00,,,0.00,VWS V14.01,2013-05-10 13:02:00,
2013-05-10 09:03:00,71.5,51.9,29.88,NNW,332,0.0,0.0,50,0.00,,,0.00,VWS V14.01,2013-05-10 13:03:00,
2013-05-10 09:04:00,71.7,51.5,29.88,NNW,332,0.0,0.0,49,0.00,,,0.00,VWS V14.01,2013-05-10 13:04:00,
2013-05-10 09:05:00,71.7,51.5,29.88,NNW,332,0.0,0.0,49,0.00,,,0.00,VWS V14.01,2013-05-10 13:05:00,
2013-05-10 09:06:00,71.9,51.7,29.88,NNW,332,0.0,0.0,49,0.00,,,0.00,VWS V14.01,2013-05-10 13:06:00,
2013-05-10 09:07:00,71.9,51.2,29.88,NNW,332,0.0,0.0,48,0.00,,,0.00,VWS V14.01,2013-05-10 13:07:00,
2013-05-10 09:08:00,71.9,51.2,29.88,NNW,332,0.0,0.0,48,0.00,,,0.00,VWS V14.01,2013-05-10 13:08:00,
2013-05-10 09:09:00,71.7,50.4,29.88,NNW,332,0.0,0.0,47,0.00,,,0.00,VWS V14.01,2013-05-10 13:09:00,
2013-05-10 09:10:00,71.7,50.4,29.88,NNW,332,0.0,0.0,47,0.00,,,0.00,VWS V14.01,2013-05-10 13:10:00,
2013-05-10 09:11:00,71.5,50.2,29.88,NNW,332,0.0,0.0,47,0.00,,,0.00,VWS V14.01,2013-05-10 13:11:00,
2013-05-10 09:12:00,71.5,49.7,29.88,NNW,332,0.0,0.0,46,0.00,,,0.00,VWS V14.01,2013-05-10 13:12:00,
2013-05-10 09:13:00,71.3,50.1,29.88,NNW,332,0.0,0.0,47,0.00,,,0.00,VWS V14.01,2013-05-10 13:13:00,
2013-05-10 09:14:00,71.5,50.2,29.88,NNW,332,0.0,0.0,47,0.00,,,0.00,VWS V14.01,2013-05-10 13:14:00,
2013-05-10 09:15:00,71.5,50.2,29.88,NNW,332,0.0,0.0,47,0.00,,,0.00,VWS V14.01,2013-05-10 13:15:00,
2013-05-10 09:16:00,71.7,50.4,29.88,NNW,332,0.0,0.0,47,0.00,,,0.00,VWS V14.01,2013-05-10 13:16:00,
2013-05-10 09:17:00,71.7,50.4,29.88,NNW,332,0.0,0.0,47,0.00,,,0.00,VWS V14.01,2013-05-10 13:17:00,
2013-05-10 09:18:00,71.9,50.0,29.88,NNW,332,0.0,0.0,46,0.00,,,0.00,VWS V14.01,2013-05-10 13:18:00,
2013-05-10 09:19:00,72.1,50.2,29.88,NNW,332,0.0,0.0,46,0.00,,,0.00,VWS V14.01,2013-05-10 13:19:00,
2013-05-10 09:20:00,72.1,50.2,29.88,NNW,332,0.0,0.0,46,0.00,,,0.00,VWS V14.01,2013-05-10 13:20:00,
2013-05-10 09:21:00,72.2,50.3,29.88,NNW,332,0.0,0.0,46,0.00,,,0.00,VWS V14.01,2013-05-10 13:21:00,
2013-05-10 09:22:00,72.4,50.5,29.88,NNW,332,0.0,0.0,46,0.00,,,0.00,VWS V14.01,2013-05-10 13:22:00,
2013-05-10 09:23:00,72.4,50.5,29.88,NNW,332,0.0,0.0,46,0.00,,,0.00,VWS V14.01,2013-05-10 13:23:00,
2013-05-10 09:24:00,72.6,50.1,29.88,NNW,332,0.0,0.0,45,0.00,,,0.00,VWS V14.01,2013-05-10 13:24:00,
2013-05-10 09:25:00,72.6,49.5,29.88,NNW,332,0.0,0.0,44,0.00,,,0.00,VWS V14.01,2013-05-10 13:25:00,
2013-05-10 09:26:00,72.8,49.0,29.88,NNW,332,0.0,0.0,43,0.00,,,0.00,VWS V14.01,2013-05-10 13:26:00,
2013-05-10 09:27:00,73.1,49.3,29.88,NNW,332,0.0,0.0,43,0.00,,,0.00,VWS V14.01,2013-05-10 13:27:00,
2013-05-10 09:28:00,73.1,49.3,29.88,NNW,332,0.0,0.0,43,0.00,,,0.00,VWS V14.01,2013-05-10 13:28:00,
2013-05-10 09:29:00,73.7,49.8,29.88,NNW,332,0.0,0.0,43,0.00,,,0.00,VWS V14.01,2013-05-10 13:29:00,
2013-05-10 09:30:00,73.9,50.6,29.88,NNW,332,0.0,0.0,44,0.00,,,0.00,VWS V14.01,2013-05-10 13:30:00,
2013-05-10 09:31:00,74.2,49.7,29.88,NNW,332,0.0,0.0,42,0.00,,,0.00,VWS V14.01,2013-05-10 13:31:00,
2013-05-10 09:32:00,74.6,50.0,29.88,NNW,332,0.0,0.0,42,0.00,,,0.00,VWS V14.01,2013-05-10 13:32:00,
2013-05-10 09:33:00,74.6,50.0,29.88,NNW,332,0.0,0.0,42,0.00,,,0.00,VWS V14.01,2013-05-10 13:33:00,
2013-05-10 09:34:00,74.8,49.5,29.88,NNW,332,0.0,0.0,41,0.00,,,0.00,VWS V14.01,2013-05-10 13:34:00,
2013-05-10 09:35:00,74.8,48.2,29.88,NNW,332,0.0,0.0,39,0.00,,,0.00,VWS V14.01,2013-05-10 13:35:00,
2013-05-10 09:36:00,74.8,48.2,29.88,NNW,332,0.0,0.0,39,0.00,,,0.00,VWS V14.01,2013-05-10 13:36:00,
2013-05-10 09:37:00,74.8,48.2,29.88,NNW,332,0.0,0.0,39,0.00,,,0.00,VWS V14.01,2013-05-10 13:37:00,
2013-05-10 09:38:00,74.6,48.0,29.88,NNW,332,0.0,0.0,39,0.00,,,0.00,VWS V14.01,2013-05-10 13:38:00,
2013-05-10 09:39:00,74.6,48.0,29.88,NNW,332,0.0,0.0,39,0.00,,,0.00,VWS V14.01,2013-05-10 13:39:00,
2013-05-10 09:40:00,74.4,47.9,29.88,NNW,332,0.0,0.0,39,0.00,,,0.00,VWS V14.01,2013-05-10 13:40:00,
2013-05-10 09:41:00,74.4,47.9,29.88,NNW,332,0.0,0.0,39,0.00,,,0.00,VWS V14.01,2013-05-10 13:41:00,
2013-05-10 09:42:00,74.6,48.0,29.88,NNW,332,0.0,0.0,39,0.00,,,0.00,VWS V14.01,2013-05-10 13:42:00,
2013-05-10 09:43:00,74.6,48.0,29.88,NNW,332,0.0,0.0,39,0.00,,,0.00,VWS V14.01,2013-05-10 13:43:00,
2013-05-10 09:44:00,74.6,48.0,29.88,NNW,332,0.0,0.0,39,0.00,,,0.00,VWS V14.01,2013-05-10 13:44:00,
2013-05-10 09:45:00,74.6,48.0,29.88,NNW,332,0.0,0.0,39,0.00,,,0.00,VWS V14.01,2013-05-10 13:45:00,
2013-05-10 09:46:00,74.8,48.8,29.88,NNW,332,0.0,0.0,40,0.00,,,0.00,VWS V14.01,2013-05-10 13:46:00,
2013-05-10 09:47:00,74.8,48.8,29.88,NNW,332,0.0,0.0,40,0.00,,,0.00,VWS V14.01,2013-05-10 13:47:00,
2013-05-10 09:48:00,74.9,49.0,29.88,NNW,332,0.0,0.0,40,0.00,,,0.00,VWS V14.01,2013-05-10 13:48:00,
2013-05-10 09:49:00,74.9,48.3,29.88,NNW,332,0.0,0.0,39,0.00,,,0.00,VWS V14.01,2013-05-10 13:49:00,
2013-05-10 09:50:00,75.1,48.5,29.88,NNW,332,0.0,0.0,39,0.00,,,0.00,VWS V14.01,2013-05-10 13:50:00,
2013-05-10 09:51:00,75.3,48.7,29.88,NNW,332,0.0,0.0,39,0.00,,,0.00,VWS V14.01,2013-05-10 13:51:00,
2013-05-10 09:52:00,75.5,48.8,29.88,NNW,332,0.0,0.0,39,0.00,,,0.00,VWS V14.01,2013-05-10 13:52:00,
2013-05-10 09:53:00,75.7,49.0,29.88,WNW,284,3.1,3.1,39,0.00,,,0.00,VWS V14.01,2013-05-10 13:53:00,
2013-05-10 09:54:00,76.0,47.9,29.88,SSW,206,3.1,3.6,37,0.00,,,0.00,VWS V14.01,2013-05-10 13:54:00,
2013-05-10 09:55:00,76.2,48.0,29.88,SSW,206,0.0,0.0,37,0.00,,,0.00,VWS V14.01,2013-05-10 13:55:00,
2013-05-10 09:56:00,76.6,48.4,29.88,SSW,206,0.0,0.0,37,0.00,,,0.00,VWS V14.01,2013-05-10 13:56:00,
2013-05-10 09:57:00,76.7,48.5,29.88,SSW,206,0.0,0.0,37,0.00,,,0.00,VWS V14.01,2013-05-10 13:57:00,
2013-05-10 09:58:00,76.9,48.0,29.88,SSW,206,0.0,0.0,36,0.00,,,0.00,VWS V14.01,2013-05-10 13:58:00,
2013-05-10 09:59:00,77.1,48.1,29.88,SSE,162,3.6,3.6,36,0.00,,,0.00,VWS V14.01,2013-05-10 13:59:00,
2013-05-10 10:00:00,77.3,48.3,29.88,East,100,0.0,2.2,36,0.00,,,0.00,VWS V14.01,2013-05-10 14:00:00,
2013-05-10 10:01:00,77.5,48.4,29.88,East,100,0.0,2.2,36,0.00,,,0.00,VWS V14.01,2013-05-10 14:01:00,
2013-05-10 10:02:00,77.5,48.4,29.88,East,100,0.0,0.0,36,0.00,,,0.00,VWS V14.01,2013-05-10 14:02:00,
2013-05-10 10:03:00,77.8,48.8,29.88,East,100,0.0,0.0,36,0.00,,,0.00,VWS V14.01,2013-05-10 14:03:00,
2013-05-10 10:04:00,78.0,48.9,29.88,East,100,0.0,0.0,36,0.00,,,0.00,VWS V14.01,2013-05-10 14:04:00,
2013-05-10 10:05:00,78.2,48.3,29.88,East,100,0.0,0.0,35,0.00,,,0.00,VWS V14.01,2013-05-10 14:05:00,
2013-05-10 10:06:00,78.2,48.3,29.88,East,100,0.0,0.0,35,0.00,,,0.00,VWS V14.01,2013-05-10 14:06:00,
2013-05-10 10:07:00,78.2,48.3,29.88,East,100,0.0,0.0,35,0.00,,,0.00,VWS V14.01,2013-05-10 14:07:00,
2013-05-10 10:08:00,78.2,48.3,29.88,East,100,0.0,0.0,35,0.00,,,0.00,VWS V14.01,2013-05-10 14:08:00,
2013-05-10 10:09:00,78.2,48.3,29.88,NNW,333,0.0,0.0,35,0.00,,,0.00,VWS V14.01,2013-05-10 14:09:00,
2013-05-10 10:10:00,78.2,48.3,29.88,NNW,333,0.0,0.0,35,0.00,,,0.00,VWS V14.01,2013-05-10 14:10:00,
2013-05-10 10:11:00,78.0,48.2,29.88,NNW,333,0.0,0.0,35,0.00,,,0.00,VWS V14.01,2013-05-10 14:11:00,
2013-05-10 10:12:00,77.8,48.0,29.88,NNW,333,0.0,0.0,35,0.00,,,0.00,VWS V14.01,2013-05-10 14:12:00,
2013-05-10 10:13:00,77.8,48.0,29.88,NNW,333,0.0,0.0,35,0.00,,,0.00,VWS V14.01,2013-05-10 14:13:00,
2013-05-10 10:14:00,77.6,47.8,29.88,NW,325,2.2,4.9,35,0.00,,,0.00,VWS V14.01,2013-05-10 14:14:00,
2013-05-10 10:15:00,77.3,47.5,29.88,NW,325,0.0,0.0,35,0.00,,,0.00,VWS V14.01,2013-05-10 14:15:00,
2013-05-10 10:16:00,77.1,47.4,29.88,NW,325,2.7,2.7,35,0.00,,,0.00,VWS V14.01,2013-05-10 14:16:00,
2013-05-10 10:17:00,76.9,47.2,29.88,NW,326,2.2,2.7,35,0.00,,,0.00,VWS V14.01,2013-05-10 14:17:00,
2013-05-10 10:18:00,76.9,47.2,29.88,NW,326,4.0,4.0,35,0.00,,,0.00,VWS V14.01,2013-05-10 14:18:00,
2013-05-10 10:19:00,76.7,47.0,29.88,North,8,2.7,4.0,35,0.00,,,0.00,VWS V14.01,2013-05-10 14:19:00,
2013-05-10 10:20:00,76.4,46.7,29.88,North,8,0.0,0.0,35,0.00,,,0.00,VWS V14.01,2013-05-10 14:20:00,
2013-05-10 10:21:00,76.2,46.6,29.88,North,8,0.0,0.0,35,0.00,,,0.00,VWS V14.01,2013-05-10 14:21:00,
2013-05-10 10:22:00,76.2,46.6,29.88,North,8,0.0,0.0,35,0.00,,,0.00,VWS V14.01,2013-05-10 14:22:00,
2013-05-10 10:23:00,76.4,47.5,29.88,WSW,239,4.0,4.0,36,0.00,,,0.00,VWS V14.01,2013-05-10 14:23:00,
2013-05-10 10:24:00,76.6,46.9,29.88,WSW,239,2.2,4.0,35,0.00,,,0.00,VWS V14.01,2013-05-10 14:24:00,
2013-05-10 10:25:00,76.7,47.0,29.88,WNW,285,0.0,0.0,35,0.00,,,0.00,VWS V14.01,2013-05-10 14:25:00,
2013-05-10 10:26:00,76.9,47.2,29.88,SW,232,3.6,3.6,35,0.00,,,0.00,VWS V14.01,2013-05-10 14:26:00,
2013-05-10 10:27:00,77.3,47.5,29.88,SSE,147,3.6,3.6,35,0.00,,,0.00,VWS V14.01,2013-05-10 14:27:00,
2013-05-10 10:28:00,77.3,47.5,29.88,SE,146,2.2,3.6,35,0.00,,,0.00,VWS V14.01,2013-05-10 14:28:00,
2013-05-10 10:29:00,77.3,47.5,29.88,South,184,0.0,2.2,35,0.00,,,0.00,VWS V14.01,2013-05-10 14:29:00,
2013-05-10 10:30:00,77.5,47.7,29.88,South,182,0.0,0.0,35,0.00,,,0.00,VWS V14.01,2013-05-10 14:30:00,
2013-05-10 10:31:00,77.6,47.8,29.88,South,182,0.0,0.0,35,0.00,,,0.00,VWS V14.01,2013-05-10 14:31:00,
2013-05-10 10:32:00,78.0,47.4,29.88,NW,318,4.9,4.9,34,0.00,,,0.00,VWS V14.01,2013-05-10 14:32:00,
2013-05-10 10:33:00,78.0,47.4,29.88,NNW,331,2.2,5.8,34,0.00,,,0.00,VWS V14.01,2013-05-10 14:33:00,
2013-05-10 10:34:00,78.0,47.4,29.88,NNE,19,0.0,2.2,34,0.00,,,0.00,VWS V14.01,2013-05-10 14:34:00,
2013-05-10 10:35:00,78.0,47.4,29.88,NNE,19,2.7,2.7,34,0.00,,,0.00,VWS V14.01,2013-05-10 14:35:00,
2013-05-10 10:36:00,78.0,46.6,29.88,NNE,19,0.0,2.7,33,0.00,,,0.00,VWS V14.01,2013-05-10 14:36:00,
2013-05-10 10:37:00,78.0,46.6,29.88,NNW,328,0.0,0.0,33,0.00,,,0.00,VWS V14.01,2013-05-10 14:37:00,
2013-05-10 10:38:00,78.2,47.5,29.88,NW,324,0.0,2.7,34,0.00,,,0.00,VWS V14.01,2013-05-10 14:38:00,
2013-05-10 10:39:00,78.2,47.5,29.88,NNW,337,0.0,5.4,34,0.00,,,0.00,VWS V14.01,2013-05-10 14:39:00,
2013-05-10 10:40:00,78.2,47.5,29.88,NNW,337,0.0,0.0,34,0.00,,,0.00,VWS V14.01,2013-05-10 14:40:00,
2013-05-10 10:41:00,78.2,47.5,29.88,NNW,337,0.0,0.0,34,0.00,,,0.00,VWS V14.01,2013-05-10 14:41:00,
2013-05-10 10:42:00,78.2,47.5,29.88,NNW,338,0.0,0.0,34,0.00,,,0.00,VWS V14.01,2013-05-10 14:42:00,
2013-05-10 10:43:00,78.4,47.7,29.88,NNW,328,0.0,0.0,34,0.00,,,0.00,VWS V14.01,2013-05-10 14:43:00,
2013-05-10 10:44:00,78.5,47.9,29.88,NNW,328,0.0,0.0,34,0.00,,,0.00,VWS V14.01,2013-05-10 14:44:00,
2013-05-10 10:45:00,79.1,48.3,29.88,NNW,328,0.0,0.0,34,0.00,,,0.00,VWS V14.01,2013-05-10 14:45:00,
2013-05-10 10:46:00,79.3,48.5,29.88,NNW,328,0.0,0.0,34,0.00,,,0.00,VWS V14.01,2013-05-10 14:46:00,
2013-05-10 10:47:00,79.4,47.0,29.88,NNW,327,2.2,2.2,32,0.00,,,0.00,VWS V14.01,2013-05-10 14:47:00,
2013-05-10 10:48:00,79.8,47.3,29.88,SSE,164,4.0,4.0,32,0.00,,,0.00,VWS V14.01,2013-05-10 14:48:00,
2013-05-10 10:49:00,80.0,45.8,29.88,SSE,155,4.9,4.9,30,0.00,,,0.00,VWS V14.01,2013-05-10 14:49:00,
2013-05-10 10:50:00,79.8,45.6,29.88,SE,130,2.7,2.7,30,0.00,,,0.00,VWS V14.01,2013-05-10 14:50:00,
2013-05-10 10:51:00,79.8,45.6,29.88,SE,130,2.2,2.7,30,0.00,,,0.00,VWS V14.01,2013-05-10 14:51:00,
2013-05-10 10:52:00,79.8,46.5,29.88,South,170,5.4,5.4,31,0.00,,,0.00,VWS V14.01,2013-05-10 14:52:00,
2013-05-10 10:53:00,79.6,45.5,29.88,SSE,156,2.7,5.4,30,0.00,,,0.00,VWS V14.01,2013-05-10 14:53:00,
2013-05-10 10:54:00,79.6,45.5,29.88,SSE,156,0.0,3.1,30,0.00,,,0.00,VWS V14.01,2013-05-10 14:54:00,
2013-05-10 10:55:00,79.6,45.5,29.88,SSE,161,0.0,0.0,30,0.00,,,0.00,VWS V14.01,2013-05-10 14:55:00,
2013-05-10 10:56:00,79.6,45.5,29.88,SSE,163,0.0,0.0,30,0.00,,,0.00,VWS V14.01,2013-05-10 14:56:00,
2013-05-10 10:57:00,79.6,45.5,29.88,SSE,163,0.0,0.0,30,0.00,,,0.00,VWS V14.01,2013-05-10 14:57:00,
2013-05-10 10:58:00,79.8,45.6,29.88,SW,223,0.0,0.0,30,0.00,,,0.00,VWS V14.01,2013-05-10 14:58:00,
2013-05-10 10:59:00,80.0,45.8,29.88,SSW,212,0.0,0.0,30,0.00,,,0.00,VWS V14.01,2013-05-10 14:59:00,
2013-05-10 11:00:00,80.3,46.1,29.88,SW,221,0.0,0.0,30,0.00,,,0.00,VWS V14.01,2013-05-10 15:00:00,
2013-05-10 11:01:00,80.3,46.1,29.88,SW,221,0.0,0.0,30,0.00,,,0.00,VWS V14.01,2013-05-10 15:01:00,
2013-05-10 11:02:00,80.5,46.3,29.88,SW,222,0.0,0.0,30,0.00,,,0.00,VWS V14.01,2013-05-10 15:02:00,
2013-05-10 11:03:00,80.9,45.7,29.88,SW,223,2.7,3.1,29,0.00,,,0.00,VWS V14.01,2013-05-10 15:03:00,
2013-05-10 11:04:00,80.9,45.7,29.88,SW,223,2.7,2.7,29,0.00,,,0.00,VWS V14.01,2013-05-10 15:04:00,
2013-05-10 11:05:00,80.9,45.7,29.88,SW,224,0.0,0.0,29,0.00,,,0.00,VWS V14.01,2013-05-10 15:05:00,
2013-05-10 11:06:00,80.9,45.7,29.88,SW,224,0.0,0.0,29,0.00,,,0.00,VWS V14.01,2013-05-10 15:06:00,
2013-05-10 11:07:00,80.9,44.8,29.88,NNE,14,0.0,0.0,28,0.00,,,0.00,VWS V14.01,2013-05-10 15:07:00,
2013-05-10 11:08:00,80.9,45.7,29.88,SW,233,3.1,3.1,29,0.00,,,0.00,VWS V14.01,2013-05-10 15:08:00,
2013-05-10 11:09:00,80.9,45.7,29.88,SW,224,0.0,3.1,29,0.00,,,0.00,VWS V14.01,2013-05-10 15:09:00,
2013-05-10 11:10:00,81.1,44.9,29.88,South,176,3.6,3.6,28,0.00,,,0.00,VWS V14.01,2013-05-10 15:10:00,
2013-05-10 11:11:00,81.1,44.9,29.88,SE,144,3.6,3.6,28,0.00,,,0.00,VWS V14.01,2013-05-10 15:11:00,
2013-05-10 11:12:00,81.1,44.9,29.88,SSE,158,3.6,4.9,28,0.00,,,0.00,VWS V14.01,2013-05-10 15:12:00,
2013-05-10 11:13:00,80.9,44.8,29.88,SSE,158,0.0,3.6,28,0.00,,,0.00,VWS V14.01,2013-05-10 15:13:00,
2013-05-10 11:14:00,81.1,44.9,29.88,SSE,158,0.0,0.0,28,0.00,,,0.00,VWS V14.01,2013-05-10 15:14:00,
2013-05-10 11:15:00,81.1,45.8,29.88,WNW,293,0.0,2.7,29,0.00,,,0.00,VWS V14.01,2013-05-10 15:15:00,
2013-05-10 11:16:00,81.1,45.8,29.88,WNW,293,0.0,2.7,29,0.00,,,0.00,VWS V14.01,2013-05-10 15:16:00,
2013-05-10 11:17:00,81.1,45.8,29.88,WNW,284,4.5,4.5,29,0.00,,,0.00,VWS V14.01,2013-05-10 15:17:00,
2013-05-10 11:18:00,81.2,46.0,29.88,West,268,0.0,4.5,29,0.00,,,0.00,VWS V14.01,2013-05-10 15:18:00,
2013-05-10 11:19:00,81.2,46.0,29.88,NNW,332,0.0,0.0,29,0.00,,,0.00,VWS V14.01,2013-05-10 15:19:00,
2013-05-10 11:20:00,81.2,46.0,29.88,NNW,331,0.0,0.0,29,0.00,,,0.00,VWS V14.01,2013-05-10 15:20:00,
2013-05-10 11:21:00,81.2,46.0,29.88,NNW,331,0.0,0.0,29,0.00,,,0.00,VWS V14.01,2013-05-10 15:21:00,
2013-05-10 11:22:00,81.1,45.8,29.88,NNW,331,0.0,0.0,29,0.00,,,0.00,VWS V14.01,2013-05-10 15:22:00,
2013-05-10 11:23:00,81.1,45.8,29.88,NNW,331,0.0,0.0,29,0.00,,,0.00,VWS V14.01,2013-05-10 15:23:00,
2013-05-10 11:24:00,81.1,45.8,29.88,NNW,331,0.0,0.0,29,0.00,,,0.00,VWS V14.01,2013-05-10 15:24:00,
2013-05-10 11:25:00,81.2,46.0,29.88,NNW,331,0.0,0.0,29,0.00,,,0.00,VWS V14.01,2013-05-10 15:25:00,
2013-05-10 11:26:00,81.4,46.1,29.88,South,190,4.9,4.9,29,0.00,,,0.00,VWS V14.01,2013-05-10 15:26:00,
2013-05-10 11:27:00,81.4,45.2,29.88,SSE,150,4.0,4.9,28,0.00,,,0.00,VWS V14.01,2013-05-10 15:27:00,
2013-05-10 11:28:00,81.4,44.3,29.88,SW,236,2.2,6.3,27,0.00,,,0.00,VWS V14.01,2013-05-10 15:28:00,
2013-05-10 11:29:00,81.6,44.4,29.88,SW,236,0.0,2.7,27,0.00,,,0.00,VWS V14.01,2013-05-10 15:29:00,
2013-05-10 11:30:00,81.8,44.6,29.88,WNW,294,0.0,0.0,27,0.00,,,0.00,VWS V14.01,2013-05-10 15:30:00,
2013-05-10 11:31:00,82.0,44.7,29.88,WNW,294,0.0,0.0,27,0.00,,,0.00,VWS V14.01,2013-05-10 15:31:00,
2013-05-10 11:32:00,82.0,44.7,29.88,WNW,294,0.0,0.0,27,0.00,,,0.00,VWS V14.01,2013-05-10 15:32:00,
2013-05-10 11:33:00,82.1,44.9,29.88,WNW,294,0.0,0.0,27,0.00,,,0.00,VWS V14.01,2013-05-10 15:33:00,
2013-05-10 11:34:00,82.1,44.9,29.88,SSE,148,0.0,0.0,27,0.00,,,0.00,VWS V14.01,2013-05-10 15:34:00,
2013-05-10 11:35:00,82.5,45.2,29.88,WSW,256,3.6,3.6,27,0.00,,,0.00,VWS V14.01,2013-05-10 15:35:00,
2013-05-10 11:36:00,82.5,45.2,29.88,WSW,256,2.2,3.6,27,0.00,,,0.00,VWS V14.01,2013-05-10 15:36:00,
2013-05-10 11:37:00,82.7,44.3,29.88,South,183,0.0,2.2,26,0.00,,,0.00,VWS V14.01,2013-05-10 15:37:00,
2013-05-10 11:38:00,82.7,44.3,29.88,South,183,0.0,0.0,26,0.00,,,0.00,VWS V14.01,2013-05-10 15:38:00,
2013-05-10 11:39:00,82.9,44.5,29.88,South,183,0.0,0.0,26,0.00,,,0.00,VWS V14.01,2013-05-10 15:39:00,
2013-05-10 11:40:00,83.0,44.7,29.88,SW,234,2.7,2.7,26,0.00,,,0.00,VWS V14.01,2013-05-10 15:40:00,
2013-05-10 11:41:00,83.0,44.7,29.88,SW,234,3.1,3.1,26,0.00,,,0.00,VWS V14.01,2013-05-10 15:41:00,
2013-05-10 11:42:00,83.2,44.8,29.88,SW,233,2.2,4.5,26,0.00,,,0.00,VWS V14.01,2013-05-10 15:42:00,
2013-05-10 11:43:00,83.4,43.9,29.88,SW,230,4.0,4.0,25,0.00,,,0.00,VWS V14.01,2013-05-10 15:43:00,
2013-05-10 11:44:00,83.4,43.9,29.88,WSW,237,0.0,4.0,25,0.00,,,0.00,VWS V14.01,2013-05-10 15:44:00,
2013-05-10 11:45:00,83.6,44.1,29.88,WSW,237,0.0,0.0,25,0.00,,,0.00,VWS V14.01,2013-05-10 15:45:00,
2013-05-10 11:46:00,83.6,44.1,29.88,WSW,237,2.2,3.1,25,0.00,,,0.00,VWS V14.01,2013-05-10 15:46:00,
2013-05-10 11:47:00,83.8,44.2,29.88,WSW,237,3.6,3.6,25,0.00,,,0.00,VWS V14.01,2013-05-10 15:47:00,
2013-05-10 11:48:00,83.9,44.4,29.88,SW,223,2.7,3.6,25,0.00,,,0.00,VWS V14.01,2013-05-10 15:48:00,
2013-05-10 11:49:00,84.1,44.5,29.88,SSE,159,3.6,3.6,25,0.00,,,0.00,VWS V14.01,2013-05-10 15:49:00,
2013-05-10 11:50:00,84.3,44.7,29.88,SW,234,2.2,3.6,25,0.00,,,0.00,VWS V14.01,2013-05-10 15:50:00,
2013-05-10 11:51:00,84.3,44.7,29.88,SW,233,4.0,5.4,25,0.00,,,0.00,VWS V14.01,2013-05-10 15:51:00,
2013-05-10 11:52:00,84.3,44.7,29.88,SW,232,0.0,5.4,25,0.00,,,0.00,VWS V14.01,2013-05-10 15:52:00,
2013-05-10 11:53:00,84.5,44.8,29.88,WSW,257,0.0,2.7,25,0.00,,,0.00,VWS V14.01,2013-05-10 15:53:00,
2013-05-10 11:54:00,84.5,44.8,29.88,SSW,196,2.7,2.7,25,0.00,,,0.00,VWS V14.01,2013-05-10 15:54:00,
2013-05-10 11:55:00,84.7,45.0,29.88,SSW,198,2.7,2.7,25,0.00,,,0.00,VWS V14.01,2013-05-10 15:55:00,
2013-05-10 11:56:00,84.7,45.0,29.88,WSW,250,3.1,4.9,25,0.00,,,0.00,VWS V14.01,2013-05-10 15:56:00,
2013-05-10 11:57:00,84.8,45.1,29.88,SW,225,0.0,3.1,25,0.00,,,0.00,VWS V14.01,2013-05-10 15:57:00,
2013-05-10 11:58:00,85.0,45.3,29.88,WSW,241,3.6,3.6,25,0.00,,,0.00,VWS V14.01,2013-05-10 15:58:00,
2013-05-10 11:59:00,85.2,44.4,29.88,WSW,241,0.0,3.6,24,0.00,,,0.00,VWS V14.01,2013-05-10 15:59:00,
2013-05-10 12:00:00,85.2,44.4,29.88,SSW,213,2.7,4.0,24,0.00,,,0.00,VWS V14.01,2013-05-10 16:00:00,
2013-05-10 12:01:00,85.4,44.5,29.88,SW,226,0.0,3.1,24,0.00,,,0.00,VWS V14.01,2013-05-10 16:01:00,
2013-05-10 12:02:00,85.4,44.5,29.88,SW,225,5.4,5.4,24,0.00,,,0.00,VWS V14.01,2013-05-10 16:02:00,
2013-05-10 12:03:00,85.4,44.5,29.88,SW,225,0.0,5.4,24,0.00,,,0.00,VWS V14.01,2013-05-10 16:03:00,
2013-05-10 12:04:00,85.4,44.5,29.88,SW,225,0.0,0.0,24,0.00,,,0.00,VWS V14.01,2013-05-10 16:04:00,
2013-05-10 12:05:00,85.4,44.5,29.88,South,180,3.1,3.6,24,0.00,,,0.00,VWS V14.01,2013-05-10 16:05:00,
2013-05-10 12:06:00,85.4,44.5,29.88,NNW,336,4.0,4.0,24,0.00,,,0.00,VWS V14.01,2013-05-10 16:06:00,
2013-05-10 12:07:00,85.2,44.4,29.88,NW,324,2.7,5.4,24,0.00,,,0.00,VWS V14.01,2013-05-10 16:07:00,
2013-05-10 12:08:00,84.8,44.1,29.88,NW,324,3.6,3.6,24,0.00,,,0.00,VWS V14.01,2013-05-10 16:08:00,
2013-05-10 12:09:00,84.7,43.9,29.88,NW,324,2.7,3.6,24,0.00,,,0.00,VWS V14.01,2013-05-10 16:09:00,
2013-05-10 12:10:00,84.1,43.5,29.88,NNW,327,4.9,5.4,24,0.00,,,0.00,VWS V14.01,2013-05-10 16:10:00,
2013-05-10 12:11:00,83.6,43.0,29.88,NW,322,0.0,4.9,24,0.00,,,0.00,VWS V14.01,2013-05-10 16:11:00,
2013-05-10 12:12:00,83.4,43.9,29.88,SW,222,3.1,5.8,25,0.00,,,0.00,VWS V14.01,2013-05-10 16:12:00,
2013-05-10 12:13:00,83.2,43.8,29.88,WSW,242,4.0,4.0,25,0.00,,,0.00,VWS V14.01,2013-05-10 16:13:00,
2013-05-10 12:14:00,83.0,43.6,29.88,SSW,208,4.9,4.9,25,0.00,,,0.00,VWS V14.01,2013-05-10 16:14:00,
2013-05-10 12:15:00,83.2,43.8,29.88,West,278,3.1,4.9,25,0.00,,,0.00,VWS V14.01,2013-05-10 16:15:00,
2013-05-10 12:16:00,83.2,43.8,29.88,NW,313,0.0,3.1,25,0.00,,,0.00,VWS V14.01,2013-05-10 16:16:00,
2013-05-10 12:17:00,83.2,43.8,29.88,NW,314,2.7,5.8,25,0.00,,,0.00,VWS V14.01,2013-05-10 16:17:00,
2013-05-10 12:18:00,83.4,43.9,29.88,NNW,332,3.6,4.0,25,0.00,,,0.00,VWS V14.01,2013-05-10 16:18:00,
2013-05-10 12:19:00,83.2,43.8,29.88,West,267,2.2,5.8,25,0.00,,,0.00,VWS V14.01,2013-05-10 16:19:00,
2013-05-10 12:20:00,83.0,43.6,29.88,WSW,237,3.6,4.0,25,0.00,,,0.00,VWS V14.01,2013-05-10 16:20:00,
2013-05-10 12:21:00,83.0,43.6,29.88,NNW,334,3.1,3.1,25,0.00,,,0.00,VWS V14.01,2013-05-10 16:21:00,
2013-05-10 12:22:00,82.9,42.4,29.88,NNW,331,0.0,4.9,24,0.00,,,0.00,VWS V14.01,2013-05-10 16:22:00,
2013-05-10 12:23:00,82.9,42.4,29.88,NNW,327,3.6,3.6,24,0.00,,,0.00,VWS V14.01,2013-05-10 16:23:00,
2013-05-10 12:24:00,82.7,42.3,29.88,NNW,328,0.0,3.6,24,0.00,,,0.00,VWS V14.01,2013-05-10 16:24:00,
2013-05-10 12:25:00,82.7,42.3,29.88,NNW,328,0.0,0.0,24,0.00,,,0.00,VWS V14.01,2013-05-10 16:25:00,
2013-05-10 12:26:00,82.5,42.1,29.88,North,357,3.6,3.6,24,0.00,,,0.00,VWS V14.01,2013-05-10 16:26:00,
2013-05-10 12:27:00,82.5,43.2,29.88,WNW,295,4.9,6.3,25,0.00,,,0.00,VWS V14.01,2013-05-10 16:27:00,
2013-05-10 12:28:00,82.5,43.2,29.88,North,349,3.6,5.4,25,0.00,,,0.00,VWS V14.01,2013-05-10 16:28:00,
2013-05-10 12:29:00,82.3,42.0,29.88,NW,310,4.0,4.0,24,0.00,,,0.00,VWS V14.01,2013-05-10 16:29:00,
2013-05-10 12:30:00,82.1,41.8,29.88,NNW,343,2.7,4.0,24,0.00,,,0.00,VWS V14.01,2013-05-10 16:30:00,
2013-05-10 12:31:00,82.0,41.7,29.88,NNW,342,2.7,2.7,24,0.00,,,0.00,VWS V14.01,2013-05-10 16:31:00,
2013-05-10 12:32:00,81.8,42.6,29.88,NNW,342,3.1,3.1,25,0.00,,,0.00,VWS V14.01,2013-05-10 16:32:00,
2013-05-10 12:33:00,81.6,42.4,29.88,NW,311,3.1,3.1,25,0.00,,,0.00,VWS V14.01,2013-05-10 16:33:00,
2013-05-10 12:34:00,81.6,42.4,29.88,NW,311,2.7,3.1,25,0.00,,,0.00,VWS V14.01,2013-05-10 16:34:00,
2013-05-10 12:35:00,81.4,42.3,29.88,NW,306,3.1,3.6,25,0.00,,,0.00,VWS V14.01,2013-05-10 16:35:00,
2013-05-10 12:36:00,81.4,42.3,29.88,SE,138,3.6,3.6,25,0.00,,,0.00,VWS V14.01,2013-05-10 16:36:00,
2013-05-10 12:37:00,81.6,41.3,29.85,SSE,166,5.4,6.7,24,0.00,,,0.00,VWS V14.01,2013-05-10 16:37:00,
2013-05-10 12:38:00,81.6,42.4,29.85,SW,219,2.7,5.4,25,0.00,,,0.00,VWS V14.01,2013-05-10 16:38:00,
2013-05-10 12:39:00,81.8,42.6,29.85,West,262,2.7,4.0,25,0.00,,,0.00,VWS V14.01,2013-05-10 16:39:00,
2013-05-10 12:40:00,81.8,42.6,29.85,West,266,4.0,4.9,25,0.00,,,0.00,VWS V14.01,2013-05-10 16:40:00,
2013-05-10 12:41:00,82.0,42.7,29.85,NW,305,2.2,4.0,25,0.00,,,0.00,VWS V14.01,2013-05-10 16:41:00,
2013-05-10 12:42:00,82.1,42.9,29.85,NW,305,0.0,4.0,25,0.00,,,0.00,VWS V14.01,2013-05-10 16:42:00,
2013-05-10 12:43:00,82.1,42.9,29.85,NW,317,0.0,0.0,25,0.00,,,0.00,VWS V14.01,2013-05-10 16:43:00,
2013-05-10 12:44:00,82.1,42.9,29.85,North,0,4.0,4.5,25,0.00,,,0.00,VWS V14.01,2013-05-10 16:44:00,
2013-05-10 12:45:00,82.1,42.9,29.85,NNW,338,2.7,5.8,25,0.00,,,0.00,VWS V14.01,2013-05-10 16:45:00,
2013-05-10 12:46:00,82.1,42.9,29.85,NW,316,0.0,3.1,25,0.00,,,0.00,VWS V14.01,2013-05-10 16:46:00,
2013-05-10 12:47:00,82.1,42.9,29.85,WSW,237,2.7,4.0,25,0.00,,,0.00,VWS V14.01,2013-05-10 16:47:00,
2013-05-10 12:48:00,82.0,42.7,29.85,NNW,345,4.0,4.0,25,0.00,,,0.00,VWS V14.01,2013-05-10 16:48:00,
2013-05-10 12:49:00,82.0,42.7,29.85,NW,317,2.7,4.0,25,0.00,,,0.00,VWS V14.01,2013-05-10 16:49:00,
2013-05-10 12:50:00,82.0,42.7,29.85,WNW,294,2.7,3.6,25,0.00,,,0.00,VWS V14.01,2013-05-10 16:50:00,
2013-05-10 12:51:00,82.0,42.7,29.85,WNW,294,0.0,2.2,25,0.00,,,0.00,VWS V14.01,2013-05-10 16:51:00,
2013-05-10 12:52:00,82.0,42.7,29.85,WNW,297,0.0,2.2,25,0.00,,,0.00,VWS V14.01,2013-05-10 16:52:00,
2013-05-10 12:53:00,82.0,42.7,29.85,WNW,297,4.0,4.0,25,0.00,,,0.00,VWS V14.01,2013-05-10 16:53:00,
2013-05-10 12:54:00,82.0,42.7,29.85,NNW,334,2.7,4.0,25,0.00,,,0.00,VWS V14.01,2013-05-10 16:54:00,
2013-05-10 12:55:00,82.1,42.9,29.85,NNW,340,0.0,5.8,25,0.00,,,0.00,VWS V14.01,2013-05-10 16:55:00,
2013-05-10 12:56:00,82.1,42.9,29.85,NNW,340,0.0,0.0,25,0.00,,,0.00,VWS V14.01,2013-05-10 16:56:00,
2013-05-10 12:57:00,82.1,42.9,29.85,NNW,340,0.0,0.0,25,0.00,,,0.00,VWS V14.01,2013-05-10 16:57:00,
2013-05-10 12:58:00,82.3,43.0,29.85,NNW,340,0.0,0.0,25,0.00,,,0.00,VWS V14.01,2013-05-10 16:58:00,
2013-05-10 12:59:00,82.5,43.2,29.85,West,281,4.0,4.0,25,0.00,,,0.00,VWS V14.01,2013-05-10 16:59:00,
2013-05-10 13:00:00,82.9,43.5,29.85,NNW,342,2.7,4.0,25,0.00,,,0.00,VWS V14.01,2013-05-10 17:00:00,
2013-05-10 13:01:00,83.2,42.7,29.85,NW,316,0.0,0.0,24,0.00,,,0.00,VWS V14.01,2013-05-10 17:01:00,
2013-05-10 13:02:00,83.4,42.9,29.85,NW,316,0.0,0.0,24,0.00,,,0.00,VWS V14.01,2013-05-10 17:02:00,
2013-05-10 13:03:00,83.6,43.0,29.85,NW,316,0.0,0.0,24,0.00,,,0.00,VWS V14.01,2013-05-10 17:03:00,
2013-05-10 13:04:00,83.8,43.2,29.85,NW,316,0.0,0.0,24,0.00,,,0.00,VWS V14.01,2013-05-10 17:04:00,
2013-05-10 13:05:00,83.9,43.3,29.85,NW,315,0.0,0.0,24,0.00,,,0.00,VWS V14.01,2013-05-10 17:05:00,
2013-05-10 13:06:00,84.1,43.5,29.85,WNW,290,3.6,4.0,24,0.00,,,0.00,VWS V14.01,2013-05-10 17:06:00,
2013-05-10 13:07:00,84.1,43.5,29.85,WNW,290,0.0,4.0,24,0.00,,,0.00,VWS V14.01,2013-05-10 17:07:00,
2013-05-10 13:08:00,84.3,43.6,29.85,SSW,200,3.6,3.6,24,0.00,,,0.00,VWS V14.01,2013-05-10 17:08:00,
2013-05-10 13:09:00,84.1,43.5,29.85,WSW,247,2.2,4.0,24,0.00,,,0.00,VWS V14.01,2013-05-10 17:09:00,
2013-05-10 13:10:00,84.1,43.5,29.85,WNW,297,3.1,3.1,24,0.00,,,0.00,VWS V14.01,2013-05-10 17:10:00,
2013-05-10 13:11:00,84.1,42.4,29.85,NNW,348,0.0,0.0,23,0.00,,,0.00,VWS V14.01,2013-05-10 17:11:00,
2013-05-10 13:12:00,84.1,42.4,29.85,NNW,346,0.0,0.0,23,0.00,,,0.00,VWS V14.01,2013-05-10 17:12:00,
2013-05-10 13:13:00,84.1,43.5,29.85,NW,319,0.0,3.1,24,0.00,,,0.00,VWS V14.01,2013-05-10 17:13:00,
2013-05-10 13:14:00,84.1,43.5,29.85,NNW,338,5.4,5.4,24,0.00,,,0.00,VWS V14.01,2013-05-10 17:14:00,
2013-05-10 13:15:00,84.1,43.5,29.85,NW,309,5.4,6.3,24,0.00,,,0.00,VWS V14.01,2013-05-10 17:15:00,
2013-05-10 13:16:00,83.8,43.2,29.85,WSW,252,3.1,3.1,24,0.00,,,0.00,VWS V14.01,2013-05-10 17:16:00,
2013-05-10 13:17:00,83.8,43.2,29.85,WSW,258,3.6,3.6,24,0.00,,,0.00,VWS V14.01,2013-05-10 17:17:00,
2013-05-10 13:18:00,83.6,43.0,29.85,NNW,337,0.0,3.6,24,0.00,,,0.00,VWS V14.01,2013-05-10 17:18:00,
2013-05-10 13:19:00,83.6,41.9,29.85,SSW,195,2.7,3.6,23,0.00,,,0.00,VWS V14.01,2013-05-10 17:19:00,
2013-05-10 13:20:00,83.8,43.2,29.85,WSW,256,0.0,3.6,24,0.00,,,0.00,VWS V14.01,2013-05-10 17:20:00,
2013-05-10 13:21:00,83.9,43.3,29.85,SSW,210,2.7,5.4,24,0.00,,,0.00,VWS V14.01,2013-05-10 17:21:00,
2013-05-10 13:22:00,83.9,43.3,29.85,NW,314,6.3,6.3,24,0.00,,,0.00,VWS V14.01,2013-05-10 17:22:00,
2013-05-10 13:23:00,84.1,43.5,29.85,NW,320,4.0,12.3,24,0.00,,,0.00,VWS V14.01,2013-05-10 17:23:00,
2013-05-10 13:24:00,84.1,43.5,29.85,West,277,5.4,7.6,24,0.00,,,0.00,VWS V14.01,2013-05-10 17:24:00,
2013-05-10 13:25:00,84.1,43.5,29.85,NW,319,3.6,5.4,24,0.00,,,0.00,VWS V14.01,2013-05-10 17:25:00,
2013-05-10 13:26:00,83.8,43.2,29.85,NW,308,3.1,3.1,24,0.00,,,0.00,VWS V14.01,2013-05-10 17:26:00,
2013-05-10 13:27:00,83.6,43.0,29.85,WNW,296,3.1,3.1,24,0.00,,,0.00,VWS V14.01,2013-05-10 17:27:00,
2013-05-10 13:28:00,83.4,42.9,29.85,NW,306,3.1,4.0,24,0.00,,,0.00,VWS V14.01,2013-05-10 17:28:00,
2013-05-10 13:29:00,83.4,42.9,29.85,NW,305,0.0,3.1,24,0.00,,,0.00,VWS V14.01,2013-05-10 17:29:00,
2013-05-10 13:30:00,83.4,42.9,29.85,NNW,331,3.1,3.1,24,0.00,,,0.00,VWS V14.01,2013-05-10 17:30:00,
2013-05-10 13:31:00,83.2,42.7,29.85,NW,325,3.1,4.0,24,0.00,,,0.00,VWS V14.01,2013-05-10 17:31:00,
2013-05-10 13:32:00,83.2,42.7,29.85,NW,320,3.1,4.0,24,0.00,,,0.00,VWS V14.01,2013-05-10 17:32:00,
2013-05-10 13:33:00,83.2,42.7,29.85,SSE,150,3.1,3.1,24,0.00,,,0.00,VWS V14.01,2013-05-10 17:33:00,
2013-05-10 13:34:00,83.2,42.7,29.85,SSE,150,0.0,3.6,24,0.00,,,0.00,VWS V14.01,2013-05-10 17:34:00,
2013-05-10 13:35:00,83.2,42.7,29.85,SSE,151,0.0,0.0,24,0.00,,,0.00,VWS V14.01,2013-05-10 17:35:00,
2013-05-10 13:36:00,83.4,41.8,29.85,SSE,153,0.0,4.0,23,0.00,,,0.00,VWS V14.01,2013-05-10 17:36:00,
2013-05-10 13:37:00,83.4,41.8,29.85,SSE,153,0.0,4.0,23,0.00,,,0.00,VWS V14.01,2013-05-10 17:37:00,
2013-05-10 13:38:00,83.6,43.0,29.85,SSE,153,0.0,0.0,24,0.00,,,0.00,VWS V14.01,2013-05-10 17:38:00,
2013-05-10 13:39:00,83.8,43.2,29.85,WSW,247,0.0,0.0,24,0.00,,,0.00,VWS V14.01,2013-05-10 17:39:00,
2013-05-10 13:40:00,83.9,43.3,29.85,NNW,328,2.2,2.2,24,0.00,,,0.00,VWS V14.01,2013-05-10 17:40:00,
2013-05-10 13:41:00,84.3,43.6,29.85,South,183,0.0,0.0,24,0.00,,,0.00,VWS V14.01,2013-05-10 17:41:00,
2013-05-10 13:42:00,84.3,43.6,29.85,SSE,164,0.0,0.0,24,0.00,,,0.00,VWS V14.01,2013-05-10 17:42:00,
2013-05-10 13:43:00,84.5,43.8,29.85,South,179,0.0,3.6,24,0.00,,,0.00,VWS V14.01,2013-05-10 17:43:00,
2013-05-10 13:44:00,84.7,43.9,29.85,South,179,0.0,2.7,24,0.00,,,0.00,VWS V14.01,2013-05-10 17:44:00,
2013-05-10 13:45:00,84.8,44.1,29.85,South,179,0.0,0.0,24,0.00,,,0.00,VWS V14.01,2013-05-10 17:45:00,
2013-05-10 13:46:00,85.2,43.3,29.85,South,179,0.0,0.0,23,0.00,,,0.00,VWS V14.01,2013-05-10 17:46:00,
2013-05-10 13:47:00,85.2,43.3,29.85,South,179,0.0,0.0,23,0.00,,,0.00,VWS V14.01,2013-05-10 17:47:00,
2013-05-10 13:48:00,85.4,43.4,29.85,South,179,0.0,0.0,23,0.00,,,0.00,VWS V14.01,2013-05-10 17:48:00,
2013-05-10 13:49:00,85.6,43.6,29.85,South,179,0.0,0.0,23,0.00,,,0.00,VWS V14.01,2013-05-10 17:49:00,
2013-05-10 13:50:00,85.7,43.7,29.85,South,179,0.0,0.0,23,0.00,,,0.00,VWS V14.01,2013-05-10 17:50:00,
2013-05-10 13:51:00,85.9,43.9,29.85,SSE,164,0.0,0.0,23,0.00,,,0.00,VWS V14.01,2013-05-10 17:51:00,
2013-05-10 13:52:00,85.9,43.9,29.85,East,95,5.8,6.3,23,0.00,,,0.00,VWS V14.01,2013-05-10 17:52:00,
2013-05-10 13:53:00,85.7,43.7,29.85,SSE,163,3.6,5.8,23,0.00,,,0.00,VWS V14.01,2013-05-10 17:53:00,
2013-05-10 13:54:00,85.6,44.7,29.85,South,174,0.0,4.0,24,0.00,,,0.00,VWS V14.01,2013-05-10 17:54:00,
2013-05-10 13:55:00,85.6,44.7,29.85,South,175,5.8,5.8,24,0.00,,,0.00,VWS V14.01,2013-05-10 17:55:00,
2013-05-10 13:56:00,85.4,45.6,29.85,SSW,199,2.7,5.8,25,0.00,,,0.00,VWS V14.01,2013-05-10 17:56:00,
2013-05-10 13:57:00,85.4,45.6,29.85,WSW,250,0.0,2.7,25,0.00,,,0.00,VWS V14.01,2013-05-10 17:57:00,
2013-05-10 13:58:00,85.4,45.6,29.85,SSE,148,0.0,0.0,25,0.00,,,0.00,VWS V14.01,2013-05-10 17:58:00,
2013-05-10 13:59:00,85.4,45.6,29.85,SE,129,0.0,0.0,25,0.00,,,0.00,VWS V14.01,2013-05-10 17:59:00,
2013-05-10 14:00:00,85.4,45.6,29.85,ENE,71,4.0,4.0,25,0.00,,,0.00,VWS V14.01,2013-05-10 18:00:00,
2013-05-10 14:01:00,85.2,45.5,29.85,East,88,2.7,4.0,25,0.00,,,0.00,VWS V14.01,2013-05-10 18:01:00,
2013-05-10 14:02:00,85.2,45.5,29.85,East,90,0.0,2.7,25,0.00,,,0.00,VWS V14.01,2013-05-10 18:02:00,
2013-05-10 14:03:00,84.8,45.1,29.85,South,186,4.9,4.9,25,0.00,,,0.00,VWS V14.01,2013-05-10 18:03:00,
2013-05-10 14:04:00,84.8,45.1,29.85,SSW,192,5.4,8.7,25,0.00,,,0.00,VWS V14.01,2013-05-10 18:04:00,
2013-05-10 14:05:00,84.5,45.9,29.85,South,173,3.1,5.4,26,0.00,,,0.00,VWS V14.01,2013-05-10 18:05:00,
2013-05-10 14:06:00,84.5,45.9,29.85,SSE,157,2.7,5.4,26,0.00,,,0.00,VWS V14.01,2013-05-10 18:06:00,
2013-05-10 14:07:00,84.1,45.6,29.85,South,175,2.7,4.0,26,0.00,,,0.00,VWS V14.01,2013-05-10 18:07:00,
2013-05-10 14:08:00,84.1,45.6,29.85,SSE,152,4.0,4.0,26,0.00,,,0.00,VWS V14.01,2013-05-10 18:08:00,
2013-05-10 14:09:00,83.8,44.2,29.85,SSE,157,4.0,6.3,25,0.00,,,0.00,VWS V14.01,2013-05-10 18:09:00,
2013-05-10 14:10:00,83.4,43.9,29.85,SSW,197,5.4,6.3,25,0.00,,,0.00,VWS V14.01,2013-05-10 18:10:00,
2013-05-10 14:11:00,83.4,43.9,29.85,SSW,200,3.6,7.2,25,0.00,,,0.00,VWS V14.01,2013-05-10 18:11:00,
2013-05-10 14:12:00,83.0,44.7,29.85,South,170,5.8,7.2,26,0.00,,,0.00,VWS V14.01,2013-05-10 18:12:00,
2013-05-10 14:13:00,83.0,44.7,29.85,South,191,7.6,7.6,26,0.00,,,0.00,VWS V14.01,2013-05-10 18:13:00,
2013-05-10 14:14:00,82.9,45.5,29.85,South,190,8.1,8.1,27,0.00,,,0.00,VWS V14.01,2013-05-10 18:14:00,
2013-05-10 14:15:00,82.7,45.3,29.85,SSE,168,0.0,8.1,27,0.00,,,0.00,VWS V14.01,2013-05-10 18:15:00,
2013-05-10 14:16:00,82.7,45.3,29.85,ESE,105,0.0,5.4,27,0.00,,,0.00,VWS V14.01,2013-05-10 18:16:00,
2013-05-10 14:17:00,82.7,46.3,29.85,SSW,203,4.9,4.9,28,0.00,,,0.00,VWS V14.01,2013-05-10 18:17:00,
2013-05-10 14:18:00,82.7,45.3,29.85,SW,221,6.3,7.2,27,0.00,,,0.00,VWS V14.01,2013-05-10 18:18:00,
2013-05-10 14:19:00,82.9,45.5,29.85,SSW,192,7.6,8.1,27,0.00,,,0.00,VWS V14.01,2013-05-10 18:19:00,
2013-05-10 14:20:00,82.7,45.3,29.85,East,100,2.7,7.6,27,0.00,,,0.00,VWS V14.01,2013-05-10 18:20:00,
2013-05-10 14:21:00,82.7,45.3,29.85,ESE,117,0.0,4.0,27,0.00,,,0.00,VWS V14.01,2013-05-10 18:21:00,
2013-05-10 14:22:00,82.5,46.1,29.85,SSE,148,3.1,5.4,28,0.00,,,0.00,VWS V14.01,2013-05-10 18:22:00,
2013-05-10 14:23:00,82.5,46.1,29.85,SSE,149,3.6,4.9,28,0.00,,,0.00,VWS V14.01,2013-05-10 18:23:00,
2013-05-10 14:24:00,82.3,46.0,29.85,South,177,5.8,8.1,28,0.00,,,0.00,VWS V14.01,2013-05-10 18:24:00,
2013-05-10 14:25:00,82.1,44.9,29.85,South,180,7.2,7.2,27,0.00,,,0.00,VWS V14.01,2013-05-10 18:25:00,
2013-05-10 14:26:00,82.1,44.9,29.85,SE,139,4.0,7.2,27,0.00,,,0.00,VWS V14.01,2013-05-10 18:26:00,
2013-05-10 14:27:00,82.0,45.7,29.85,SSE,150,3.6,8.1,28,0.00,,,0.00,VWS V14.01,2013-05-10 18:27:00,
2013-05-10 14:28:00,81.8,45.5,29.85,SE,143,2.7,5.8,28,0.00,,,0.00,VWS V14.01,2013-05-10 18:28:00,
2013-05-10 14:29:00,81.8,45.5,29.85,SSE,163,5.4,6.3,28,0.00,,,0.00,VWS V14.01,2013-05-10 18:29:00,
2013-05-10 14:30:00,81.6,45.4,29.85,SSE,160,4.0,5.4,28,0.00,,,0.00,VWS V14.01,2013-05-10 18:30:00,
2013-05-10 14:31:00,81.4,46.1,29.85,South,190,4.0,4.9,29,0.00,,,0.00,VWS V14.01,2013-05-10 18:31:00,
2013-05-10 14:32:00,81.4,46.1,29.85,South,170,3.1,4.9,29,0.00,,,0.00,VWS V14.01,2013-05-10 18:32:00,
2013-05-10 14:33:00,81.4,47.0,29.85,South,170,0.0,4.9,30,0.00,,,0.00,VWS V14.01,2013-05-10 18:33:00,
2013-05-10 14:34:00,81.6,46.3,29.85,SE,139,5.8,5.8,29,0.00,,,0.00,VWS V14.01,2013-05-10 18:34:00,
2013-05-10 14:35:00,81.6,46.3,29.85,SSW,194,4.0,5.8,29,0.00,,,0.00,VWS V14.01,2013-05-10 18:35:00,
2013-05-10 14:36:00,81.6,46.3,29.85,East,97,4.0,5.4,29,0.00,,,0.00,VWS V14.01,2013-05-10 18:36:00,
2013-05-10 14:37:00,81.8,46.5,29.85,SSE,159,3.1,3.1,29,0.00,,,0.00,VWS V14.01,2013-05-10 18:37:00,
2013-05-10 14:38:00,81.8,46.5,29.85,South,178,2.7,3.6,29,0.00,,,0.00,VWS V14.01,2013-05-10 18:38:00,
2013-05-10 14:39:00,82.0,46.6,29.85,SW,218,5.8,5.8,29,0.00,,,0.00,VWS V14.01,2013-05-10 18:39:00,
2013-05-10 14:40:00,82.0,46.6,29.85,South,184,9.6,9.6,29,0.00,,,0.00,VWS V14.01,2013-05-10 18:40:00,
2013-05-10 14:41:00,82.0,45.7,29.85,South,185,4.0,9.6,28,0.00,,,0.00,VWS V14.01,2013-05-10 18:41:00,
2013-05-10 14:42:00,81.8,45.5,29.85,South,170,4.9,4.9,28,0.00,,,0.00,VWS V14.01,2013-05-10 18:42:00,
2013-05-10 14:43:00,81.8,45.5,29.85,South,173,3.1,4.9,28,0.00,,,0.00,VWS V14.01,2013-05-10 18:43:00,
2013-05-10 14:44:00,81.6,45.4,29.85,South,169,3.6,5.8,28,0.00,,,0.00,VWS V14.01,2013-05-10 18:44:00,
2013-05-10 14:45:00,81.6,46.3,29.85,SSE,163,0.0,3.6,29,0.00,,,0.00,VWS V14.01,2013-05-10 18:45:00,
2013-05-10 14:46:00,81.6,46.3,29.85,East,90,3.1,3.1,29,0.00,,,0.00,VWS V14.01,2013-05-10 18:46:00,
2013-05-10 14:47:00,81.6,46.3,29.85,NE,43,0.0,0.0,29,0.00,,,0.00,VWS V14.01,2013-05-10 18:47:00,
2013-05-10 14:48:00,81.6,46.3,29.85,ESE,116,2.7,3.1,29,0.00,,,0.00,VWS V14.01,2013-05-10 18:48:00,
2013-05-10 14:49:00,81.4,46.1,29.85,SSE,163,5.8,5.8,29,0.00,,,0.00,VWS V14.01,2013-05-10 18:49:00,
2013-05-10 14:50:00,81.4,46.1,29.85,SE,137,2.7,5.8,29,0.00,,,0.00,VWS V14.01,2013-05-10 18:50:00,
2013-05-10 14:51:00,81.4,46.1,29.85,SE,141,2.7,3.6,29,0.00,,,0.00,VWS V14.01,2013-05-10 18:51:00,
2013-05-10 14:52:00,81.4,47.0,29.85,SSE,168,2.2,3.1,30,0.00,,,0.00,VWS V14.01,2013-05-10 18:52:00,
2013-05-10 14:53:00,81.2,46.0,29.85,South,176,0.0,3.1,29,0.00,,,0.00,VWS V14.01,2013-05-10 18:53:00,
2013-05-10 14:54:00,81.2,46.9,29.85,SW,218,6.3,6.3,30,0.00,,,0.00,VWS V14.01,2013-05-10 18:54:00,
2013-05-10 14:55:00,81.2,46.9,29.85,SSE,158,4.9,8.1,30,0.00,,,0.00,VWS V14.01,2013-05-10 18:55:00,
2013-05-10 14:56:00,81.2,46.9,29.85,South,188,4.9,4.9,30,0.00,,,0.00,VWS V14.01,2013-05-10 18:56:00,
2013-05-10 14:57:00,81.1,46.7,29.85,SSE,166,2.2,5.8,30,0.00,,,0.00,VWS V14.01,2013-05-10 18:57:00,
2013-05-10 14:58:00,81.2,47.8,29.85,South,179,2.7,5.8,31,0.00,,,0.00,VWS V14.01,2013-05-10 18:58:00,
2013-05-10 14:59:00,81.2,47.8,29.85,SSE,148,2.2,3.1,31,0.00,,,0.00,VWS V14.01,2013-05-10 18:59:00,
2013-05-10 15:00:00,81.2,47.8,29.85,SSE,147,2.2,2.7,31,0.00,,,0.00,VWS V14.01,2013-05-10 19:00:00,
2013-05-10 15:01:00,81.2,47.8,29.85,SSE,147,3.6,4.0,31,0.00,,,0.00,VWS V14.01,2013-05-10 19:01:00,
2013-05-10 15:02:00,81.4,47.9,29.85,SE,125,2.7,3.1,31,0.00,,,0.00,VWS V14.01,2013-05-10 19:02:00,
2013-05-10 15:03:00,81.4,47.9,29.85,ESE,121,3.6,4.9,31,0.00,,,0.00,VWS V14.01,2013-05-10 19:03:00,
2013-05-10 15:04:00,81.2,47.8,29.85,SSE,159,2.7,4.0,31,0.00,,,0.00,VWS V14.01,2013-05-10 19:04:00,
2013-05-10 15:05:00,81.2,47.8,29.85,SSE,150,2.2,2.7,31,0.00,,,0.00,VWS V14.01,2013-05-10 19:05:00,
2013-05-10 15:06:00,81.1,47.6,29.85,SSE,150,2.2,3.1,31,0.00,,,0.00,VWS V14.01,2013-05-10 19:06:00,
2013-05-10 15:07:00,80.9,47.4,29.85,SE,138,3.6,4.0,31,0.00,,,0.00,VWS V14.01,2013-05-10 19:07:00,
2013-05-10 15:08:00,80.9,47.4,29.85,South,184,6.3,6.3,31,0.00,,,0.00,VWS V14.01,2013-05-10 19:08:00,
2013-05-10 15:09:00,80.7,47.3,29.85,South,170,5.4,6.3,31,0.00,,,0.00,VWS V14.01,2013-05-10 19:09:00,
2013-05-10 15:10:00,80.5,47.1,29.85,SSE,165,0.0,7.6,31,0.00,,,0.00,VWS V14.01,2013-05-10 19:10:00,
2013-05-10 15:11:00,80.3,47.8,29.85,South,190,5.8,5.8,32,0.00,,,0.00,VWS V14.01,2013-05-10 19:11:00,
2013-05-10 15:12:00,80.0,47.5,29.85,South,181,3.6,3.6,32,0.00,,,0.00,VWS V14.01,2013-05-10 19:12:00,
2013-05-10 15:13:00,80.0,47.5,29.85,South,169,4.0,4.0,32,0.00,,,0.00,VWS V14.01,2013-05-10 19:13:00,
2013-05-10 15:14:00,79.8,48.2,29.85,South,176,2.2,5.8,33,0.00,,,0.00,VWS V14.01,2013-05-10 19:14:00,
2013-05-10 15:15:00,79.8,49.0,29.85,SSE,155,0.0,2.2,34,0.00,,,0.00,VWS V14.01,2013-05-10 19:15:00,
2013-05-10 15:16:00,79.8,49.0,29.85,SSW,200,3.1,3.1,34,0.00,,,0.00,VWS V14.01,2013-05-10 19:16:00,
2013-05-10 15:17:00,79.8,49.0,29.85,South,183,3.6,3.6,34,0.00,,,0.00,VWS V14.01,2013-05-10 19:17:00,
2013-05-10 15:18:00,79.8,49.0,29.85,South,177,3.1,3.6,34,0.00,,,0.00,VWS V14.01,2013-05-10 19:18:00,
2013-05-10 15:19:00,79.8,49.0,29.85,SSE,148,3.6,4.9,34,0.00,,,0.00,VWS V14.01,2013-05-10 19:19:00,
2013-05-10 15:20:00,79.8,49.0,29.85,SE,136,3.1,3.6,34,0.00,,,0.00,VWS V14.01,2013-05-10 19:20:00,
2013-05-10 15:21:00,79.8,49.0,29.85,South,177,4.0,5.4,34,0.00,,,0.00,VWS V14.01,2013-05-10 19:21:00,
2013-05-10 15:22:00,79.8,49.0,29.85,SSE,149,2.7,3.6,34,0.00,,,0.00,VWS V14.01,2013-05-10 19:22:00,
2013-05-10 15:23:00,79.8,49.0,29.85,SSE,149,2.7,3.6,34,0.00,,,0.00,VWS V14.01,2013-05-10 19:23:00,
2013-05-10 15:24:00,79.8,49.0,29.85,SSE,158,5.8,5.8,34,0.00,,,0.00,VWS V14.01,2013-05-10 19:24:00,
2013-05-10 15:25:00,80.0,49.1,29.85,SSE,151,2.7,5.8,34,0.00,,,0.00,VWS V14.01,2013-05-10 19:25:00,
2013-05-10 15:26:00,80.0,49.1,29.85,South,172,2.2,6.7,34,0.00,,,0.00,VWS V14.01,2013-05-10 19:26:00,
2013-05-10 15:27:00,80.2,49.3,29.85,SSW,197,2.7,2.7,34,0.00,,,0.00,VWS V14.01,2013-05-10 19:27:00,
2013-05-10 15:28:00,80.2,49.3,29.85,South,173,5.4,5.8,34,0.00,,,0.00,VWS V14.01,2013-05-10 19:28:00,
2013-05-10 15:29:00,80.2,48.5,29.85,SSW,197,6.3,6.3,33,0.00,,,0.00,VWS V14.01,2013-05-10 19:29:00,
2013-05-10 15:30:00,80.2,49.3,29.85,SSW,202,4.0,6.3,34,0.00,,,0.00,VWS V14.01,2013-05-10 19:30:00,
2013-05-10 15:31:00,80.2,48.5,29.85,SSW,201,4.9,8.3,33,0.00,,,0.00,VWS V14.01,2013-05-10 19:31:00,
2013-05-10 15:32:00,80.0,49.1,29.85,SE,129,3.1,3.6,34,0.00,,,0.00,VWS V14.01,2013-05-10 19:32:00,
2013-05-10 15:33:00,80.0,49.1,29.85,SSE,158,2.7,3.6,34,0.00,,,0.00,VWS V14.01,2013-05-10 19:33:00,
2013-05-10 15:34:00,80.0,49.1,29.85,ESE,107,3.6,3.6,34,0.00,,,0.00,VWS V14.01,2013-05-10 19:34:00,
2013-05-10 15:35:00,79.8,48.2,29.85,SW,216,0.0,3.6,33,0.00,,,0.00,VWS V14.01,2013-05-10 19:35:00,
2013-05-10 15:36:00,79.8,49.0,29.85,South,182,4.0,4.9,34,0.00,,,0.00,VWS V14.01,2013-05-10 19:36:00,
2013-05-10 15:37:00,79.8,49.0,29.83,SE,131,2.2,2.2,34,0.00,,,0.00,VWS V14.01,2013-05-10 19:37:00,
2013-05-10 15:38:00,79.8,49.0,29.83,SE,131,0.0,2.2,34,0.00,,,0.00,VWS V14.01,2013-05-10 19:38:00,
2013-05-10 15:39:00,79.8,49.0,29.83,SSW,194,7.6,7.6,34,0.00,,,0.00,VWS V14.01,2013-05-10 19:39:00,
2013-05-10 15:40:00,79.8,49.0,29.83,South,178,5.8,7.6,34,0.00,,,0.00,VWS V14.01,2013-05-10 19:40:00,
2013-05-10 15:41:00,79.6,48.8,29.83,South,180,6.3,6.3,34,0.00,,,0.00,VWS V14.01,2013-05-10 19:41:00,
2013-05-10 15:42:00,79.4,48.7,29.83,South,169,7.2,7.2,34,0.00,,,0.00,VWS V14.01,2013-05-10 19:42:00,
2013-05-10 15:43:00,79.4,48.7,29.83,South,169,3.1,7.2,34,0.00,,,0.00,VWS V14.01,2013-05-10 19:43:00,
2013-05-10 15:44:00,79.4,48.7,29.83,SSW,194,4.9,5.8,34,0.00,,,0.00,VWS V14.01,2013-05-10 19:44:00,
2013-05-10 15:45:00,79.3,48.5,29.83,South,174,4.5,6.3,34,0.00,,,0.00,VWS V14.01,2013-05-10 19:45:00,
2013-05-10 15:46:00,79.1,48.3,29.83,SSE,156,3.6,4.5,34,0.00,,,0.00,VWS V14.01,2013-05-10 19:46:00,
2013-05-10 15:47:00,78.9,48.2,29.83,SSE,167,0.0,4.9,34,0.00,,,0.00,VWS V14.01,2013-05-10 19:47:00,
2013-05-10 15:48:00,78.9,48.2,29.83,SSE,167,0.0,4.9,34,0.00,,,0.00,VWS V14.01,2013-05-10 19:48:00,
2013-05-10 15:49:00,78.9,49.0,29.83,SSE,167,0.0,0.0,35,0.00,,,0.00,VWS V14.01,2013-05-10 19:49:00,
2013-05-10 15:50:00,78.7,48.8,29.83,ESE,104,2.7,4.0,35,0.00,,,0.00,VWS V14.01,2013-05-10 19:50:00,
2013-05-10 15:51:00,78.7,48.8,29.83,ESE,104,0.0,2.7,35,0.00,,,0.00,VWS V14.01,2013-05-10 19:51:00,
2013-05-10 15:52:00,78.7,48.8,29.83,WSW,240,0.0,0.0,35,0.00,,,0.00,VWS V14.01,2013-05-10 19:52:00,
2013-05-10 15:53:00,78.7,48.8,29.83,East,100,3.1,4.0,35,0.00,,,0.00,VWS V14.01,2013-05-10 19:53:00,
2013-05-10 15:54:00,78.7,48.8,29.83,South,179,3.1,3.6,35,0.00,,,0.00,VWS V14.01,2013-05-10 19:54:00,
2013-05-10 15:55:00,78.7,48.8,29.83,SE,139,0.0,3.1,35,0.00,,,0.00,VWS V14.01,2013-05-10 19:55:00,
2013-05-10 15:56:00,78.7,48.8,29.83,SSE,150,0.0,0.0,35,0.00,,,0.00,VWS V14.01,2013-05-10 19:56:00,
2013-05-10 15:57:00,78.7,48.8,29.83,SSE,150,0.0,0.0,35,0.00,,,0.00,VWS V14.01,2013-05-10 19:57:00,
2013-05-10 15:58:00,78.7,48.8,29.83,WSW,239,5.4,6.3,35,0.00,,,0.00,VWS V14.01,2013-05-10 19:58:00,
2013-05-10 15:59:00,78.7,48.8,29.83,SSE,155,4.0,5.4,35,0.00,,,0.00,VWS V14.01,2013-05-10 19:59:00,
2013-05-10 16:00:00,78.5,48.6,29.83,SSE,168,2.7,4.9,35,0.00,,,0.00,VWS V14.01,2013-05-10 20:00:00,
2013-05-10 16:01:00,78.5,48.6,29.83,South,171,3.6,4.9,35,0.00,,,0.00,VWS V14.01,2013-05-10 20:01:00,
2013-05-10 16:02:00,78.4,48.5,29.83,SSW,199,5.4,8.7,35,0.00,,,0.00,VWS V14.01,2013-05-10 20:02:00,
2013-05-10 16:03:00,78.2,48.3,29.83,SSE,155,2.7,5.4,35,0.00,,,0.00,VWS V14.01,2013-05-10 20:03:00,
2013-05-10 16:04:00,78.2,48.3,29.83,SSW,196,3.1,4.9,35,0.00,,,0.00,VWS V14.01,2013-05-10 20:04:00,
2013-05-10 16:05:00,78.0,48.2,29.83,SSW,194,2.2,5.4,35,0.00,,,0.00,VWS V14.01,2013-05-10 20:05:00,
2013-05-10 16:06:00,78.0,48.9,29.83,South,183,0.0,2.2,36,0.00,,,0.00,VWS V14.01,2013-05-10 20:06:00,
2013-05-10 16:07:00,78.0,48.9,29.83,SSE,167,8.7,8.7,36,0.00,,,0.00,VWS V14.01,2013-05-10 20:07:00,
2013-05-10 16:08:00,78.0,48.2,29.83,SW,215,8.1,10.5,35,0.00,,,0.00,VWS V14.01,2013-05-10 20:08:00,
2013-05-10 16:09:00,77.8,48.8,29.83,ESE,114,3.1,5.4,36,0.00,,,0.00,VWS V14.01,2013-05-10 20:09:00,
2013-05-10 16:10:00,77.8,48.8,29.83,SE,130,3.1,3.6,36,0.00,,,0.00,VWS V14.01,2013-05-10 20:10:00,
2013-05-10 16:11:00,77.8,48.8,29.83,SE,143,4.9,4.9,36,0.00,,,0.00,VWS V14.01,2013-05-10 20:11:00,
2013-05-10 16:12:00,77.8,48.8,29.83,SE,133,2.7,4.9,36,0.00,,,0.00,VWS V14.01,2013-05-10 20:12:00,
2013-05-10 16:13:00,77.8,48.8,29.83,South,186,5.8,5.8,36,0.00,,,0.00,VWS V14.01,2013-05-10 20:13:00,
2013-05-10 16:14:00,77.8,48.8,29.83,South,190,3.1,5.8,36,0.00,,,0.00,VWS V14.01,2013-05-10 20:14:00,
2013-05-10 16:15:00,77.8,48.8,29.83,South,182,3.1,6.3,36,0.00,,,0.00,VWS V14.01,2013-05-10 20:15:00,
2013-05-10 16:16:00,77.6,48.6,29.83,South,181,8.3,8.3,36,0.00,,,0.00,VWS V14.01,2013-05-10 20:16:00,
2013-05-10 16:17:00,77.6,48.6,29.83,South,188,4.0,8.3,36,0.00,,,0.00,VWS V14.01,2013-05-10 20:17:00,
2013-05-10 16:18:00,77.6,48.6,29.83,South,187,0.0,4.0,36,0.00,,,0.00,VWS V14.01,2013-05-10 20:18:00,
2013-05-10 16:19:00,77.6,48.6,29.83,SSW,193,6.3,6.3,36,0.00,,,0.00,VWS V14.01,2013-05-10 20:19:00,
2013-05-10 16:20:00,77.6,49.3,29.83,SE,139,3.1,6.3,37,0.00,,,0.00,VWS V14.01,2013-05-10 20:20:00,
2013-05-10 16:21:00,77.6,49.3,29.83,SE,129,0.0,3.1,37,0.00,,,0.00,VWS V14.01,2013-05-10 20:21:00,
2013-05-10 16:22:00,77.6,49.3,29.83,East,99,2.7,3.1,37,0.00,,,0.00,VWS V14.01,2013-05-10 20:22:00,
2013-05-10 16:23:00,77.6,48.6,29.83,South,177,4.0,6.3,36,0.00,,,0.00,VWS V14.01,2013-05-10 20:23:00,
2013-05-10 16:24:00,77.5,48.4,29.83,South,169,2.7,4.0,36,0.00,,,0.00,VWS V14.01,2013-05-10 20:24:00,
2013-05-10 16:25:00,77.5,49.2,29.83,SSW,202,4.0,4.9,37,0.00,,,0.00,VWS V14.01,2013-05-10 20:25:00,
2013-05-10 16:26:00,77.5,48.4,29.83,SSE,156,4.0,4.0,36,0.00,,,0.00,VWS V14.01,2013-05-10 20:26:00,
2013-05-10 16:27:00,77.3,49.0,29.83,SSE,153,2.2,4.0,37,0.00,,,0.00,VWS V14.01,2013-05-10 20:27:00,
2013-05-10 16:28:00,77.3,48.3,29.83,South,178,0.0,4.0,36,0.00,,,0.00,VWS V14.01,2013-05-10 20:28:00,
2013-05-10 16:29:00,77.1,48.8,29.83,SSE,150,0.0,4.0,37,0.00,,,0.00,VWS V14.01,2013-05-10 20:29:00,
2013-05-10 16:30:00,77.1,48.8,29.83,SSE,149,0.0,0.0,37,0.00,,,0.00,VWS V14.01,2013-05-10 20:30:00,
2013-05-10 16:31:00,77.1,48.8,29.83,SE,143,0.0,0.0,37,0.00,,,0.00,VWS V14.01,2013-05-10 20:31:00,
2013-05-10 16:32:00,77.1,48.8,29.83,South,175,3.1,3.1,37,0.00,,,0.00,VWS V14.01,2013-05-10 20:32:00,
2013-05-10 16:33:00,76.9,48.7,29.83,SE,141,3.6,3.6,37,0.00,,,0.00,VWS V14.01,2013-05-10 20:33:00,
2013-05-10 16:34:00,77.1,48.8,29.83,South,181,2.7,3.6,37,0.00,,,0.00,VWS V14.01,2013-05-10 20:34:00,
2013-05-10 16:35:00,76.9,48.7,29.83,South,181,2.7,2.7,37,0.00,,,0.00,VWS V14.01,2013-05-10 20:35:00,
2013-05-10 16:36:00,76.9,48.7,29.83,SSE,158,3.6,5.4,37,0.00,,,0.00,VWS V14.01,2013-05-10 20:36:00,
2013-05-10 16:37:00,77.1,48.8,29.83,SSE,160,3.6,4.0,37,0.00,,,0.00,VWS V14.01,2013-05-10 20:37:00,
2013-05-10 16:38:00,77.1,48.8,29.83,SSE,160,0.0,0.0,37,0.00,,,0.00,VWS V14.01,2013-05-10 20:38:00,
2013-05-10 16:39:00,77.1,48.8,29.83,SSE,160,0.0,0.0,37,0.00,,,0.00,VWS V14.01,2013-05-10 20:39:00,
2013-05-10 16:40:00,77.3,48.3,29.83,SSE,168,7.6,7.6,36,0.00,,,0.00,VWS V14.01,2013-05-10 20:40:00,
2013-05-10 16:41:00,77.3,49.0,29.83,South,177,5.4,7.6,37,0.00,,,0.00,VWS V14.01,2013-05-10 20:41:00,
2013-05-10 16:42:00,77.5,48.4,29.83,SSE,147,2.7,5.4,36,0.00,,,0.00,VWS V14.01,2013-05-10 20:42:00,
2013-05-10 16:43:00,77.5,49.2,29.83,South,187,4.0,4.0,37,0.00,,,0.00,VWS V14.01,2013-05-10 20:43:00,
2013-05-10 16:44:00,77.5,49.2,29.83,SE,139,3.6,4.9,37,0.00,,,0.00,VWS V14.01,2013-05-10 20:44:00,
2013-05-10 16:45:00,77.5,48.4,29.83,SSE,164,3.1,3.6,36,0.00,,,0.00,VWS V14.01,2013-05-10 20:45:00,
2013-05-10 16:46:00,77.5,49.2,29.83,South,190,2.2,3.1,37,0.00,,,0.00,VWS V14.01,2013-05-10 20:46:00,
2013-05-10 16:47:00,77.5,49.2,29.83,South,186,3.1,3.6,37,0.00,,,0.00,VWS V14.01,2013-05-10 20:47:00,
2013-05-10 16:48:00,77.5,49.2,29.83,South,179,4.9,5.8,37,0.00,,,0.00,VWS V14.01,2013-05-10 20:48:00,
2013-05-10 16:49:00,77.5,48.4,29.83,SSW,193,4.9,6.7,36,0.00,,,0.00,VWS V14.01,2013-05-10 20:49:00,
2013-05-10 16:50:00,77.3,48.3,29.83,SSE,164,4.9,6.3,36,0.00,,,0.00,VWS V14.01,2013-05-10 20:50:00,
2013-05-10 16:51:00,77.3,49.0,29.83,SSE,168,2.2,4.9,37,0.00,,,0.00,VWS V14.01,2013-05-10 20:51:00,
2013-05-10 16:52:00,77.3,49.0,29.83,South,188,2.7,5.4,37,0.00,,,0.00,VWS V14.01,2013-05-10 20:52:00,
2013-05-10 16:53:00,77.1,48.1,29.83,SSW,199,5.4,5.8,36,0.00,,,0.00,VWS V14.01,2013-05-10 20:53:00,
2013-05-10 16:54:00,77.1,48.1,29.83,South,176,0.0,5.8,36,0.00,,,0.00,VWS V14.01,2013-05-10 20:54:00,
2013-05-10 16:55:00,76.9,48.0,29.83,South,176,0.0,0.0,36,0.00,,,0.00,VWS V14.01,2013-05-10 20:55:00,
2013-05-10 16:56:00,76.9,48.7,29.83,SE,141,3.1,3.1,37,0.00,,,0.00,VWS V14.01,2013-05-10 20:56:00,
2013-05-10 16:57:00,76.9,48.7,29.83,South,187,3.6,4.9,37,0.00,,,0.00,VWS V14.01,2013-05-10 20:57:00,
2013-05-10 16:58:00,76.7,48.5,29.83,South,178,5.8,5.8,37,0.00,,,0.00,VWS V14.01,2013-05-10 20:58:00,
2013-05-10 16:59:00,76.7,48.5,29.83,SSW,200,4.5,8.1,37,0.00,,,0.00,VWS V14.01,2013-05-10 20:59:00,
2013-05-10 17:00:00,76.6,48.4,29.83,SSW,197,3.6,5.4,37,0.00,,,0.00,VWS V14.01,2013-05-10 21:00:00,
2013-05-10 17:01:00,76.6,48.4,29.83,South,183,3.6,4.9,37,0.00,,,0.00,VWS V14.01,2013-05-10 21:01:00,
2013-05-10 17:02:00,76.6,48.4,29.83,SE,141,3.1,3.6,37,0.00,,,0.00,VWS V14.01,2013-05-10 21:02:00,
2013-05-10 17:03:00,76.4,48.2,29.83,SSE,160,4.0,4.0,37,0.00,,,0.00,VWS V14.01,2013-05-10 21:03:00,
2013-05-10 17:04:00,76.4,48.2,29.83,SSE,159,3.6,4.0,37,0.00,,,0.00,VWS V14.01,2013-05-10 21:04:00,
2013-05-10 17:05:00,76.4,48.9,29.83,South,182,3.6,3.6,38,0.00,,,0.00,VWS V14.01,2013-05-10 21:05:00,
2013-05-10 17:06:00,76.4,48.2,29.83,SSW,192,0.0,5.4,37,0.00,,,0.00,VWS V14.01,2013-05-10 21:06:00,
2013-05-10 17:07:00,76.4,48.9,29.83,SSE,149,0.0,0.0,38,0.00,,,0.00,VWS V14.01,2013-05-10 21:07:00,
2013-05-10 17:08:00,76.4,48.2,29.83,South,177,3.1,3.1,37,0.00,,,0.00,VWS V14.01,2013-05-10 21:08:00,
2013-05-10 17:09:00,76.4,48.2,29.83,South,173,4.0,4.0,37,0.00,,,0.00,VWS V14.01,2013-05-10 21:09:00,
2013-05-10 17:10:00,76.4,48.2,29.83,South,184,5.4,6.3,37,0.00,,,0.00,VWS V14.01,2013-05-10 21:10:00,
2013-05-10 17:11:00,76.4,48.2,29.83,SE,124,4.0,5.4,37,0.00,,,0.00,VWS V14.01,2013-05-10 21:11:00,
2013-05-10 17:12:00,76.4,48.2,29.83,SSE,154,3.1,5.4,37,0.00,,,0.00,VWS V14.01,2013-05-10 21:12:00,
2013-05-10 17:13:00,76.4,48.2,29.83,SE,139,0.0,3.6,37,0.00,,,0.00,VWS V14.01,2013-05-10 21:13:00,
2013-05-10 17:14:00,76.4,48.2,29.83,SE,144,3.1,3.6,37,0.00,,,0.00,VWS V14.01,2013-05-10 21:14:00,
2013-05-10 17:15:00,76.2,48.0,29.83,South,188,3.6,5.4,37,0.00,,,0.00,VWS V14.01,2013-05-10 21:15:00,
2013-05-10 17:16:00,76.2,48.0,29.83,South,174,2.7,4.0,37,0.00,,,0.00,VWS V14.01,2013-05-10 21:16:00,
2013-05-10 17:17:00,76.2,48.0,29.83,SSE,159,5.8,8.1,37,0.00,,,0.00,VWS V14.01,2013-05-10 21:17:00,
2013-05-10 17:18:00,76.2,48.0,29.83,South,185,2.7,3.1,37,0.00,,,0.00,VWS V14.01,2013-05-10 21:18:00,
2013-05-10 17:19:00,76.2,48.0,29.83,South,183,4.9,5.4,37,0.00,,,0.00,VWS V14.01,2013-05-10 21:19:00,
2013-05-10 17:20:00,76.2,48.0,29.83,South,170,0.0,4.9,37,0.00,,,0.00,VWS V14.01,2013-05-10 21:20:00,
2013-05-10 17:21:00,76.2,47.3,29.83,South,188,3.6,5.4,36,0.00,,,0.00,VWS V14.01,2013-05-10 21:21:00,
2013-05-10 17:22:00,76.2,48.0,29.83,South,185,4.5,4.5,37,0.00,,,0.00,VWS V14.01,2013-05-10 21:22:00,
2013-05-10 17:23:00,76.2,48.0,29.83,SSE,165,3.1,5.8,37,0.00,,,0.00,VWS V14.01,2013-05-10 21:23:00,
2013-05-10 17:24:00,76.2,48.0,29.83,South,191,3.6,5.8,37,0.00,,,0.00,VWS V14.01,2013-05-10 21:24:00,
2013-05-10 17:25:00,76.2,47.3,29.83,SE,141,8.1,8.1,36,0.00,,,0.00,VWS V14.01,2013-05-10 21:25:00,
2013-05-10 17:26:00,76.2,47.3,29.83,South,188,4.0,8.1,36,0.00,,,0.00,VWS V14.01,2013-05-10 21:26:00,
2013-05-10 17:27:00,76.4,47.5,29.83,West,267,0.0,5.8,36,0.00,,,0.00,VWS V14.01,2013-05-10 21:27:00,
2013-05-10 17:28:00,76.4,47.5,29.83,SSE,155,5.4,5.4,36,0.00,,,0.00,VWS V14.01,2013-05-10 21:28:00,
2013-05-10 17:29:00,76.4,47.5,29.83,South,191,5.4,5.4,36,0.00,,,0.00,VWS V14.01,2013-05-10 21:29:00,
2013-05-10 17:30:00,76.6,47.6,29.83,South,173,3.6,5.8,36,0.00,,,0.00,VWS V14.01,2013-05-10 21:30:00,
2013-05-10 17:31:00,76.6,47.6,29.83,SE,133,4.9,5.4,36,0.00,,,0.00,VWS V14.01,2013-05-10 21:31:00,
2013-05-10 17:32:00,76.6,47.6,29.83,SE,133,3.1,4.9,36,0.00,,,0.00,VWS V14.01,2013-05-10 21:32:00,
2013-05-10 17:33:00,76.4,47.5,29.83,South,177,6.3,6.7,36,0.00,,,0.00,VWS V14.01,2013-05-10 21:33:00,
2013-05-10 17:34:00,76.4,47.5,29.83,South,189,7.6,8.7,36,0.00,,,0.00,VWS V14.01,2013-05-10 21:34:00,
2013-05-10 17:35:00,76.4,47.5,29.83,SSE,147,5.8,7.6,36,0.00,,,0.00,VWS V14.01,2013-05-10 21:35:00,
2013-05-10 17:36:00,76.2,47.3,29.83,South,185,6.3,6.3,36,0.00,,,0.00,VWS V14.01,2013-05-10 21:36:00,
2013-05-10 17:37:00,76.2,47.3,29.83,South,176,4.9,6.3,36,0.00,,,0.00,VWS V14.01,2013-05-10 21:37:00,
2013-05-10 17:38:00,76.2,47.3,29.83,South,180,3.6,5.8,36,0.00,,,0.00,VWS V14.01,2013-05-10 21:38:00,
2013-05-10 17:39:00,76.0,47.2,29.83,SE,126,5.8,7.2,36,0.00,,,0.00,VWS V14.01,2013-05-10 21:39:00,
2013-05-10 17:40:00,76.0,47.9,29.83,ESE,122,0.0,5.8,37,0.00,,,0.00,VWS V14.01,2013-05-10 21:40:00,
2013-05-10 17:41:00,76.0,47.9,29.83,SSW,196,3.1,6.3,37,0.00,,,0.00,VWS V14.01,2013-05-10 21:41:00,
2013-05-10 17:42:00,76.0,47.9,29.83,South,181,2.7,5.4,37,0.00,,,0.00,VWS V14.01,2013-05-10 21:42:00,
2013-05-10 17:43:00,75.8,47.7,29.83,SW,219,6.3,6.3,37,0.00,,,0.00,VWS V14.01,2013-05-10 21:43:00,
2013-05-10 17:44:00,75.8,47.7,29.83,South,170,3.6,6.3,37,0.00,,,0.00,VWS V14.01,2013-05-10 21:44:00,
2013-05-10 17:45:00,75.8,47.7,29.83,South,184,4.9,5.8,37,0.00,,,0.00,VWS V14.01,2013-05-10 21:45:00,
2013-05-10 17:46:00,75.8,47.7,29.83,South,180,2.7,4.9,37,0.00,,,0.00,VWS V14.01,2013-05-10 21:46:00,
2013-05-10 17:47:00,75.8,47.7,29.83,South,188,4.0,4.0,37,0.00,,,0.00,VWS V14.01,2013-05-10 21:47:00,
2013-05-10 17:48:00,75.8,47.7,29.83,SSE,166,0.0,0.0,37,0.00,,,0.00,VWS V14.01,2013-05-10 21:48:00,
2013-05-10 17:49:00,75.8,47.7,29.83,SSE,166,0.0,0.0,37,0.00,,,0.00,VWS V14.01,2013-05-10 21:49:00,
2013-05-10 17:50:00,75.8,47.7,29.83,SSE,147,3.1,3.1,37,0.00,,,0.00,VWS V14.01,2013-05-10 21:50:00,
2013-05-10 17:51:00,75.7,47.6,29.83,SSW,193,2.2,4.9,37,0.00,,,0.00,VWS V14.01,2013-05-10 21:51:00,
2013-05-10 17:52:00,75.7,47.6,29.83,South,170,3.6,7.6,37,0.00,,,0.00,VWS V14.01,2013-05-10 21:52:00,
2013-05-10 17:53:00,75.5,47.4,29.83,SSE,164,6.3,6.3,37,0.00,,,0.00,VWS V14.01,2013-05-10 21:53:00,
2013-05-10 17:54:00,75.5,47.4,29.83,SSE,167,4.9,6.3,37,0.00,,,0.00,VWS V14.01,2013-05-10 21:54:00,
2013-05-10 17:55:00,75.5,47.4,29.83,South,174,3.1,5.4,37,0.00,,,0.00,VWS V14.01,2013-05-10 21:55:00,
2013-05-10 17:56:00,75.3,47.3,29.83,SW,214,4.0,4.0,37,0.00,,,0.00,VWS V14.01,2013-05-10 21:56:00,
2013-05-10 17:57:00,75.3,47.3,29.83,South,190,3.1,4.0,37,0.00,,,0.00,VWS V14.01,2013-05-10 21:57:00,
2013-05-10 17:58:00,75.3,47.3,29.83,SSE,161,4.0,5.8,37,0.00,,,0.00,VWS V14.01,2013-05-10 21:58:00,
2013-05-10 17:59:00,75.1,47.1,29.83,SSE,162,2.7,4.0,37,0.00,,,0.00,VWS V14.01,2013-05-10 21:59:00,
2013-05-10 18:00:00,75.1,47.1,29.83,SSE,168,7.6,7.6,37,0.00,,,0.00,VWS V14.01,2013-05-10 22:00:00,
2013-05-10 18:01:00,75.1,46.4,29.83,South,189,0.0,7.6,36,0.00,,,0.00,VWS V14.01,2013-05-10 22:01:00,
2013-05-10 18:02:00,75.1,46.4,29.83,SE,138,5.8,5.8,36,0.00,,,0.00,VWS V14.01,2013-05-10 22:02:00,
2013-05-10 18:03:00,75.1,47.1,29.83,South,180,3.6,6.3,37,0.00,,,0.00,VWS V14.01,2013-05-10 22:03:00,
2013-05-10 18:04:00,74.9,46.9,29.83,South,188,8.1,8.1,37,0.00,,,0.00,VWS V14.01,2013-05-10 22:04:00,
2013-05-10 18:05:00,74.9,46.9,29.83,South,175,4.9,8.1,37,0.00,,,0.00,VWS V14.01,2013-05-10 22:05:00,
2013-05-10 18:06:00,74.9,46.9,29.83,SSW,199,3.6,4.9,37,0.00,,,0.00,VWS V14.01,2013-05-10 22:06:00,
2013-05-10 18:07:00,74.9,46.9,29.83,SSW,193,7.2,7.2,37,0.00,,,0.00,VWS V14.01,2013-05-10 22:07:00,
2013-05-10 18:08:00,74.8,46.0,29.83,South,184,2.7,7.2,36,0.00,,,0.00,VWS V14.01,2013-05-10 22:08:00,
2013-05-10 18:09:00,74.8,46.8,29.83,South,177,4.0,5.4,37,0.00,,,0.00,VWS V14.01,2013-05-10 22:09:00,
2013-05-10 18:10:00,74.8,46.8,29.83,SSW,197,2.7,4.0,37,0.00,,,0.00,VWS V14.01,2013-05-10 22:10:00,
2013-05-10 18:11:00,74.6,46.6,29.83,SSE,153,4.9,6.7,37,0.00,,,0.00,VWS V14.01,2013-05-10 22:11:00,
2013-05-10 18:12:00,74.6,46.6,29.83,South,186,5.8,5.8,37,0.00,,,0.00,VWS V14.01,2013-05-10 22:12:00,
2013-05-10 18:13:00,74.6,46.6,29.83,South,179,2.2,5.8,37,0.00,,,0.00,VWS V14.01,2013-05-10 22:13:00,
2013-05-10 18:14:00,74.4,46.5,29.83,ESE,120,4.0,5.8,37,0.00,,,0.00,VWS V14.01,2013-05-10 22:14:00,
2013-05-10 18:15:00,74.4,46.5,29.83,South,175,3.1,4.0,37,0.00,,,0.00,VWS V14.01,2013-05-10 22:15:00,
2013-05-10 18:16:00,74.4,46.5,29.83,South,190,0.0,3.1,37,0.00,,,0.00,VWS V14.01,2013-05-10 22:16:00,
2013-05-10 18:17:00,74.2,46.3,29.83,SSE,168,2.2,3.6,37,0.00,,,0.00,VWS V14.01,2013-05-10 22:17:00,
2013-05-10 18:18:00,74.2,46.3,29.83,SSW,202,6.3,6.3,37,0.00,,,0.00,VWS V14.01,2013-05-10 22:18:00,
2013-05-10 18:19:00,74.2,46.3,29.83,South,169,2.2,6.3,37,0.00,,,0.00,VWS V14.01,2013-05-10 22:19:00,
2013-05-10 18:20:00,74.0,46.1,29.83,South,175,4.0,4.0,37,0.00,,,0.00,VWS V14.01,2013-05-10 22:20:00,
2013-05-10 18:21:00,74.0,46.1,29.83,SSE,158,5.8,5.8,37,0.00,,,0.00,VWS V14.01,2013-05-10 22:21:00,
2013-05-10 18:22:00,73.9,46.0,29.83,SSW,199,2.7,7.6,37,0.00,,,0.00,VWS V14.01,2013-05-10 22:22:00,
2013-05-10 18:23:00,73.9,46.7,29.83,South,174,3.6,4.0,38,0.00,,,0.00,VWS V14.01,2013-05-10 22:23:00,
2013-05-10 18:24:00,73.7,46.5,29.83,SSE,151,6.3,7.6,38,0.00,,,0.00,VWS V14.01,2013-05-10 22:24:00,
2013-05-10 18:25:00,73.7,46.5,29.83,SSE,159,4.0,6.3,38,0.00,,,0.00,VWS V14.01,2013-05-10 22:25:00,
2013-05-10 18:26:00,73.7,46.5,29.83,South,185,3.1,4.9,38,0.00,,,0.00,VWS V14.01,2013-05-10 22:26:00,
2013-05-10 18:27:00,73.5,46.4,29.83,South,175,3.6,7.6,38,0.00,,,0.00,VWS V14.01,2013-05-10 22:27:00,
2013-05-10 18:28:00,73.5,46.4,29.83,South,182,8.1,8.1,38,0.00,,,0.00,VWS V14.01,2013-05-10 22:28:00,
2013-05-10 18:29:00,73.3,46.2,29.83,South,183,3.6,8.1,38,0.00,,,0.00,VWS V14.01,2013-05-10 22:29:00,
2013-05-10 18:30:00,73.3,46.2,29.83,South,174,4.9,5.4,38,0.00,,,0.00,VWS V14.01,2013-05-10 22:30:00,
2013-05-10 18:31:00,73.3,46.2,29.83,SSE,147,3.1,4.9,38,0.00,,,0.00,VWS V14.01,2013-05-10 22:31:00,
2013-05-10 18:32:00,73.1,46.0,29.83,South,190,3.1,3.6,38,0.00,,,0.00,VWS V14.01,2013-05-10 22:32:00,
2013-05-10 18:33:00,73.1,46.0,29.83,South,188,4.0,6.3,38,0.00,,,0.00,VWS V14.01,2013-05-10 22:33:00,
2013-05-10 18:34:00,73.0,45.9,29.83,SSW,196,6.3,7.6,38,0.00,,,0.00,VWS V14.01,2013-05-10 22:34:00,
2013-05-10 18:35:00,73.0,45.9,29.83,South,182,4.9,6.3,38,0.00,,,0.00,VWS V14.01,2013-05-10 22:35:00,
2013-05-10 18:36:00,73.0,45.9,29.83,SSE,167,5.4,9.6,38,0.00,,,0.00,VWS V14.01,2013-05-10 22:36:00,
2013-05-10 18:37:00,72.8,46.4,29.83,South,172,3.1,5.8,39,0.00,,,0.00,VWS V14.01,2013-05-10 22:37:00,
2013-05-10 18:38:00,72.8,46.4,29.83,South,187,4.0,4.0,39,0.00,,,0.00,VWS V14.01,2013-05-10 22:38:00,
2013-05-10 18:39:00,72.8,46.4,29.83,SSW,192,3.6,5.4,39,0.00,,,0.00,VWS V14.01,2013-05-10 22:39:00,
2013-05-10 18:40:00,72.8,46.4,29.83,South,175,4.9,8.1,39,0.00,,,0.00,VWS V14.01,2013-05-10 22:40:00,
2013-05-10 18:41:00,72.6,46.2,29.83,South,183,2.7,4.9,39,0.00,,,0.00,VWS V14.01,2013-05-10 22:41:00,
2013-05-10 18:42:00,72.6,46.2,29.83,SSW,192,0.0,3.6,39,0.00,,,0.00,VWS V14.01,2013-05-10 22:42:00,
2013-05-10 18:43:00,72.6,46.2,29.83,SSE,161,2.7,3.6,39,0.00,,,0.00,VWS V14.01,2013-05-10 22:43:00,
2013-05-10 18:44:00,72.6,46.9,29.83,SSE,161,0.0,0.0,40,0.00,,,0.00,VWS V14.01,2013-05-10 22:44:00,
2013-05-10 18:45:00,72.6,46.9,29.83,South,173,0.0,0.0,40,0.00,,,0.00,VWS V14.01,2013-05-10 22:45:00,
2013-05-10 18:46:00,72.6,46.9,29.83,SSE,166,2.7,3.6,40,0.00,,,0.00,VWS V14.01,2013-05-10 22:46:00,
2013-05-10 18:47:00,72.6,46.9,29.83,SSE,158,0.0,3.1,40,0.00,,,0.00,VWS V14.01,2013-05-10 22:47:00,
2013-05-10 18:48:00,72.4,46.8,29.83,SSW,193,5.4,5.8,40,0.00,,,0.00,VWS V14.01,2013-05-10 22:48:00,
2013-05-10 18:49:00,72.4,46.8,29.83,South,186,3.1,6.3,40,0.00,,,0.00,VWS V14.01,2013-05-10 22:49:00,
2013-05-10 18:50:00,72.4,46.8,29.83,SSW,192,8.1,8.1,40,0.00,,,0.00,VWS V14.01,2013-05-10 22:50:00,
2013-05-10 18:51:00,72.2,46.6,29.83,South,176,5.8,8.1,40,0.00,,,0.00,VWS V14.01,2013-05-10 22:51:00,
2013-05-10 18:52:00,72.2,46.6,29.83,South,183,5.4,6.3,40,0.00,,,0.00,VWS V14.01,2013-05-10 22:52:00,
2013-05-10 18:53:00,72.1,46.4,29.83,SSE,162,3.6,5.8,40,0.00,,,0.00,VWS V14.01,2013-05-10 22:53:00,
2013-05-10 18:54:00,72.1,46.4,29.83,South,174,2.7,2.7,40,0.00,,,0.00,VWS V14.01,2013-05-10 22:54:00,
2013-05-10 18:55:00,72.1,47.1,29.83,SSW,194,3.1,3.1,41,0.00,,,0.00,VWS V14.01,2013-05-10 22:55:00,
2013-05-10 18:56:00,71.9,46.9,29.83,South,184,0.0,4.0,41,0.00,,,0.00,VWS V14.01,2013-05-10 22:56:00,
2013-05-10 18:57:00,71.9,46.9,29.83,SSE,156,7.6,7.6,41,0.00,,,0.00,VWS V14.01,2013-05-10 22:57:00,
2013-05-10 18:58:00,71.9,46.3,29.83,South,176,4.0,8.1,40,0.00,,,0.00,VWS V14.01,2013-05-10 22:58:00,
2013-05-10 18:59:00,71.7,46.8,29.83,South,183,4.0,4.0,41,0.00,,,0.00,VWS V14.01,2013-05-10 22:59:00,
2013-05-10 19:00:00,71.7,46.8,29.83,South,178,2.2,4.0,41,0.00,,,0.00,VWS V14.01,2013-05-10 23:00:00,
2013-05-10 19:01:00,71.7,46.8,29.83,SSE,162,3.1,4.0,41,0.00,,,0.00,VWS V14.01,2013-05-10 23:01:00,
2013-05-10 19:02:00,71.7,46.8,29.83,South,186,0.0,3.1,41,0.00,,,0.00,VWS V14.01,2013-05-10 23:02:00,
2013-05-10 19:03:00,71.7,46.8,29.83,South,191,6.3,8.7,41,0.00,,,0.00,VWS V14.01,2013-05-10 23:03:00,
2013-05-10 19:04:00,71.5,46.6,29.83,South,187,2.2,4.0,41,0.00,,,0.00,VWS V14.01,2013-05-10 23:04:00,
2013-05-10 19:05:00,71.5,46.6,29.83,SSW,199,6.3,6.3,41,0.00,,,0.00,VWS V14.01,2013-05-10 23:05:00,
2013-05-10 19:06:00,71.5,46.6,29.83,South,181,2.7,6.3,41,0.00,,,0.00,VWS V14.01,2013-05-10 23:06:00,
2013-05-10 19:07:00,71.5,46.6,29.83,SSE,156,5.8,5.8,41,0.00,,,0.00,VWS V14.01,2013-05-10 23:07:00,
2013-05-10 19:08:00,71.5,47.2,29.83,South,169,4.0,5.8,42,0.00,,,0.00,VWS V14.01,2013-05-10 23:08:00,
2013-05-10 19:09:00,71.5,47.2,29.83,South,181,3.6,3.6,42,0.00,,,0.00,VWS V14.01,2013-05-10 23:09:00,
2013-05-10 19:10:00,71.5,47.2,29.83,SSE,167,4.0,4.0,42,0.00,,,0.00,VWS V14.01,2013-05-10 23:10:00,
2013-05-10 19:11:00,71.3,47.1,29.83,SSW,201,2.7,4.0,42,0.00,,,0.00,VWS V14.01,2013-05-10 23:11:00,
2013-05-10 19:12:00,71.3,47.1,29.83,South,182,6.3,6.3,42,0.00,,,0.00,VWS V14.01,2013-05-10 23:12:00,
2013-05-10 19:13:00,71.3,47.1,29.83,SSW,192,3.6,6.3,42,0.00,,,0.00,VWS V14.01,2013-05-10 23:13:00,
2013-05-10 19:14:00,71.3,47.1,29.83,SSE,147,3.6,3.6,42,0.00,,,0.00,VWS V14.01,2013-05-10 23:14:00,
2013-05-10 19:15:00,71.3,47.1,29.83,SSE,158,3.6,4.9,42,0.00,,,0.00,VWS V14.01,2013-05-10 23:15:00,
2013-05-10 19:16:00,71.2,46.9,29.83,SE,144,3.1,6.3,42,0.00,,,0.00,VWS V14.01,2013-05-10 23:16:00,
2013-05-10 19:17:00,71.2,47.5,29.83,South,174,6.3,6.3,43,0.00,,,0.00,VWS V14.01,2013-05-10 23:17:00,
2013-05-10 19:18:00,71.2,47.5,29.83,SSW,193,3.6,6.3,43,0.00,,,0.00,VWS V14.01,2013-05-10 23:18:00,
2013-05-10 19:19:00,71.2,47.5,29.83,SSW,209,3.6,4.0,43,0.00,,,0.00,VWS V14.01,2013-05-10 23:19:00,
2013-05-10 19:20:00,71.2,47.5,29.83,SSW,195,3.1,4.0,43,0.00,,,0.00,VWS V14.01,2013-05-10 23:20:00,
2013-05-10 19:21:00,71.2,47.5,29.83,South,180,3.1,3.6,43,0.00,,,0.00,VWS V14.01,2013-05-10 23:21:00,
2013-05-10 19:22:00,71.2,47.5,29.83,SSW,194,3.1,3.6,43,0.00,,,0.00,VWS V14.01,2013-05-10 23:22:00,
2013-05-10 19:23:00,71.0,47.4,29.83,South,189,0.0,4.0,43,0.00,,,0.00,VWS V14.01,2013-05-10 23:23:00,
2013-05-10 19:24:00,71.0,47.4,29.83,SSE,151,4.0,4.0,43,0.00,,,0.00,VWS V14.01,2013-05-10 23:24:00,
2013-05-10 19:25:00,71.0,47.4,29.83,SSE,167,2.7,4.9,43,0.00,,,0.00,VWS V14.01,2013-05-10 23:25:00,
2013-05-10 19:26:00,71.0,47.4,29.83,South,181,5.8,6.3,43,0.00,,,0.00,VWS V14.01,2013-05-10 23:26:00,
2013-05-10 19:27:00,71.0,47.4,29.83,South,188,2.7,5.8,43,0.00,,,0.00,VWS V14.01,2013-05-10 23:27:00,
2013-05-10 19:28:00,71.0,47.4,29.83,South,177,2.7,8.1,43,0.00,,,0.00,VWS V14.01,2013-05-10 23:28:00,
2013-05-10 19:29:00,70.8,47.8,29.83,South,173,3.1,3.1,44,0.00,,,0.00,VWS V14.01,2013-05-10 23:29:00,
2013-05-10 19:30:00,70.8,47.8,29.83,South,191,4.0,4.0,44,0.00,,,0.00,VWS V14.01,2013-05-10 23:30:00,
2013-05-10 19:31:00,70.8,47.8,29.83,SSW,194,4.0,5.8,44,0.00,,,0.00,VWS V14.01,2013-05-10 23:31:00,
2013-05-10 19:32:00,70.8,47.8,29.83,SSE,165,5.8,6.3,44,0.00,,,0.00,VWS V14.01,2013-05-10 23:32:00,
2013-05-10 19:33:00,70.8,47.8,29.83,SSW,193,4.0,5.8,44,0.00,,,0.00,VWS V14.01,2013-05-10 23:33:00,
2013-05-10 19:34:00,70.6,48.3,29.83,South,186,0.0,2.7,45,0.00,,,0.00,VWS V14.01,2013-05-10 23:34:00,
2013-05-10 19:35:00,70.6,48.3,29.83,SW,235,3.1,3.1,45,0.00,,,0.00,VWS V14.01,2013-05-10 23:35:00,
2013-05-10 19:36:00,70.6,48.3,29.83,SSW,194,3.6,4.0,45,0.00,,,0.00,VWS V14.01,2013-05-10 23:36:00,
2013-05-10 19:37:00,70.6,48.3,29.83,South,180,2.7,3.6,45,0.00,,,0.00,VWS V14.01,2013-05-10 23:37:00,
2013-05-10 19:38:00,70.6,48.3,29.83,South,170,0.0,3.1,45,0.00,,,0.00,VWS V14.01,2013-05-10 23:38:00,
2013-05-10 19:39:00,70.4,48.1,29.83,South,176,4.9,6.3,45,0.00,,,0.00,VWS V14.01,2013-05-10 23:39:00,
2013-05-10 19:40:00,70.4,48.1,29.83,South,175,0.0,6.3,45,0.00,,,0.00,VWS V14.01,2013-05-10 23:40:00,
2013-05-10 19:41:00,70.4,48.1,29.83,South,190,0.0,0.0,45,0.00,,,0.00,VWS V14.01,2013-05-10 23:41:00,
2013-05-10 19:42:00,70.4,48.1,29.83,South,173,3.6,4.0,45,0.00,,,0.00,VWS V14.01,2013-05-10 23:42:00,
2013-05-10 19:43:00,70.4,48.1,29.83,South,176,2.2,3.6,45,0.00,,,0.00,VWS V14.01,2013-05-10 23:43:00,
2013-05-10 19:44:00,70.4,48.1,29.83,South,178,2.2,2.7,45,0.00,,,0.00,VWS V14.01,2013-05-10 23:44:00,
2013-05-10 19:45:00,70.4,48.1,29.83,South,179,0.0,2.7,45,0.00,,,0.00,VWS V14.01,2013-05-10 23:45:00,
2013-05-10 19:46:00,70.4,48.1,29.83,SSW,203,4.0,4.0,45,0.00,,,0.00,VWS V14.01,2013-05-10 23:46:00,
2013-05-10 19:47:00,70.4,48.1,29.83,South,173,4.0,4.0,45,0.00,,,0.00,VWS V14.01,2013-05-10 23:47:00,
2013-05-10 19:48:00,70.3,47.9,29.83,SSW,203,2.7,4.0,45,0.00,,,0.00,VWS V14.01,2013-05-10 23:48:00,
2013-05-10 19:49:00,70.3,47.9,29.83,South,177,4.0,4.9,45,0.00,,,0.00,VWS V14.01,2013-05-10 23:49:00,
2013-05-10 19:50:00,70.3,47.9,29.83,South,180,3.6,4.9,45,0.00,,,0.00,VWS V14.01,2013-05-10 23:50:00,
2013-05-10 19:51:00,70.3,47.9,29.83,South,181,3.1,3.6,45,0.00,,,0.00,VWS V14.01,2013-05-10 23:51:00,
2013-05-10 19:52:00,70.3,48.5,29.83,South,186,2.7,3.6,46,0.00,,,0.00,VWS V14.01,2013-05-10 23:52:00,
2013-05-10 19:53:00,70.3,48.5,29.83,South,176,2.7,5.4,46,0.00,,,0.00,VWS V14.01,2013-05-10 23:53:00,
2013-05-10 19:54:00,70.1,48.4,29.83,South,177,4.9,4.9,46,0.00,,,0.00,VWS V14.01,2013-05-10 23:54:00,
2013-05-10 19:55:00,70.1,48.4,29.83,SSW,195,4.0,4.9,46,0.00,,,0.00,VWS V14.01,2013-05-10 23:55:00,
2013-05-10 19:56:00,70.1,48.4,29.83,South,178,3.1,4.0,46,0.00,,,0.00,VWS V14.01,2013-05-10 23:56:00,
2013-05-10 19:57:00,70.1,48.4,29.83,South,187,3.6,4.0,46,0.00,,,0.00,VWS V14.01,2013-05-10 23:57:00,
2013-05-10 19:58:00,70.1,48.4,29.83,SSE,154,5.4,5.8,46,0.00,,,0.00,VWS V14.01,2013-05-10 23:58:00,
2013-05-10 19:59:00,69.9,48.2,29.83,SSE,158,2.7,4.0,46,0.00,,,0.00,VWS V14.01,2013-05-10 23:59:00,
2013-05-10 20:00:00,69.9,48.2,29.83,SSE,158,0.0,4.0,46,0.00,,,0.00,VWS V14.01,2013-05-11 00:00:00,
2013-05-10 20:01:00,69.9,48.2,29.83,South,170,2.7,3.6,46,0.00,,,0.00,VWS V14.01,2013-05-11 00:01:00,
2013-05-10 20:02:00,69.9,48.2,29.83,SSW,204,3.6,3.6,46,0.00,,,0.00,VWS V14.01,2013-05-11 00:02:00,
2013-05-10 20:03:00,69.9,48.2,29.83,SSW,204,0.0,3.6,46,0.00,,,0.00,VWS V14.01,2013-05-11 00:03:00,
2013-05-10 20:04:00,69.7,48.0,29.83,South,186,0.0,2.7,46,0.00,,,0.00,VWS V14.01,2013-05-11 00:04:00,
2013-05-10 20:05:00,69.7,48.0,29.83,South,186,0.0,2.7,46,0.00,,,0.00,VWS V14.01,2013-05-11 00:05:00,
2013-05-10 20:06:00,69.7,48.0,29.83,South,188,3.6,3.6,46,0.00,,,0.00,VWS V14.01,2013-05-11 00:06:00,
2013-05-10 20:07:00,69.7,48.0,29.83,South,176,4.0,5.4,46,0.00,,,0.00,VWS V14.01,2013-05-11 00:07:00,
2013-05-10 20:08:00,69.7,48.0,29.83,South,169,0.0,4.0,46,0.00,,,0.00,VWS V14.01,2013-05-11 00:08:00,
2013-05-10 20:09:00,69.7,48.6,29.83,SSE,155,4.0,4.0,47,0.00,,,0.00,VWS V14.01,2013-05-11 00:09:00,
2013-05-10 20:10:00,69.7,48.6,29.83,SSE,156,3.1,4.0,47,0.00,,,0.00,VWS V14.01,2013-05-11 00:10:00,
2013-05-10 20:11:00,69.5,48.5,29.83,South,171,3.6,4.0,47,0.00,,,0.00,VWS V14.01,2013-05-11 00:11:00,
2013-05-10 20:12:00,69.5,48.5,29.83,South,182,3.6,5.8,47,0.00,,,0.00,VWS V14.01,2013-05-11 00:12:00,
2013-05-10 20:13:00,69.5,48.5,29.83,SSE,147,3.6,3.6,47,0.00,,,0.00,VWS V14.01,2013-05-11 00:13:00,
2013-05-10 20:14:00,69.5,48.5,29.83,South,178,2.7,4.0,47,0.00,,,0.00,VWS V14.01,2013-05-11 00:14:00,
2013-05-10 20:15:00,69.5,48.5,29.83,South,189,3.1,4.0,47,0.00,,,0.00,VWS V14.01,2013-05-11 00:15:00,
2013-05-10 20:16:00,69.4,48.3,29.83,South,176,3.1,3.6,47,0.00,,,0.00,VWS V14.01,2013-05-11 00:16:00,
2013-05-10 20:17:00,69.4,48.3,29.83,South,176,2.2,3.1,47,0.00,,,0.00,VWS V14.01,2013-05-11 00:17:00,
2013-05-10 20:18:00,69.4,48.3,29.83,South,174,0.0,4.0,47,0.00,,,0.00,VWS V14.01,2013-05-11 00:18:00,
2013-05-10 20:19:00,69.4,48.3,29.83,South,186,4.0,4.0,47,0.00,,,0.00,VWS V14.01,2013-05-11 00:19:00,
2013-05-10 20:20:00,69.4,48.3,29.83,South,186,2.2,4.0,47,0.00,,,0.00,VWS V14.01,2013-05-11 00:20:00,
2013-05-10 20:21:00,69.4,48.3,29.83,South,186,2.7,2.7,47,0.00,,,0.00,VWS V14.01,2013-05-11 00:21:00,
2013-05-10 20:22:00,69.2,48.1,29.83,South,186,2.7,2.7,47,0.00,,,0.00,VWS V14.01,2013-05-11 00:22:00,
2013-05-10 20:23:00,69.2,48.1,29.83,South,186,0.0,2.7,47,0.00,,,0.00,VWS V14.01,2013-05-11 00:23:00,
2013-05-10 20:24:00,69.2,48.1,29.83,South,185,0.0,0.0,47,0.00,,,0.00,VWS V14.01,2013-05-11 00:24:00,
2013-05-10 20:25:00,69.2,48.1,29.83,South,185,0.0,0.0,47,0.00,,,0.00,VWS V14.01,2013-05-11 00:25:00,
2013-05-10 20:26:00,69.2,48.1,29.83,South,186,0.0,0.0,47,0.00,,,0.00,VWS V14.01,2013-05-11 00:26:00,
2013-05-10 20:27:00,69.0,48.0,29.83,South,185,0.0,0.0,47,0.00,,,0.00,VWS V14.01,2013-05-11 00:27:00,
2013-05-10 20:28:00,69.0,48.0,29.83,South,185,0.0,0.0,47,0.00,,,0.00,VWS V14.01,2013-05-11 00:28:00,
2013-05-10 20:29:00,69.0,48.0,29.83,South,185,0.0,0.0,47,0.00,,,0.00,VWS V14.01,2013-05-11 00:29:00,
2013-05-10 20:30:00,69.0,48.0,29.83,South,185,0.0,0.0,47,0.00,,,0.00,VWS V14.01,2013-05-11 00:30:00,
2013-05-10 20:31:00,69.0,48.0,29.83,South,187,4.0,4.0,47,0.00,,,0.00,VWS V14.01,2013-05-11 00:31:00,
2013-05-10 20:32:00,68.8,48.3,29.83,South,183,2.7,4.0,48,0.00,,,0.00,VWS V14.01,2013-05-11 00:32:00,
2013-05-10 20:33:00,68.8,48.3,29.83,South,187,0.0,3.6,48,0.00,,,0.00,VWS V14.01,2013-05-11 00:33:00,
2013-05-10 20:34:00,68.8,48.3,29.83,SSE,166,2.2,4.0,48,0.00,,,0.00,VWS V14.01,2013-05-11 00:34:00,
2013-05-10 20:35:00,68.8,48.3,29.83,SSE,166,2.7,2.7,48,0.00,,,0.00,VWS V14.01,2013-05-11 00:35:00,
2013-05-10 20:36:00,68.8,48.3,29.83,SSE,166,0.0,3.6,48,0.00,,,0.00,VWS V14.01,2013-05-11 00:36:00,
2013-05-10 20:37:00,68.6,48.2,29.83,SSE,166,0.0,0.0,48,0.00,,,0.00,VWS V14.01,2013-05-11 00:37:00,
2013-05-10 20:38:00,68.6,48.2,29.83,SSE,166,0.0,0.0,48,0.00,,,0.00,VWS V14.01,2013-05-11 00:38:00,
2013-05-10 20:39:00,68.6,48.2,29.83,SSE,166,4.0,4.0,48,0.00,,,0.00,VWS V14.01,2013-05-11 00:39:00,
2013-05-10 20:40:00,68.6,48.7,29.83,SSE,166,2.7,4.0,49,0.00,,,0.00,VWS V14.01,2013-05-11 00:40:00,
2013-05-10 20:41:00,68.5,48.6,29.83,South,187,3.1,4.0,49,0.00,,,0.00,VWS V14.01,2013-05-11 00:41:00,
2013-05-10 20:42:00,68.5,48.6,29.83,South,179,0.0,3.6,49,0.00,,,0.00,VWS V14.01,2013-05-11 00:42:00,
2013-05-10 20:43:00,68.5,48.6,29.83,South,179,0.0,0.0,49,0.00,,,0.00,VWS V14.01,2013-05-11 00:43:00,
2013-05-10 20:44:00,68.5,48.6,29.83,South,178,2.7,3.1,49,0.00,,,0.00,VWS V14.01,2013-05-11 00:44:00,
2013-05-10 20:45:00,68.5,48.6,29.83,South,187,2.2,3.6,49,0.00,,,0.00,VWS V14.01,2013-05-11 00:45:00,
2013-05-10 20:46:00,68.3,48.4,29.83,South,177,2.7,5.4,49,0.00,,,0.00,VWS V14.01,2013-05-11 00:46:00,
2013-05-10 20:47:00,68.3,48.4,29.83,South,176,3.1,4.0,49,0.00,,,0.00,VWS V14.01,2013-05-11 00:47:00,
2013-05-10 20:48:00,68.3,48.4,29.83,South,170,3.1,3.6,49,0.00,,,0.00,VWS V14.01,2013-05-11 00:48:00,
2013-05-10 20:49:00,68.3,48.4,29.83,South,179,0.0,3.6,49,0.00,,,0.00,VWS V14.01,2013-05-11 00:49:00,
2013-05-10 20:50:00,68.3,48.4,29.83,SSE,156,5.8,5.8,49,0.00,,,0.00,VWS V14.01,2013-05-11 00:50:00,
2013-05-10 20:51:00,68.1,48.2,29.83,South,170,2.7,5.8,49,0.00,,,0.00,VWS V14.01,2013-05-11 00:51:00,
2013-05-10 20:52:00,68.1,48.2,29.83,South,172,4.9,5.4,49,0.00,,,0.00,VWS V14.01,2013-05-11 00:52:00,
2013-05-10 20:53:00,68.1,48.2,29.83,South,171,2.2,4.9,49,0.00,,,0.00,VWS V14.01,2013-05-11 00:53:00,
2013-05-10 20:54:00,68.1,48.2,29.83,South,171,3.1,3.1,49,0.00,,,0.00,VWS V14.01,2013-05-11 00:54:00,
2013-05-10 20:55:00,68.1,48.2,29.83,South,186,5.4,5.4,49,0.00,,,0.00,VWS V14.01,2013-05-11 00:55:00,
2013-05-10 20:56:00,67.9,48.1,29.83,SSE,167,0.0,6.3,49,0.00,,,0.00,VWS V14.01,2013-05-11 00:56:00,
2013-05-10 20:57:00,67.9,48.1,29.83,South,172,2.2,4.0,49,0.00,,,0.00,VWS V14.01,2013-05-11 00:57:00,
2013-05-10 20:58:00,67.9,48.1,29.83,South,172,2.7,3.6,49,0.00,,,0.00,VWS V14.01,2013-05-11 00:58:00,
2013-05-10 20:59:00,67.9,48.1,29.83,South,172,2.7,2.7,49,0.00,,,0.00,VWS V14.01,2013-05-11 00:59:00,
2013-05-10 21:00:00,67.7,47.9,29.83,South,172,0.0,0.0,49,0.00,,,0.00,VWS V14.01,2013-05-11 01:00:00,
2013-05-10 21:01:00,67.7,47.9,29.83,South,172,2.7,2.7,49,0.00,,,0.00,VWS V14.01,2013-05-11 01:01:00,
2013-05-10 21:02:00,67.7,47.9,29.83,South,179,4.0,5.4,49,0.00,,,0.00,VWS V14.01,2013-05-11 01:02:00,
2013-05-10 21:03:00,67.7,47.9,29.83,South,179,0.0,4.0,49,0.00,,,0.00,VWS V14.01,2013-05-11 01:03:00,
2013-05-10 21:04:00,67.7,47.9,29.83,South,180,0.0,0.0,49,0.00,,,0.00,VWS V14.01,2013-05-11 01:04:00,
2013-05-10 21:05:00,67.6,48.3,29.83,SSE,167,2.7,3.1,50,0.00,,,0.00,VWS V14.01,2013-05-11 01:05:00,
2013-05-10 21:06:00,67.6,48.3,29.83,SSE,167,4.5,4.5,50,0.00,,,0.00,VWS V14.01,2013-05-11 01:06:00,
2013-05-10 21:07:00,67.6,48.3,29.83,SSE,166,5.8,5.8,50,0.00,,,0.00,VWS V14.01,2013-05-11 01:07:00,
2013-05-10 21:08:00,67.6,48.3,29.83,SSE,165,0.0,5.8,50,0.00,,,0.00,VWS V14.01,2013-05-11 01:08:00,
2013-05-10 21:09:00,67.4,48.1,29.83,SSE,165,0.0,0.0,50,0.00,,,0.00,VWS V14.01,2013-05-11 01:09:00,
2013-05-10 21:10:00,67.4,48.1,29.83,SSE,165,0.0,0.0,50,0.00,,,0.00,VWS V14.01,2013-05-11 01:10:00,
2013-05-10 21:11:00,67.4,48.1,29.83,SSE,165,0.0,0.0,50,0.00,,,0.00,VWS V14.01,2013-05-11 01:11:00,
2013-05-10 21:12:00,67.4,48.1,29.83,South,186,2.2,5.8,50,0.00,,,0.00,VWS V14.01,2013-05-11 01:12:00,
2013-05-10 21:13:00,67.2,48.0,29.83,South,186,0.0,2.2,50,0.00,,,0.00,VWS V14.01,2013-05-11 01:13:00,
2013-05-10 21:14:00,67.2,48.0,29.83,South,181,3.1,3.1,50,0.00,,,0.00,VWS V14.01,2013-05-11 01:14:00,
2013-05-10 21:15:00,67.2,48.0,29.83,SSE,164,3.6,3.6,50,0.00,,,0.00,VWS V14.01,2013-05-11 01:15:00,
2013-05-10 21:16:00,67.2,48.0,29.83,SSE,164,2.7,3.6,50,0.00,,,0.00,VWS V14.01,2013-05-11 01:16:00,
2013-05-10 21:17:00,67.2,48.0,29.83,SSE,164,0.0,2.7,50,0.00,,,0.00,VWS V14.01,2013-05-11 01:17:00,
2013-05-10 21:18:00,67.0,48.3,29.83,SSE,164,0.0,2.2,51,0.00,,,0.00,VWS V14.01,2013-05-11 01:18:00,
2013-05-10 21:19:00,67.0,48.3,29.83,SSE,164,2.2,2.2,51,0.00,,,0.00,VWS V14.01,2013-05-11 01:19:00,
2013-05-10 21:20:00,67.0,48.3,29.83,SSE,164,2.7,2.7,51,0.00,,,0.00,VWS V14.01,2013-05-11 01:20:00,
2013-05-10 21:21:00,67.0,48.3,29.83,SSE,164,2.7,2.7,51,0.00,,,0.00,VWS V14.01,2013-05-11 01:21:00,
2013-05-10 21:22:00,67.0,48.3,29.83,SSE,164,0.0,2.7,51,0.00,,,0.00,VWS V14.01,2013-05-11 01:22:00,
2013-05-10 21:23:00,66.8,48.2,29.83,SSE,164,2.2,3.6,51,0.00,,,0.00,VWS V14.01,2013-05-11 01:23:00,
2013-05-10 21:24:00,66.8,48.2,29.83,SSE,164,0.0,2.2,51,0.00,,,0.00,VWS V14.01,2013-05-11 01:24:00,
2013-05-10 21:25:00,66.8,48.2,29.83,SSE,166,3.1,4.0,51,0.00,,,0.00,VWS V14.01,2013-05-11 01:25:00,
2013-05-10 21:26:00,66.8,48.2,29.83,SSE,166,0.0,4.0,51,0.00,,,0.00,VWS V14.01,2013-05-11 01:26:00,
2013-05-10 21:27:00,66.8,48.2,29.83,SSE,166,3.1,3.1,51,0.00,,,0.00,VWS V14.01,2013-05-11 01:27:00,
2013-05-10 21:28:00,66.7,48.0,29.83,SSE,166,0.0,3.1,51,0.00,,,0.00,VWS V14.01,2013-05-11 01:28:00,
2013-05-10 21:29:00,66.7,48.0,29.83,SSE,166,2.7,3.1,51,0.00,,,0.00,VWS V14.01,2013-05-11 01:29:00,
2013-05-10 21:30:00,66.7,48.0,29.83,SSE,166,0.0,0.0,51,0.00,,,0.00,VWS V14.01,2013-05-11 01:30:00,
2013-05-10 21:31:00,66.7,48.0,29.83,SSE,166,0.0,0.0,51,0.00,,,0.00,VWS V14.01,2013-05-11 01:31:00,
2013-05-10 21:32:00,66.7,48.0,29.83,SSE,166,0.0,0.0,51,0.00,,,0.00,VWS V14.01,2013-05-11 01:32:00,
2013-05-10 21:33:00,66.7,48.0,29.83,SSE,166,0.0,0.0,51,0.00,,,0.00,VWS V14.01,2013-05-11 01:33:00,
2013-05-10 21:34:00,66.5,47.8,29.83,SSE,166,0.0,0.0,51,0.00,,,0.00,VWS V14.01,2013-05-11 01:34:00,
2013-05-10 21:35:00,66.5,47.8,29.83,SSE,166,0.0,0.0,51,0.00,,,0.00,VWS V14.01,2013-05-11 01:35:00,
2013-05-10 21:36:00,66.5,47.8,29.83,SSE,166,0.0,0.0,51,0.00,,,0.00,VWS V14.01,2013-05-11 01:36:00,
2013-05-10 21:37:00,66.5,48.3,29.83,SSE,166,0.0,0.0,52,0.00,,,0.00,VWS V14.01,2013-05-11 01:37:00,
2013-05-10 21:38:00,66.5,48.3,29.83,SSE,166,3.1,4.0,52,0.00,,,0.00,VWS V14.01,2013-05-11 01:38:00,
2013-05-10 21:39:00,66.3,48.2,29.83,SSE,166,4.0,4.0,52,0.00,,,0.00,VWS V14.01,2013-05-11 01:39:00,
2013-05-10 21:40:00,66.3,48.2,29.83,SSE,166,2.2,3.6,52,0.00,,,0.00,VWS V14.01,2013-05-11 01:40:00,
2013-05-10 21:41:00,66.3,48.2,29.83,SSE,166,0.0,3.6,52,0.00,,,0.00,VWS V14.01,2013-05-11 01:41:00,
2013-05-10 21:42:00,66.3,48.2,29.83,SSE,166,0.0,2.2,52,0.00,,,0.00,VWS V14.01,2013-05-11 01:42:00,
2013-05-10 21:43:00,66.1,48.0,29.83,SSE,166,0.0,0.0,52,0.00,,,0.00,VWS V14.01,2013-05-11 01:43:00,
2013-05-10 21:44:00,66.1,48.0,29.83,SSE,166,0.0,0.0,52,0.00,,,0.00,VWS V14.01,2013-05-11 01:44:00,
2013-05-10 21:45:00,66.1,48.0,29.83,SSE,166,0.0,0.0,52,0.00,,,0.00,VWS V14.01,2013-05-11 01:45:00,
2013-05-10 21:46:00,66.1,48.0,29.83,SSE,166,0.0,0.0,52,0.00,,,0.00,VWS V14.01,2013-05-11 01:46:00,
2013-05-10 21:47:00,66.1,48.0,29.83,SSE,166,0.0,0.0,52,0.00,,,0.00,VWS V14.01,2013-05-11 01:47:00,
2013-05-10 21:48:00,65.9,47.8,29.83,SSE,166,0.0,0.0,52,0.00,,,0.00,VWS V14.01,2013-05-11 01:48:00,
2013-05-10 21:49:00,65.9,47.8,29.83,SSE,166,0.0,0.0,52,0.00,,,0.00,VWS V14.01,2013-05-11 01:49:00,
2013-05-10 21:50:00,65.9,47.8,29.83,SSE,166,2.7,3.1,52,0.00,,,0.00,VWS V14.01,2013-05-11 01:50:00,
2013-05-10 21:51:00,65.9,47.8,29.83,SSE,166,2.2,3.1,52,0.00,,,0.00,VWS V14.01,2013-05-11 01:51:00,
2013-05-10 21:52:00,65.9,47.8,29.83,SSE,166,0.0,2.2,52,0.00,,,0.00,VWS V14.01,2013-05-11 01:52:00,
2013-05-10 21:53:00,65.9,47.8,29.83,South,186,5.8,6.3,52,0.00,,,0.00,VWS V14.01,2013-05-11 01:53:00,
2013-05-10 21:54:00,65.8,47.7,29.83,SSE,161,4.0,5.8,52,0.00,,,0.00,VWS V14.01,2013-05-11 01:54:00,
2013-05-10 21:55:00,65.8,47.7,29.83,South,171,2.7,4.0,52,0.00,,,0.00,VWS V14.01,2013-05-11 01:55:00,
2013-05-10 21:56:00,65.8,47.7,29.83,South,175,3.6,4.0,52,0.00,,,0.00,VWS V14.01,2013-05-11 01:56:00,
2013-05-10 21:57:00,65.8,47.7,29.83,South,174,5.8,5.8,52,0.00,,,0.00,VWS V14.01,2013-05-11 01:57:00,
2013-05-10 21:58:00,65.8,47.7,29.83,South,176,3.6,5.8,52,0.00,,,0.00,VWS V14.01,2013-05-11 01:58:00,
2013-05-10 21:59:00,65.8,47.7,29.83,SSE,148,4.0,4.0,52,0.00,,,0.00,VWS V14.01,2013-05-11 01:59:00,
2013-05-10 22:00:00,65.8,47.7,29.83,SSW,192,2.7,4.0,52,0.00,,,0.00,VWS V14.01,2013-05-11 02:00:00,
2013-05-10 22:01:00,65.8,47.7,29.83,South,176,4.0,4.0,52,0.00,,,0.00,VWS V14.01,2013-05-11 02:01:00,
2013-05-10 22:02:00,65.8,47.7,29.83,South,175,0.0,4.0,52,0.00,,,0.00,VWS V14.01,2013-05-11 02:02:00,
2013-05-10 22:03:00,65.8,47.7,29.83,SSE,168,3.6,3.6,52,0.00,,,0.00,VWS V14.01,2013-05-11 02:03:00,
2013-05-10 22:04:00,65.8,47.7,29.83,South,172,2.2,4.0,52,0.00,,,0.00,VWS V14.01,2013-05-11 02:04:00,
2013-05-10 22:05:00,65.8,47.7,29.83,South,174,0.0,0.0,52,0.00,,,0.00,VWS V14.01,2013-05-11 02:05:00,
2013-05-10 22:06:00,65.8,48.2,29.83,South,174,0.0,0.0,53,0.00,,,0.00,VWS V14.01,2013-05-11 02:06:00,
2013-05-10 22:07:00,65.8,48.2,29.83,South,174,2.7,4.0,53,0.00,,,0.00,VWS V14.01,2013-05-11 02:07:00,
2013-05-10 22:08:00,65.8,48.2,29.83,South,174,2.2,2.7,53,0.00,,,0.00,VWS V14.01,2013-05-11 02:08:00,
2013-05-10 22:09:00,65.8,48.2,29.83,SSE,163,4.0,4.0,53,0.00,,,0.00,VWS V14.01,2013-05-11 02:09:00,
2013-05-10 22:10:00,65.6,48.0,29.83,SSE,163,3.6,4.0,53,0.00,,,0.00,VWS V14.01,2013-05-11 02:10:00,
2013-05-10 22:11:00,65.6,48.0,29.83,SSE,163,3.1,4.0,53,0.00,,,0.00,VWS V14.01,2013-05-11 02:11:00,
2013-05-10 22:12:00,65.6,48.0,29.83,South,175,0.0,5.4,53,0.00,,,0.00,VWS V14.01,2013-05-11 02:12:00,
2013-05-10 22:13:00,65.6,48.0,29.83,South,175,0.0,0.0,53,0.00,,,0.00,VWS V14.01,2013-05-11 02:13:00,
2013-05-10 22:14:00,65.6,48.0,29.83,South,175,0.0,0.0,53,0.00,,,0.00,VWS V14.01,2013-05-11 02:14:00,
2013-05-10 22:15:00,65.6,48.0,29.83,South,185,5.4,5.4,53,0.00,,,0.00,VWS V14.01,2013-05-11 02:15:00,
2013-05-10 22:16:00,65.6,48.0,29.83,South,178,5.8,5.8,53,0.00,,,0.00,VWS V14.01,2013-05-11 02:16:00,
2013-05-10 22:17:00,65.6,48.5,29.83,SSE,157,3.1,5.8,54,0.00,,,0.00,VWS V14.01,2013-05-11 02:17:00,
2013-05-10 22:18:00,65.6,48.0,29.83,SSE,157,4.0,4.0,53,0.00,,,0.00,VWS V14.01,2013-05-11 02:18:00,
2013-05-10 22:19:00,65.6,48.0,29.83,SSE,164,2.7,4.9,53,0.00,,,0.00,VWS V14.01,2013-05-11 02:19:00,
2013-05-10 22:20:00,65.8,48.7,29.83,South,179,5.8,5.8,54,0.00,,,0.00,VWS V14.01,2013-05-11 02:20:00,
2013-05-10 22:21:00,65.8,48.7,29.83,South,179,2.2,5.8,54,0.00,,,0.00,VWS V14.01,2013-05-11 02:21:00,
2013-05-10 22:22:00,65.8,48.2,29.83,South,179,0.0,3.6,53,0.00,,,0.00,VWS V14.01,2013-05-11 02:22:00,
2013-05-10 22:23:00,65.8,48.2,29.83,South,179,0.0,0.0,53,0.00,,,0.00,VWS V14.01,2013-05-11 02:23:00,
2013-05-10 22:24:00,65.6,48.0,29.83,South,175,3.1,3.1,53,0.00,,,0.00,VWS V14.01,2013-05-11 02:24:00,
2013-05-10 22:25:00,65.6,48.0,29.83,South,181,3.1,5.8,53,0.00,,,0.00,VWS V14.01,2013-05-11 02:25:00,
2013-05-10 22:26:00,65.6,48.0,29.83,South,181,0.0,3.1,53,0.00,,,0.00,VWS V14.01,2013-05-11 02:26:00,
2013-05-10 22:27:00,65.6,48.5,29.83,SSE,158,3.1,3.1,54,0.00,,,0.00,VWS V14.01,2013-05-11 02:27:00,
2013-05-10 22:28:00,65.6,48.5,29.83,SSE,158,2.2,3.1,54,0.00,,,0.00,VWS V14.01,2013-05-11 02:28:00,
2013-05-10 22:29:00,65.6,48.5,29.83,South,189,3.6,5.8,54,0.00,,,0.00,VWS V14.01,2013-05-11 02:29:00,
2013-05-10 22:30:00,65.6,48.5,29.83,South,188,3.1,3.6,54,0.00,,,0.00,VWS V14.01,2013-05-11 02:30:00,
2013-05-10 22:31:00,65.6,48.5,29.83,South,180,4.0,5.4,54,0.00,,,0.00,VWS V14.01,2013-05-11 02:31:00,
2013-05-10 22:32:00,65.6,48.5,29.83,South,173,4.0,4.0,54,0.00,,,0.00,VWS V14.01,2013-05-11 02:32:00,
2013-05-10 22:33:00,65.6,48.5,29.83,South,170,8.1,8.1,54,0.00,,,0.00,VWS V14.01,2013-05-11 02:33:00,
2013-05-10 22:34:00,65.6,48.5,29.83,SSW,196,4.0,8.1,54,0.00,,,0.00,VWS V14.01,2013-05-11 02:34:00,
2013-05-10 22:35:00,65.6,48.5,29.83,South,185,3.1,4.0,54,0.00,,,0.00,VWS V14.01,2013-05-11 02:35:00,